<?xml version='1.0' encoding='UTF-8'?><gpx version="1.1" creator="JPX - https://github.com/jenetics/jpx" xmlns="http://www.topografix.com/GPX/1/1"><trk><trkseg><trkpt lat="45.9516867" lon="4.4852883"><ele>512.8333333333334</ele><time>2026-03-31T14:27:27.47Z</time></trkpt><trkpt lat="45.9517217" lon="4.4853733"><ele>514.6666666666667</ele><time>2026-03-31T14:27:48.47Z</time></trkpt><trkpt lat="45.9517933" lon="4.485365"><ele>516.5</ele><time>2026-03-31T14:27:50.469Z</time></trkpt><trkpt lat="45.9518883" lon="4.4853733"><ele>518.3333333333334</ele><time>2026-03-31T14:27:52.47Z</time></trkpt><trkpt lat="45.9520083" lon="4.48538"><ele>520.1666666666666</ele><time>2026-03-31T14:27:54.47Z</time></trkpt><trkpt lat="45.9520767" lon="4.485385"><ele>522.0</ele><time>2026-03-31T14:27:55.47Z</time></trkpt><trkpt lat="45.9521467" lon="4.4853833"><ele>522.0</ele><time>2026-03-31T14:27:56.47Z</time></trkpt><trkpt lat="45.952275" lon="4.4853883"><ele>522.0</ele><time>2026-03-31T14:27:58.469Z</time></trkpt><trkpt lat="45.9523983" lon="4.4853967"><ele>522.0</ele><time>2026-03-31T14:28:00.47Z</time></trkpt><trkpt lat="45.952505" lon="4.4854133"><ele>522.0</ele><time>2026-03-31T14:28:02.469Z</time></trkpt><trkpt lat="45.9526233" lon="4.4854583"><ele>522.8333333333334</ele><time>2026-03-31T14:28:04.47Z</time></trkpt><trkpt lat="45.952685" lon="4.4854767"><ele>523.6666666666666</ele><time>2026-03-31T14:28:05.47Z</time></trkpt><trkpt lat="45.9528083" lon="4.4855083"><ele>524.5</ele><time>2026-03-31T14:28:07.47Z</time></trkpt><trkpt lat="45.9528767" lon="4.4855367"><ele>525.3333333333333</ele><time>2026-03-31T14:28:08.47Z</time></trkpt><trkpt lat="45.9529667" lon="4.485575"><ele>526.1666666666666</ele><time>2026-03-31T14:28:10.47Z</time></trkpt><trkpt lat="45.9530567" lon="4.4856133"><ele>527.0</ele><time>2026-03-31T14:28:12.47Z</time></trkpt><trkpt lat="45.9531617" lon="4.4856517"><ele>527.0</ele><time>2026-03-31T14:28:14.47Z</time></trkpt><trkpt lat="45.9532617" lon="4.4857"><ele>527.0</ele><time>2026-03-31T14:28:16.47Z</time></trkpt><trkpt lat="45.95337" lon="4.4857433"><ele>527.0</ele><time>2026-03-31T14:28:18.47Z</time></trkpt><trkpt lat="45.9534317" lon="4.48577"><ele>527.0</ele><time>2026-03-31T14:28:19.47Z</time></trkpt><trkpt lat="45.9534983" lon="4.4858033"><ele>527.0</ele><time>2026-03-31T14:28:20.47Z</time></trkpt><trkpt lat="45.953605" lon="4.4858617"><ele>529.6</ele><time>2026-03-31T14:28:22.47Z</time></trkpt><trkpt lat="45.953695" lon="4.48589"><ele>532.2</ele><time>2026-03-31T14:28:24.47Z</time></trkpt><trkpt lat="45.9537833" lon="4.4859433"><ele>534.8</ele><time>2026-03-31T14:28:26.47Z</time></trkpt><trkpt lat="45.95387" lon="4.4859817"><ele>537.4</ele><time>2026-03-31T14:28:28.47Z</time></trkpt><trkpt lat="45.9539967" lon="4.4860017"><ele>540.0</ele><time>2026-03-31T14:28:30.47Z</time></trkpt><trkpt lat="45.95409" lon="4.4860233"><ele>540.0</ele><time>2026-03-31T14:28:32.47Z</time></trkpt><trkpt lat="45.9541933" lon="4.4860367"><ele>540.0</ele><time>2026-03-31T14:28:34.47Z</time></trkpt><trkpt lat="45.9542883" lon="4.48602"><ele>540.0</ele><time>2026-03-31T14:28:36.47Z</time></trkpt><trkpt lat="45.9543783" lon="4.4860017"><ele>540.0</ele><time>2026-03-31T14:28:38.47Z</time></trkpt><trkpt lat="45.9544817" lon="4.4859733"><ele>540.0</ele><time>2026-03-31T14:28:40.469Z</time></trkpt><trkpt lat="45.954545" lon="4.485955"><ele>542.4</ele><time>2026-03-31T14:28:41.47Z</time></trkpt><trkpt lat="45.9546417" lon="4.4858983"><ele>544.8</ele><time>2026-03-31T14:28:43.47Z</time></trkpt><trkpt lat="45.9547167" lon="4.485845"><ele>547.2</ele><time>2026-03-31T14:28:45.47Z</time></trkpt><trkpt lat="45.9548083" lon="4.48584"><ele>549.6</ele><time>2026-03-31T14:28:47.469Z</time></trkpt><trkpt lat="45.9549067" lon="4.4858533"><ele>552.0</ele><time>2026-03-31T14:28:49.47Z</time></trkpt><trkpt lat="45.95502" lon="4.4859067"><ele>554.6666666666666</ele><time>2026-03-31T14:28:51.47Z</time></trkpt><trkpt lat="45.9551233" lon="4.485965"><ele>557.3333333333334</ele><time>2026-03-31T14:28:53.47Z</time></trkpt><trkpt lat="45.9552017" lon="4.4859867"><ele>560.0</ele><time>2026-03-31T14:28:55.47Z</time></trkpt><trkpt lat="45.9553033" lon="4.4859983"><ele>562.6666666666667</ele><time>2026-03-31T14:28:57.47Z</time></trkpt><trkpt lat="45.9553883" lon="4.4860133"><ele>565.3333333333334</ele><time>2026-03-31T14:28:59.47Z</time></trkpt><trkpt lat="45.9554533" lon="4.48601"><ele>568.0</ele><time>2026-03-31T14:29:01.47Z</time></trkpt><trkpt lat="45.95554" lon="4.4860133"><ele>568.0</ele><time>2026-03-31T14:29:03.47Z</time></trkpt><trkpt lat="45.955635" lon="4.48603"><ele>568.0</ele><time>2026-03-31T14:29:05.47Z</time></trkpt><trkpt lat="45.9557467" lon="4.486035"><ele>568.0</ele><time>2026-03-31T14:29:07.47Z</time></trkpt><trkpt lat="45.9558467" lon="4.4860267"><ele>568.0</ele><time>2026-03-31T14:29:09.47Z</time></trkpt><trkpt lat="45.955925" lon="4.4860217"><ele>568.0</ele><time>2026-03-31T14:29:11.47Z</time></trkpt><trkpt lat="45.9560083" lon="4.48604"><ele>571.8</ele><time>2026-03-31T14:29:13.47Z</time></trkpt><trkpt lat="45.9561183" lon="4.48605"><ele>575.5999999999999</ele><time>2026-03-31T14:29:15.47Z</time></trkpt><trkpt lat="45.9562283" lon="4.486045"><ele>579.4000000000001</ele><time>2026-03-31T14:29:17.47Z</time></trkpt><trkpt lat="45.956295" lon="4.48604"><ele>583.2</ele><time>2026-03-31T14:29:19.47Z</time></trkpt><trkpt lat="45.9563667" lon="4.4860133"><ele>587.0</ele><time>2026-03-31T14:29:21.47Z</time></trkpt><trkpt lat="45.956455" lon="4.48595"><ele>587.0</ele><time>2026-03-31T14:29:23.469Z</time></trkpt><trkpt lat="45.9565433" lon="4.4859117"><ele>587.0</ele><time>2026-03-31T14:29:25.47Z</time></trkpt><trkpt lat="45.9566183" lon="4.4859383"><ele>587.0</ele><time>2026-03-31T14:29:27.47Z</time></trkpt><trkpt lat="45.9566933" lon="4.486"><ele>587.0</ele><time>2026-03-31T14:29:29.469Z</time></trkpt><trkpt lat="45.9567317" lon="4.4860767"><ele>587.0</ele><time>2026-03-31T14:29:31.47Z</time></trkpt><trkpt lat="45.9567217" lon="4.4861783"><ele>587.0</ele><time>2026-03-31T14:29:33.47Z</time></trkpt><trkpt lat="45.9566733" lon="4.4862767"><ele>587.0</ele><time>2026-03-31T14:29:35.47Z</time></trkpt><trkpt lat="45.9565917" lon="4.4863833"><ele>587.0</ele><time>2026-03-31T14:29:37.47Z</time></trkpt><trkpt lat="45.95651" lon="4.4864683"><ele>587.0</ele><time>2026-03-31T14:29:39.47Z</time></trkpt><trkpt lat="45.9564533" lon="4.4865283"><ele>587.0</ele><time>2026-03-31T14:29:41.469Z</time></trkpt><trkpt lat="45.956395" lon="4.486575"><ele>587.0</ele><time>2026-03-31T14:29:43.47Z</time></trkpt><trkpt lat="45.9563367" lon="4.4866433"><ele>587.0</ele><time>2026-03-31T14:29:45.47Z</time></trkpt><trkpt lat="45.9562633" lon="4.4867417"><ele>587.0</ele><time>2026-03-31T14:29:47.47Z</time></trkpt><trkpt lat="45.9561617" lon="4.4868467"><ele>587.0</ele><time>2026-03-31T14:29:49.47Z</time></trkpt><trkpt lat="45.95608" lon="4.4869333"><ele>587.0</ele><time>2026-03-31T14:29:51.47Z</time></trkpt><trkpt lat="45.9559967" lon="4.487"><ele>587.0</ele><time>2026-03-31T14:29:54.47Z</time></trkpt><trkpt lat="45.955905" lon="4.4871317"><ele>589.6</ele><time>2026-03-31T14:30:54.471Z</time></trkpt><trkpt lat="45.9558167" lon="4.4871917"><ele>592.2</ele><time>2026-03-31T14:30:57.471Z</time></trkpt><trkpt lat="45.9557167" lon="4.4872333"><ele>594.8</ele><time>2026-03-31T14:30:59.471Z</time></trkpt><trkpt lat="45.955615" lon="4.48728"><ele>597.4</ele><time>2026-03-31T14:31:01.471Z</time></trkpt><trkpt lat="45.9555317" lon="4.487325"><ele>600.0</ele><time>2026-03-31T14:31:03.471Z</time></trkpt><trkpt lat="45.9554283" lon="4.4873917"><ele>600.0</ele><time>2026-03-31T14:31:05.471Z</time></trkpt><trkpt lat="45.95532" lon="4.487465"><ele>600.0</ele><time>2026-03-31T14:31:07.471Z</time></trkpt><trkpt lat="45.95523" lon="4.48755"><ele>600.0</ele><time>2026-03-31T14:31:09.471Z</time></trkpt><trkpt lat="45.9551783" lon="4.4876017"><ele>600.0</ele><time>2026-03-31T14:31:10.471Z</time></trkpt><trkpt lat="45.9550967" lon="4.487695"><ele>600.0</ele><time>2026-03-31T14:31:12.47Z</time></trkpt><trkpt lat="45.95501" lon="4.4878067"><ele>600.8333333333334</ele><time>2026-03-31T14:31:14.471Z</time></trkpt><trkpt lat="45.9549683" lon="4.4878767"><ele>601.6666666666666</ele><time>2026-03-31T14:31:15.471Z</time></trkpt><trkpt lat="45.9549217" lon="4.48796"><ele>602.5</ele><time>2026-03-31T14:31:16.471Z</time></trkpt><trkpt lat="45.9548805" lon="4.4880387"><ele>603.3333333333333</ele><time>2026-03-31T14:31:17.471Z</time></trkpt><trkpt lat="45.9548435" lon="4.4881147"><ele>604.1666666666666</ele><time>2026-03-31T14:31:18.471Z</time></trkpt><trkpt lat="45.9547557" lon="4.4882192"><ele>605.0</ele><time>2026-03-31T14:31:20.47Z</time></trkpt><trkpt lat="45.9546589" lon="4.4882939"><ele>605.0</ele><time>2026-03-31T14:31:22.471Z</time></trkpt><trkpt lat="45.9545757" lon="4.4883302"><ele>605.0</ele><time>2026-03-31T14:31:24.471Z</time></trkpt><trkpt lat="45.9544834" lon="4.4883522"><ele>605.0</ele><time>2026-03-31T14:31:26.471Z</time></trkpt><trkpt lat="45.9544206" lon="4.4883458"><ele>605.0</ele><time>2026-03-31T14:31:27.471Z</time></trkpt><trkpt lat="45.9543575" lon="4.4883352"><ele>605.0</ele><time>2026-03-31T14:31:28.471Z</time></trkpt><trkpt lat="45.9542898" lon="4.4883171"><ele>605.0</ele><time>2026-03-31T14:31:29.471Z</time></trkpt><trkpt lat="45.9542214" lon="4.488306"><ele>605.0</ele><time>2026-03-31T14:31:30.471Z</time></trkpt><trkpt lat="45.9541518" lon="4.4882928"><ele>604.1428571428571</ele><time>2026-03-31T14:31:31.471Z</time></trkpt><trkpt lat="45.9540725" lon="4.4882817"><ele>603.2857142857143</ele><time>2026-03-31T14:31:32.471Z</time></trkpt><trkpt lat="45.9540052" lon="4.4882733"><ele>602.4285714285714</ele><time>2026-03-31T14:31:33.471Z</time></trkpt><trkpt lat="45.9539277" lon="4.4882593"><ele>601.5714285714286</ele><time>2026-03-31T14:31:34.471Z</time></trkpt><trkpt lat="45.9538492" lon="4.4882494"><ele>600.7142857142857</ele><time>2026-03-31T14:31:35.471Z</time></trkpt><trkpt lat="45.9537808" lon="4.4882429"><ele>599.8571428571429</ele><time>2026-03-31T14:31:36.47Z</time></trkpt><trkpt lat="45.9537157" lon="4.4882354"><ele>599.0</ele><time>2026-03-31T14:31:37.47Z</time></trkpt><trkpt lat="45.9536013" lon="4.4882304"><ele>599.0</ele><time>2026-03-31T14:31:39.471Z</time></trkpt><trkpt lat="45.953493" lon="4.4882368"><ele>599.0</ele><time>2026-03-31T14:31:41.471Z</time></trkpt><trkpt lat="45.9533908" lon="4.4882432"><ele>599.0</ele><time>2026-03-31T14:31:43.471Z</time></trkpt><trkpt lat="45.9532928" lon="4.4882521"><ele>599.0</ele><time>2026-03-31T14:31:45.471Z</time></trkpt><trkpt lat="45.9531764" lon="4.4882637"><ele>599.0</ele><time>2026-03-31T14:31:47.471Z</time></trkpt><trkpt lat="45.9530909" lon="4.4882668"><ele>599.4</ele><time>2026-03-31T14:31:49.471Z</time></trkpt><trkpt lat="45.95299" lon="4.488275"><ele>599.8</ele><time>2026-03-31T14:31:52.471Z</time></trkpt><trkpt lat="45.9529233" lon="4.4882767"><ele>600.2</ele><time>2026-03-31T14:31:53.471Z</time></trkpt><trkpt lat="45.9528383" lon="4.4883367"><ele>600.6</ele><time>2026-03-31T14:31:55.471Z</time></trkpt><trkpt lat="45.9527383" lon="4.4884083"><ele>601.0</ele><time>2026-03-31T14:31:57.471Z</time></trkpt><trkpt lat="45.952655" lon="4.48851"><ele>601.0</ele><time>2026-03-31T14:31:59.471Z</time></trkpt><trkpt lat="45.9525833" lon="4.4886367"><ele>601.0</ele><time>2026-03-31T14:32:01.471Z</time></trkpt><trkpt lat="45.9525433" lon="4.4887583"><ele>601.0</ele><time>2026-03-31T14:32:03.471Z</time></trkpt><trkpt lat="45.9525183" lon="4.4889"><ele>601.0</ele><time>2026-03-31T14:32:05.471Z</time></trkpt><trkpt lat="45.9525233" lon="4.48907"><ele>601.0</ele><time>2026-03-31T14:32:07.471Z</time></trkpt><trkpt lat="45.952535" lon="4.4892233"><ele>601.0</ele><time>2026-03-31T14:32:09.471Z</time></trkpt><trkpt lat="45.9525467" lon="4.48932"><ele>601.0</ele><time>2026-03-31T14:32:12.471Z</time></trkpt><trkpt lat="45.9525533" lon="4.4892083"><ele>601.0</ele><time>2026-03-31T14:32:18.471Z</time></trkpt><trkpt lat="45.9525217" lon="4.4890733"><ele>601.0</ele><time>2026-03-31T14:32:20.47Z</time></trkpt><trkpt lat="45.9525183" lon="4.4889467"><ele>601.0</ele><time>2026-03-31T14:32:22.47Z</time></trkpt><trkpt lat="45.9525283" lon="4.4887967"><ele>601.0</ele><time>2026-03-31T14:32:24.471Z</time></trkpt><trkpt lat="45.9525567" lon="4.4886483"><ele>601.0</ele><time>2026-03-31T14:32:26.47Z</time></trkpt><trkpt lat="45.9526067" lon="4.48856"><ele>601.0</ele><time>2026-03-31T14:32:28.471Z</time></trkpt><trkpt lat="45.9526717" lon="4.4884617"><ele>601.0</ele><time>2026-03-31T14:32:30.471Z</time></trkpt><trkpt lat="45.9527483" lon="4.488405"><ele>601.0</ele><time>2026-03-31T14:32:32.471Z</time></trkpt><trkpt lat="45.9528217" lon="4.4883483"><ele>601.0</ele><time>2026-03-31T14:32:34.471Z</time></trkpt><trkpt lat="45.9529333" lon="4.4882983"><ele>601.0</ele><time>2026-03-31T14:32:36.471Z</time></trkpt><trkpt lat="45.953" lon="4.488285"><ele>601.0</ele><time>2026-03-31T14:32:37.471Z</time></trkpt><trkpt lat="45.9531" lon="4.4882783"><ele>601.0</ele><time>2026-03-31T14:32:39.471Z</time></trkpt><trkpt lat="45.95317" lon="4.4882883"><ele>601.0</ele><time>2026-03-31T14:32:41.471Z</time></trkpt><trkpt lat="45.9531633" lon="4.4881967"><ele>601.0</ele><time>2026-03-31T14:32:46.471Z</time></trkpt><trkpt lat="45.9531" lon="4.4881567"><ele>601.0</ele><time>2026-03-31T14:32:48.47Z</time></trkpt><trkpt lat="45.95303" lon="4.4881283"><ele>601.0</ele><time>2026-03-31T14:32:50.47Z</time></trkpt><trkpt lat="45.9529667" lon="4.4881117"><ele>601.0</ele><time>2026-03-31T14:32:52.471Z</time></trkpt><trkpt lat="45.9528883" lon="4.4880883"><ele>601.0</ele><time>2026-03-31T14:32:54.471Z</time></trkpt><trkpt lat="45.9527867" lon="4.488045"><ele>601.0</ele><time>2026-03-31T14:32:56.471Z</time></trkpt><trkpt lat="45.9526867" lon="4.4880367"><ele>601.0</ele><time>2026-03-31T14:32:58.471Z</time></trkpt><trkpt lat="45.9525767" lon="4.4880383"><ele>601.0</ele><time>2026-03-31T14:33:00.471Z</time></trkpt><trkpt lat="45.952485" lon="4.4880217"><ele>599.6</ele><time>2026-03-31T14:33:02.471Z</time></trkpt><trkpt lat="45.952395" lon="4.4880117"><ele>598.2</ele><time>2026-03-31T14:33:04.471Z</time></trkpt><trkpt lat="45.952305" lon="4.4880283"><ele>596.8</ele><time>2026-03-31T14:33:06.47Z</time></trkpt><trkpt lat="45.95221" lon="4.488055"><ele>595.4</ele><time>2026-03-31T14:33:08.471Z</time></trkpt><trkpt lat="45.9520967" lon="4.488085"><ele>594.0</ele><time>2026-03-31T14:33:10.471Z</time></trkpt><trkpt lat="45.952035" lon="4.4881117"><ele>594.0</ele><time>2026-03-31T14:33:11.471Z</time></trkpt><trkpt lat="45.9519367" lon="4.488185"><ele>594.0</ele><time>2026-03-31T14:33:13.471Z</time></trkpt><trkpt lat="45.951855" lon="4.4882633"><ele>594.0</ele><time>2026-03-31T14:33:15.471Z</time></trkpt><trkpt lat="45.9517817" lon="4.4883633"><ele>594.0</ele><time>2026-03-31T14:33:17.471Z</time></trkpt><trkpt lat="45.951735" lon="4.4884733"><ele>594.0</ele><time>2026-03-31T14:33:19.471Z</time></trkpt><trkpt lat="45.9516783" lon="4.4886217"><ele>590.2</ele><time>2026-03-31T14:33:21.471Z</time></trkpt><trkpt lat="45.95163" lon="4.4887667"><ele>586.4</ele><time>2026-03-31T14:33:23.471Z</time></trkpt><trkpt lat="45.951585" lon="4.488895"><ele>582.6</ele><time>2026-03-31T14:33:25.47Z</time></trkpt><trkpt lat="45.95153" lon="4.4890283"><ele>578.8</ele><time>2026-03-31T14:33:27.471Z</time></trkpt><trkpt lat="45.9515067" lon="4.489185"><ele>575.0</ele><time>2026-03-31T14:33:29.471Z</time></trkpt><trkpt lat="45.9515" lon="4.4893583"><ele>575.0</ele><time>2026-03-31T14:33:31.471Z</time></trkpt><trkpt lat="45.95149" lon="4.4895117"><ele>575.0</ele><time>2026-03-31T14:33:33.471Z</time></trkpt><trkpt lat="45.95146" lon="4.4896567"><ele>575.0</ele><time>2026-03-31T14:33:35.471Z</time></trkpt><trkpt lat="45.9513867" lon="4.4897567"><ele>575.0</ele><time>2026-03-31T14:33:37.471Z</time></trkpt><trkpt lat="45.9512967" lon="4.4898583"><ele>575.0</ele><time>2026-03-31T14:33:39.471Z</time></trkpt><trkpt lat="45.9512467" lon="4.489915"><ele>575.6666666666666</ele><time>2026-03-31T14:33:40.471Z</time></trkpt><trkpt lat="45.9511467" lon="4.490015"><ele>576.3333333333333</ele><time>2026-03-31T14:33:42.471Z</time></trkpt><trkpt lat="45.9510883" lon="4.4900733"><ele>577.0</ele><time>2026-03-31T14:33:43.471Z</time></trkpt><trkpt lat="45.9510233" lon="4.4901183"><ele>577.6666666666666</ele><time>2026-03-31T14:33:44.471Z</time></trkpt><trkpt lat="45.9509533" lon="4.4901617"><ele>578.3333333333334</ele><time>2026-03-31T14:33:45.471Z</time></trkpt><trkpt lat="45.9508967" lon="4.4902117"><ele>579.0</ele><time>2026-03-31T14:33:46.471Z</time></trkpt><trkpt lat="45.9508017" lon="4.49031"><ele>576.25</ele><time>2026-03-31T14:33:48.471Z</time></trkpt><trkpt lat="45.9507367" lon="4.4904483"><ele>573.5</ele><time>2026-03-31T14:33:50.471Z</time></trkpt><trkpt lat="45.9506867" lon="4.4906133"><ele>570.75</ele><time>2026-03-31T14:33:52.471Z</time></trkpt><trkpt lat="45.9506533" lon="4.4907833"><ele>568.0</ele><time>2026-03-31T14:33:54.471Z</time></trkpt><trkpt lat="45.9506167" lon="4.4909467"><ele>568.0</ele><time>2026-03-31T14:33:56.471Z</time></trkpt><trkpt lat="45.9505967" lon="4.4910933"><ele>568.0</ele><time>2026-03-31T14:33:58.471Z</time></trkpt><trkpt lat="45.9505817" lon="4.4911817"><ele>568.0</ele><time>2026-03-31T14:33:59.471Z</time></trkpt><trkpt lat="45.95056" lon="4.49127"><ele>568.0</ele><time>2026-03-31T14:34:00.471Z</time></trkpt><trkpt lat="45.9505067" lon="4.4914133"><ele>568.0</ele><time>2026-03-31T14:34:02.471Z</time></trkpt><trkpt lat="45.95045" lon="4.4915117"><ele>568.0</ele><time>2026-03-31T14:34:04.471Z</time></trkpt><trkpt lat="45.950375" lon="4.4916033"><ele>570.8</ele><time>2026-03-31T14:34:06.471Z</time></trkpt><trkpt lat="45.95028" lon="4.4917117"><ele>573.5999999999999</ele><time>2026-03-31T14:34:08.47Z</time></trkpt><trkpt lat="45.9501817" lon="4.4918183"><ele>576.4000000000001</ele><time>2026-03-31T14:34:10.471Z</time></trkpt><trkpt lat="45.9501283" lon="4.4918667"><ele>579.2</ele><time>2026-03-31T14:34:11.471Z</time></trkpt><trkpt lat="45.9500617" lon="4.4919183"><ele>582.0</ele><time>2026-03-31T14:34:12.471Z</time></trkpt><trkpt lat="45.9499917" lon="4.4919667"><ele>582.0</ele><time>2026-03-31T14:34:13.47Z</time></trkpt><trkpt lat="45.9499117" lon="4.4920183"><ele>582.0</ele><time>2026-03-31T14:34:14.471Z</time></trkpt><trkpt lat="45.9498317" lon="4.49207"><ele>582.0</ele><time>2026-03-31T14:34:15.471Z</time></trkpt><trkpt lat="45.9497633" lon="4.4921217"><ele>582.0</ele><time>2026-03-31T14:34:16.47Z</time></trkpt><trkpt lat="45.9497" lon="4.492175"><ele>582.0</ele><time>2026-03-31T14:34:17.471Z</time></trkpt><trkpt lat="45.9496383" lon="4.4922283"><ele>582.0</ele><time>2026-03-31T14:34:18.471Z</time></trkpt><trkpt lat="45.94958" lon="4.492275"><ele>584.2</ele><time>2026-03-31T14:34:19.471Z</time></trkpt><trkpt lat="45.94949" lon="4.4923717"><ele>586.4000000000001</ele><time>2026-03-31T14:34:21.471Z</time></trkpt><trkpt lat="45.9494117" lon="4.4924483"><ele>588.5999999999999</ele><time>2026-03-31T14:34:23.471Z</time></trkpt><trkpt lat="45.9493317" lon="4.4925367"><ele>590.8</ele><time>2026-03-31T14:34:25.471Z</time></trkpt><trkpt lat="45.9492433" lon="4.49263"><ele>593.0</ele><time>2026-03-31T14:34:27.471Z</time></trkpt><trkpt lat="45.9491667" lon="4.4926967"><ele>594.8</ele><time>2026-03-31T14:34:29.471Z</time></trkpt><trkpt lat="45.94909" lon="4.4927483"><ele>596.5999999999999</ele><time>2026-03-31T14:34:31.471Z</time></trkpt><trkpt lat="45.9490433" lon="4.4928383"><ele>598.4000000000001</ele><time>2026-03-31T14:34:33.471Z</time></trkpt><trkpt lat="45.94904" lon="4.4929617"><ele>600.2</ele><time>2026-03-31T14:34:35.471Z</time></trkpt><trkpt lat="45.9491083" lon="4.4930933"><ele>602.0</ele><time>2026-03-31T14:34:37.47Z</time></trkpt><trkpt lat="45.9492117" lon="4.49317"><ele>603.2</ele><time>2026-03-31T14:34:39.471Z</time></trkpt><trkpt lat="45.9492817" lon="4.49326"><ele>604.4000000000001</ele><time>2026-03-31T14:34:41.471Z</time></trkpt><trkpt lat="45.949315" lon="4.4933817"><ele>605.5999999999999</ele><time>2026-03-31T14:34:43.471Z</time></trkpt><trkpt lat="45.949315" lon="4.493525"><ele>606.8</ele><time>2026-03-31T14:34:45.471Z</time></trkpt><trkpt lat="45.9492917" lon="4.493675"><ele>608.0</ele><time>2026-03-31T14:34:47.471Z</time></trkpt><trkpt lat="45.949275" lon="4.4937933"><ele>608.5</ele><time>2026-03-31T14:34:49.471Z</time></trkpt><trkpt lat="45.9492717" lon="4.49389"><ele>609.0</ele><time>2026-03-31T14:34:51.471Z</time></trkpt><trkpt lat="45.9492633" lon="4.4940133"><ele>609.5</ele><time>2026-03-31T14:34:54.471Z</time></trkpt><trkpt lat="45.9492317" lon="4.4941383"><ele>610.0</ele><time>2026-03-31T14:35:29.471Z</time></trkpt><trkpt lat="45.9491783" lon="4.4942167"><ele>610.5</ele><time>2026-03-31T14:35:33.471Z</time></trkpt><trkpt lat="45.9490933" lon="4.4942667"><ele>611.0</ele><time>2026-03-31T14:35:36.47Z</time></trkpt><trkpt lat="45.9489933" lon="4.4942967"><ele>611.0</ele><time>2026-03-31T14:35:39.471Z</time></trkpt><trkpt lat="45.94889" lon="4.4943283"><ele>611.0</ele><time>2026-03-31T14:35:41.471Z</time></trkpt><trkpt lat="45.9488117" lon="4.4943433"><ele>611.0</ele><time>2026-03-31T14:35:43.47Z</time></trkpt><trkpt lat="45.94874" lon="4.4943517"><ele>611.0</ele><time>2026-03-31T14:35:45.471Z</time></trkpt><trkpt lat="45.9486467" lon="4.4944"><ele>611.0</ele><time>2026-03-31T14:35:47.471Z</time></trkpt><trkpt lat="45.9485267" lon="4.494435"><ele>611.0</ele><time>2026-03-31T14:35:49.471Z</time></trkpt><trkpt lat="45.9484617" lon="4.49445"><ele>611.0</ele><time>2026-03-31T14:35:50.471Z</time></trkpt><trkpt lat="45.94836" lon="4.4944633"><ele>611.0</ele><time>2026-03-31T14:35:52.471Z</time></trkpt><trkpt lat="45.9482967" lon="4.4944817"><ele>611.0</ele><time>2026-03-31T14:35:54.471Z</time></trkpt><trkpt lat="45.9482283" lon="4.4945117"><ele>611.0</ele><time>2026-03-31T14:35:56.471Z</time></trkpt><trkpt lat="45.948145" lon="4.4945467"><ele>611.0</ele><time>2026-03-31T14:35:58.471Z</time></trkpt><trkpt lat="45.9480683" lon="4.49457"><ele>612.4</ele><time>2026-03-31T14:36:00.472Z</time></trkpt><trkpt lat="45.9479483" lon="4.4946067"><ele>613.8</ele><time>2026-03-31T14:36:02.472Z</time></trkpt><trkpt lat="45.947825" lon="4.49466"><ele>615.1999999999999</ele><time>2026-03-31T14:36:04.471Z</time></trkpt><trkpt lat="45.947755" lon="4.4946967"><ele>616.6</ele><time>2026-03-31T14:36:05.472Z</time></trkpt><trkpt lat="45.9476883" lon="4.49473"><ele>618.0</ele><time>2026-03-31T14:36:06.472Z</time></trkpt><trkpt lat="45.947615" lon="4.4947733"><ele>618.0</ele><time>2026-03-31T14:36:07.472Z</time></trkpt><trkpt lat="45.9475617" lon="4.494825"><ele>618.0</ele><time>2026-03-31T14:36:08.471Z</time></trkpt><trkpt lat="45.9475133" lon="4.494895"><ele>618.0</ele><time>2026-03-31T14:36:10.472Z</time></trkpt><trkpt lat="45.947425" lon="4.4949933"><ele>618.0</ele><time>2026-03-31T14:36:13.472Z</time></trkpt><trkpt lat="45.9473683" lon="4.495045"><ele>618.0</ele><time>2026-03-31T14:36:14.472Z</time></trkpt><trkpt lat="45.9473017" lon="4.4951"><ele>618.0</ele><time>2026-03-31T14:36:15.472Z</time></trkpt><trkpt lat="45.9472333" lon="4.4951417"><ele>618.0</ele><time>2026-03-31T14:36:16.472Z</time></trkpt><trkpt lat="45.9471267" lon="4.49522"><ele>618.0</ele><time>2026-03-31T14:36:18.472Z</time></trkpt><trkpt lat="45.9470667" lon="4.4952717"><ele>618.0</ele><time>2026-03-31T14:36:20.472Z</time></trkpt><trkpt lat="45.9469717" lon="4.49538"><ele>618.0</ele><time>2026-03-31T14:36:35.472Z</time></trkpt><trkpt lat="45.946855" lon="4.495445"><ele>618.0</ele><time>2026-03-31T14:36:37.472Z</time></trkpt><trkpt lat="45.9467833" lon="4.4954817"><ele>618.0000000000001</ele><time>2026-03-31T14:36:38.472Z</time></trkpt><trkpt lat="45.946715" lon="4.49551"><ele>618.0</ele><time>2026-03-31T14:36:39.472Z</time></trkpt><trkpt lat="45.94665" lon="4.4955367"><ele>618.0</ele><time>2026-03-31T14:36:40.472Z</time></trkpt><trkpt lat="45.9465817" lon="4.4955533"><ele>618.0</ele><time>2026-03-31T14:36:41.472Z</time></trkpt><trkpt lat="45.9465183" lon="4.4955783"><ele>618.0</ele><time>2026-03-31T14:36:42.472Z</time></trkpt><trkpt lat="45.9464483" lon="4.4956067"><ele>618.0000000000001</ele><time>2026-03-31T14:36:43.472Z</time></trkpt><trkpt lat="45.9463767" lon="4.4956483"><ele>618.0</ele><time>2026-03-31T14:36:44.472Z</time></trkpt><trkpt lat="45.9463067" lon="4.4956817"><ele>622.1999999999999</ele><time>2026-03-31T14:36:45.471Z</time></trkpt><trkpt lat="45.9462417" lon="4.4957133"><ele>626.4</ele><time>2026-03-31T14:36:46.471Z</time></trkpt><trkpt lat="45.94614" lon="4.495745"><ele>630.5999999999999</ele><time>2026-03-31T14:36:48.472Z</time></trkpt><trkpt lat="45.946035" lon="4.4957"><ele>634.8</ele><time>2026-03-31T14:36:50.472Z</time></trkpt><trkpt lat="45.945935" lon="4.4956367"><ele>639.0</ele><time>2026-03-31T14:36:52.472Z</time></trkpt><trkpt lat="45.9458417" lon="4.4955317"><ele>641.25</ele><time>2026-03-31T14:36:54.472Z</time></trkpt><trkpt lat="45.9457333" lon="4.4954633"><ele>643.5</ele><time>2026-03-31T14:36:56.471Z</time></trkpt><trkpt lat="45.9456283" lon="4.4954767"><ele>645.75</ele><time>2026-03-31T14:36:58.472Z</time></trkpt><trkpt lat="45.945525" lon="4.4955667"><ele>648.0</ele><time>2026-03-31T14:37:00.472Z</time></trkpt><trkpt lat="45.94544" lon="4.4956767"><ele>648.0</ele><time>2026-03-31T14:37:02.472Z</time></trkpt><trkpt lat="45.9453933" lon="4.4957417"><ele>648.0</ele><time>2026-03-31T14:37:03.472Z</time></trkpt><trkpt lat="45.9452867" lon="4.49582"><ele>648.0</ele><time>2026-03-31T14:37:05.472Z</time></trkpt><trkpt lat="45.945175" lon="4.49587"><ele>648.0</ele><time>2026-03-31T14:37:07.472Z</time></trkpt><trkpt lat="45.9450683" lon="4.4959083"><ele>648.0</ele><time>2026-03-31T14:37:09.472Z</time></trkpt><trkpt lat="45.94494" lon="4.4959333"><ele>649.8333333333334</ele><time>2026-03-31T14:37:11.472Z</time></trkpt><trkpt lat="45.9448617" lon="4.4959333"><ele>651.6666666666666</ele><time>2026-03-31T14:37:12.472Z</time></trkpt><trkpt lat="45.94478" lon="4.4959433"><ele>653.5</ele><time>2026-03-31T14:37:13.472Z</time></trkpt><trkpt lat="45.94469" lon="4.4959667"><ele>655.3333333333333</ele><time>2026-03-31T14:37:14.472Z</time></trkpt><trkpt lat="45.9446167" lon="4.4960133"><ele>657.1666666666666</ele><time>2026-03-31T14:37:15.472Z</time></trkpt><trkpt lat="45.9445433" lon="4.49606"><ele>659.0</ele><time>2026-03-31T14:37:16.472Z</time></trkpt><trkpt lat="45.94448" lon="4.4961033"><ele>659.0</ele><time>2026-03-31T14:37:17.472Z</time></trkpt><trkpt lat="45.9443933" lon="4.49615"><ele>659.0</ele><time>2026-03-31T14:37:19.472Z</time></trkpt><trkpt lat="45.9443333" lon="4.4961783"><ele>659.0</ele><time>2026-03-31T14:37:20.471Z</time></trkpt><trkpt lat="45.9442683" lon="4.4962033"><ele>659.0</ele><time>2026-03-31T14:37:21.472Z</time></trkpt><trkpt lat="45.9442067" lon="4.4962317"><ele>659.0</ele><time>2026-03-31T14:37:22.472Z</time></trkpt><trkpt lat="45.944095" lon="4.49627"><ele>659.0</ele><time>2026-03-31T14:37:24.472Z</time></trkpt><trkpt lat="45.943975" lon="4.4963"><ele>655.8333333333333</ele><time>2026-03-31T14:37:26.472Z</time></trkpt><trkpt lat="45.9439067" lon="4.4963167"><ele>652.6666666666666</ele><time>2026-03-31T14:37:27.472Z</time></trkpt><trkpt lat="45.94384" lon="4.4963517"><ele>649.5</ele><time>2026-03-31T14:37:28.472Z</time></trkpt><trkpt lat="45.9437767" lon="4.496375"><ele>646.3333333333334</ele><time>2026-03-31T14:37:29.472Z</time></trkpt><trkpt lat="45.94371" lon="4.4964117"><ele>643.1666666666667</ele><time>2026-03-31T14:37:30.471Z</time></trkpt><trkpt lat="45.9436317" lon="4.4965133"><ele>640.0</ele><time>2026-03-31T14:37:32.471Z</time></trkpt><trkpt lat="45.9435683" lon="4.4966067"><ele>640.0</ele><time>2026-03-31T14:37:34.472Z</time></trkpt><trkpt lat="45.9435183" lon="4.4966817"><ele>640.0</ele><time>2026-03-31T14:37:36.472Z</time></trkpt><trkpt lat="45.9434583" lon="4.49675"><ele>640.0</ele><time>2026-03-31T14:37:38.472Z</time></trkpt><trkpt lat="45.9434067" lon="4.4968133"><ele>640.0</ele><time>2026-03-31T14:37:40.472Z</time></trkpt><trkpt lat="45.94335" lon="4.4968817"><ele>640.0</ele><time>2026-03-31T14:37:43.472Z</time></trkpt><trkpt lat="45.943275" lon="4.4969833"><ele>640.0</ele><time>2026-03-31T14:37:46.471Z</time></trkpt><trkpt lat="45.9431783" lon="4.4970783"><ele>637.8</ele><time>2026-03-31T14:37:48.471Z</time></trkpt><trkpt lat="45.943105" lon="4.4971633"><ele>635.6</ele><time>2026-03-31T14:37:50.472Z</time></trkpt><trkpt lat="45.9430533" lon="4.4972483"><ele>633.4</ele><time>2026-03-31T14:37:52.472Z</time></trkpt><trkpt lat="45.94304" lon="4.4973895"><ele>631.2</ele><time>2026-03-31T14:39:53.533Z</time></trkpt><trkpt lat="45.9429513" lon="4.4974607"><ele>629.0</ele><time>2026-03-31T14:42:48.527Z</time></trkpt><trkpt lat="45.942865" lon="4.4975617"><ele>629.0</ele><time>2026-03-31T14:42:50.472Z</time></trkpt><trkpt lat="45.9428017" lon="4.4976533"><ele>629.0</ele><time>2026-03-31T14:42:52.473Z</time></trkpt><trkpt lat="45.94275" lon="4.49775"><ele>629.0</ele><time>2026-03-31T14:42:54.473Z</time></trkpt><trkpt lat="45.94271" lon="4.497845"><ele>629.0</ele><time>2026-03-31T14:42:56.473Z</time></trkpt><trkpt lat="45.9426967" lon="4.49794"><ele>629.0</ele><time>2026-03-31T14:42:59.473Z</time></trkpt><trkpt lat="45.9426783" lon="4.49804"><ele>629.0</ele><time>2026-03-31T14:43:03.473Z</time></trkpt><trkpt lat="45.9426517" lon="4.49814"><ele>628.0</ele><time>2026-03-31T14:43:08.473Z</time></trkpt><trkpt lat="45.9426233" lon="4.4982267"><ele>627.0</ele><time>2026-03-31T14:43:11.473Z</time></trkpt><trkpt lat="45.94259" lon="4.4983183"><ele>626.0</ele><time>2026-03-31T14:43:14.473Z</time></trkpt><trkpt lat="45.9425717" lon="4.49842"><ele>625.0</ele><time>2026-03-31T14:43:17.473Z</time></trkpt><trkpt lat="45.9425517" lon="4.49853"><ele>624.0</ele><time>2026-03-31T14:43:20.473Z</time></trkpt><trkpt lat="45.9425267" lon="4.498615"><ele>623.0</ele><time>2026-03-31T14:43:24.473Z</time></trkpt><trkpt lat="45.942485" lon="4.4987217"><ele>622.0</ele><time>2026-03-31T14:43:28.473Z</time></trkpt><trkpt lat="45.9424367" lon="4.49879"><ele>622.0</ele><time>2026-03-31T14:43:36.473Z</time></trkpt><trkpt lat="45.94241" lon="4.49888"><ele>622.0</ele><time>2026-03-31T14:43:40.473Z</time></trkpt><trkpt lat="45.9423983" lon="4.49897"><ele>622.0</ele><time>2026-03-31T14:43:45.473Z</time></trkpt><trkpt lat="45.942375" lon="4.49888"><ele>622.0</ele><time>2026-03-31T14:44:12.473Z</time></trkpt><trkpt lat="45.9423983" lon="4.49877"><ele>622.0</ele><time>2026-03-31T14:44:18.473Z</time></trkpt><trkpt lat="45.9424517" lon="4.4987"><ele>622.0</ele><time>2026-03-31T14:44:26.473Z</time></trkpt><trkpt lat="45.9424967" lon="4.4986083"><ele>622.0</ele><time>2026-03-31T14:44:29.472Z</time></trkpt><trkpt lat="45.9425217" lon="4.4985233"><ele>621.1666666666667</ele><time>2026-03-31T14:44:33.472Z</time></trkpt><trkpt lat="45.94256" lon="4.4984417"><ele>620.3333333333334</ele><time>2026-03-31T14:44:36.473Z</time></trkpt><trkpt lat="45.9425867" lon="4.498335"><ele>619.5</ele><time>2026-03-31T14:44:39.473Z</time></trkpt><trkpt lat="45.9426133" lon="4.498245"><ele>618.6666666666666</ele><time>2026-03-31T14:44:42.473Z</time></trkpt><trkpt lat="45.9426283" lon="4.4981533"><ele>617.8333333333333</ele><time>2026-03-31T14:44:46.473Z</time></trkpt><trkpt lat="45.9426117" lon="4.49805"><ele>617.0</ele><time>2026-03-31T14:44:52.473Z</time></trkpt><trkpt lat="45.9426567" lon="4.4978983"><ele>617.0</ele><time>2026-03-31T14:46:24.473Z</time></trkpt><trkpt lat="45.9426983" lon="4.497825"><ele>617.0</ele><time>2026-03-31T14:46:26.474Z</time></trkpt><trkpt lat="45.9427367" lon="4.4977517"><ele>617.0</ele><time>2026-03-31T14:46:28.474Z</time></trkpt><trkpt lat="45.942755" lon="4.4976633"><ele>617.0</ele><time>2026-03-31T14:46:32.474Z</time></trkpt><trkpt lat="45.9426983" lon="4.4977317"><ele>617.0</ele><time>2026-03-31T14:46:57.474Z</time></trkpt><trkpt lat="45.94269" lon="4.4978433"><ele>617.0</ele><time>2026-03-31T14:47:02.474Z</time></trkpt><trkpt lat="45.9426733" lon="4.4979333"><ele>617.0</ele><time>2026-03-31T14:47:04.474Z</time></trkpt><trkpt lat="45.9426567" lon="4.4980267"><ele>617.0</ele><time>2026-03-31T14:47:08.474Z</time></trkpt><trkpt lat="45.94263" lon="4.4981517"><ele>617.0</ele><time>2026-03-31T14:47:13.473Z</time></trkpt><trkpt lat="45.9426183" lon="4.4982583"><ele>617.0</ele><time>2026-03-31T14:47:15.474Z</time></trkpt><trkpt lat="45.9425917" lon="4.4983683"><ele>617.0</ele><time>2026-03-31T14:47:18.474Z</time></trkpt><trkpt lat="45.942575" lon="4.498475"><ele>617.0</ele><time>2026-03-31T14:47:23.474Z</time></trkpt><trkpt lat="45.9425317" lon="4.4986467"><ele>617.5</ele><time>2026-03-31T14:47:46.474Z</time></trkpt><trkpt lat="45.9424933" lon="4.4987567"><ele>618.0</ele><time>2026-03-31T14:47:48.474Z</time></trkpt><trkpt lat="45.94246" lon="4.498845"><ele>618.5</ele><time>2026-03-31T14:47:50.474Z</time></trkpt><trkpt lat="45.9424217" lon="4.4989567"><ele>619.0</ele><time>2026-03-31T14:47:52.474Z</time></trkpt><trkpt lat="45.9423783" lon="4.4990583"><ele>619.5</ele><time>2026-03-31T14:47:54.474Z</time></trkpt><trkpt lat="45.9423317" lon="4.4991767"><ele>620.0</ele><time>2026-03-31T14:47:56.474Z</time></trkpt><trkpt lat="45.94231" lon="4.4993183"><ele>620.0</ele><time>2026-03-31T14:47:58.474Z</time></trkpt><trkpt lat="45.9422967" lon="4.49944"><ele>620.0</ele><time>2026-03-31T14:48:00.474Z</time></trkpt><trkpt lat="45.9422917" lon="4.499535"><ele>620.0</ele><time>2026-03-31T14:48:02.474Z</time></trkpt><trkpt lat="45.942285" lon="4.499635"><ele>620.0</ele><time>2026-03-31T14:48:04.473Z</time></trkpt><trkpt lat="45.9422833" lon="4.4997333"><ele>620.0</ele><time>2026-03-31T14:48:06.473Z</time></trkpt><trkpt lat="45.9422667" lon="4.49986"><ele>620.0</ele><time>2026-03-31T14:48:08.474Z</time></trkpt><trkpt lat="45.9422383" lon="4.5000117"><ele>620.0</ele><time>2026-03-31T14:48:10.474Z</time></trkpt><trkpt lat="45.9422133" lon="4.5001067"><ele>620.0</ele><time>2026-03-31T14:48:12.473Z</time></trkpt><trkpt lat="45.942185" lon="4.500245"><ele>620.0</ele><time>2026-03-31T14:48:15.474Z</time></trkpt><trkpt lat="45.9421483" lon="4.5004"><ele>620.0</ele><time>2026-03-31T14:48:17.474Z</time></trkpt><trkpt lat="45.94213" lon="4.5004933"><ele>620.0</ele><time>2026-03-31T14:48:18.474Z</time></trkpt><trkpt lat="45.9421117" lon="4.5006067"><ele>620.0</ele><time>2026-03-31T14:48:19.474Z</time></trkpt><trkpt lat="45.9420983" lon="4.5007033"><ele>618.4</ele><time>2026-03-31T14:48:20.474Z</time></trkpt><trkpt lat="45.94209" lon="4.5008117"><ele>616.8</ele><time>2026-03-31T14:48:21.474Z</time></trkpt><trkpt lat="45.9420717" lon="4.5009117"><ele>615.2</ele><time>2026-03-31T14:48:22.474Z</time></trkpt><trkpt lat="45.9420483" lon="4.5010767"><ele>613.6</ele><time>2026-03-31T14:48:24.474Z</time></trkpt><trkpt lat="45.942035" lon="4.5012233"><ele>612.0</ele><time>2026-03-31T14:48:26.474Z</time></trkpt><trkpt lat="45.94203" lon="4.50138"><ele>610.8333333333334</ele><time>2026-03-31T14:48:28.474Z</time></trkpt><trkpt lat="45.9420233" lon="4.5014717"><ele>609.6666666666666</ele><time>2026-03-31T14:48:29.474Z</time></trkpt><trkpt lat="45.94202" lon="4.5015717"><ele>608.5</ele><time>2026-03-31T14:48:30.474Z</time></trkpt><trkpt lat="45.9420167" lon="4.5016633"><ele>607.3333333333333</ele><time>2026-03-31T14:48:31.474Z</time></trkpt><trkpt lat="45.9420033" lon="4.501815"><ele>606.1666666666666</ele><time>2026-03-31T14:48:33.473Z</time></trkpt><trkpt lat="45.9420017" lon="4.5019683"><ele>605.0</ele><time>2026-03-31T14:48:35.474Z</time></trkpt><trkpt lat="45.9419983" lon="4.5021433"><ele>604.2857142857142</ele><time>2026-03-31T14:48:37.474Z</time></trkpt><trkpt lat="45.9419967" lon="4.5022583"><ele>603.5714285714286</ele><time>2026-03-31T14:48:38.474Z</time></trkpt><trkpt lat="45.941995" lon="4.5023733"><ele>602.8571428571429</ele><time>2026-03-31T14:48:39.474Z</time></trkpt><trkpt lat="45.94199" lon="4.5024717"><ele>602.1428571428571</ele><time>2026-03-31T14:48:40.474Z</time></trkpt><trkpt lat="45.9419883" lon="4.502565"><ele>601.4285714285714</ele><time>2026-03-31T14:48:41.473Z</time></trkpt><trkpt lat="45.9419733" lon="4.5026567"><ele>600.7142857142857</ele><time>2026-03-31T14:48:42.474Z</time></trkpt><trkpt lat="45.9419517" lon="4.5027533"><ele>600.0</ele><time>2026-03-31T14:48:43.474Z</time></trkpt><trkpt lat="45.94192" lon="4.5028567"><ele>599.0</ele><time>2026-03-31T14:48:44.474Z</time></trkpt><trkpt lat="45.9418917" lon="4.5029533"><ele>598.0</ele><time>2026-03-31T14:48:45.474Z</time></trkpt><trkpt lat="45.9418717" lon="4.503045"><ele>597.0</ele><time>2026-03-31T14:48:46.474Z</time></trkpt><trkpt lat="45.941855" lon="4.50315"><ele>596.0</ele><time>2026-03-31T14:48:47.474Z</time></trkpt><trkpt lat="45.9418367" lon="4.5032533"><ele>595.0</ele><time>2026-03-31T14:48:48.474Z</time></trkpt><trkpt lat="45.941815" lon="4.50336"><ele>594.0</ele><time>2026-03-31T14:48:49.474Z</time></trkpt><trkpt lat="45.9417567" lon="4.5035367"><ele>594.0</ele><time>2026-03-31T14:48:51.474Z</time></trkpt><trkpt lat="45.9417233" lon="4.5036467"><ele>594.0</ele><time>2026-03-31T14:48:52.474Z</time></trkpt><trkpt lat="45.9416867" lon="4.50375"><ele>594.0</ele><time>2026-03-31T14:48:53.474Z</time></trkpt><trkpt lat="45.9416533" lon="4.5038633"><ele>594.0</ele><time>2026-03-31T14:48:54.474Z</time></trkpt><trkpt lat="45.94162" lon="4.5039783"><ele>594.0</ele><time>2026-03-31T14:48:55.474Z</time></trkpt><trkpt lat="45.9415833" lon="4.5040933"><ele>594.0</ele><time>2026-03-31T14:48:56.474Z</time></trkpt><trkpt lat="45.9415483" lon="4.5042"><ele>595.3333333333334</ele><time>2026-03-31T14:48:57.474Z</time></trkpt><trkpt lat="45.9415167" lon="4.504295"><ele>596.6666666666666</ele><time>2026-03-31T14:48:58.474Z</time></trkpt><trkpt lat="45.9414867" lon="4.504385"><ele>598.0</ele><time>2026-03-31T14:48:59.474Z</time></trkpt><trkpt lat="45.9414567" lon="4.50447"><ele>599.3333333333333</ele><time>2026-03-31T14:49:00.474Z</time></trkpt><trkpt lat="45.9414283" lon="4.5045717"><ele>600.6666666666666</ele><time>2026-03-31T14:49:01.474Z</time></trkpt><trkpt lat="45.9413983" lon="4.5046533"><ele>602.0</ele><time>2026-03-31T14:49:02.474Z</time></trkpt><trkpt lat="45.9413483" lon="4.5047783"><ele>602.0</ele><time>2026-03-31T14:49:04.474Z</time></trkpt><trkpt lat="45.9413" lon="4.5048783"><ele>602.0</ele><time>2026-03-31T14:49:06.474Z</time></trkpt><trkpt lat="45.94125" lon="4.50497"><ele>602.0</ele><time>2026-03-31T14:49:08.474Z</time></trkpt><trkpt lat="45.941195" lon="4.5050667"><ele>602.0</ele><time>2026-03-31T14:49:10.474Z</time></trkpt><trkpt lat="45.9411483" lon="4.5051917"><ele>602.0</ele><time>2026-03-31T14:49:12.474Z</time></trkpt><trkpt lat="45.9411033" lon="4.5052933"><ele>602.0</ele><time>2026-03-31T14:49:14.474Z</time></trkpt><trkpt lat="45.9410433" lon="4.5054283"><ele>601.6</ele><time>2026-03-31T14:49:16.474Z</time></trkpt><trkpt lat="45.94098" lon="4.50554"><ele>601.2</ele><time>2026-03-31T14:49:18.474Z</time></trkpt><trkpt lat="45.9409233" lon="4.5056933"><ele>600.8</ele><time>2026-03-31T14:49:20.474Z</time></trkpt><trkpt lat="45.9408933" lon="4.5057833"><ele>600.4</ele><time>2026-03-31T14:49:21.474Z</time></trkpt><trkpt lat="45.94083" lon="4.5059133"><ele>600.0</ele><time>2026-03-31T14:49:23.474Z</time></trkpt><trkpt lat="45.9407483" lon="4.5060217"><ele>600.0</ele><time>2026-03-31T14:49:25.474Z</time></trkpt><trkpt lat="45.9406717" lon="4.5061517"><ele>600.0</ele><time>2026-03-31T14:49:27.474Z</time></trkpt><trkpt lat="45.9406217" lon="4.5062683"><ele>600.0</ele><time>2026-03-31T14:49:29.474Z</time></trkpt><trkpt lat="45.9405917" lon="4.506365"><ele>600.0</ele><time>2026-03-31T14:49:31.474Z</time></trkpt><trkpt lat="45.9405733" lon="4.5064733"><ele>600.0</ele><time>2026-03-31T14:49:33.474Z</time></trkpt><trkpt lat="45.94056" lon="4.506565"><ele>600.0</ele><time>2026-03-31T14:49:35.474Z</time></trkpt><trkpt lat="45.9405417" lon="4.506675"><ele>598.8333333333334</ele><time>2026-03-31T14:49:37.474Z</time></trkpt><trkpt lat="45.94052" lon="4.5067783"><ele>597.6666666666666</ele><time>2026-03-31T14:49:39.474Z</time></trkpt><trkpt lat="45.9404967" lon="4.506895"><ele>596.5</ele><time>2026-03-31T14:49:41.473Z</time></trkpt><trkpt lat="45.9404767" lon="4.5070033"><ele>595.3333333333333</ele><time>2026-03-31T14:49:44.474Z</time></trkpt><trkpt lat="45.9404567" lon="4.5071133"><ele>594.1666666666666</ele><time>2026-03-31T14:49:47.474Z</time></trkpt><trkpt lat="45.940445" lon="4.5072033"><ele>593.0</ele><time>2026-03-31T14:49:50.474Z</time></trkpt><trkpt lat="45.940425" lon="4.5073033"><ele>590.4285714285713</ele><time>2026-03-31T14:49:53.474Z</time></trkpt><trkpt lat="45.9404083" lon="4.5073917"><ele>587.8571428571429</ele><time>2026-03-31T14:49:55.474Z</time></trkpt><trkpt lat="45.94038" lon="4.5075"><ele>585.2857142857142</ele><time>2026-03-31T14:49:58.474Z</time></trkpt><trkpt lat="45.940355" lon="4.50761"><ele>582.7142857142857</ele><time>2026-03-31T14:50:02.474Z</time></trkpt><trkpt lat="45.9403417" lon="4.50771"><ele>580.1428571428571</ele><time>2026-03-31T14:50:05.474Z</time></trkpt><trkpt lat="45.9403217" lon="4.507805"><ele>577.5714285714286</ele><time>2026-03-31T14:50:08.474Z</time></trkpt><trkpt lat="45.9403067" lon="4.507895"><ele>575.0</ele><time>2026-03-31T14:50:12.474Z</time></trkpt><trkpt lat="45.940275" lon="4.5081183"><ele>571.3333333333333</ele><time>2026-03-31T14:50:34.474Z</time></trkpt><trkpt lat="45.9402433" lon="4.5082383"><ele>567.6666666666666</ele><time>2026-03-31T14:50:36.473Z</time></trkpt><trkpt lat="45.940215" lon="4.5083483"><ele>564.0</ele><time>2026-03-31T14:50:38.473Z</time></trkpt><trkpt lat="45.940185" lon="4.508455"><ele>560.3333333333334</ele><time>2026-03-31T14:50:40.473Z</time></trkpt><trkpt lat="45.940165" lon="4.50855"><ele>556.6666666666667</ele><time>2026-03-31T14:50:42.474Z</time></trkpt><trkpt lat="45.9401433" lon="4.508665"><ele>553.0</ele><time>2026-03-31T14:50:45.474Z</time></trkpt><trkpt lat="45.9401183" lon="4.5087733"><ele>554.1666666666667</ele><time>2026-03-31T14:50:48.474Z</time></trkpt><trkpt lat="45.9401067" lon="4.5088767"><ele>555.3333333333334</ele><time>2026-03-31T14:50:50.474Z</time></trkpt><trkpt lat="45.94009" lon="4.5089717"><ele>556.5</ele><time>2026-03-31T14:50:52.474Z</time></trkpt><trkpt lat="45.9400617" lon="4.50908"><ele>557.6666666666666</ele><time>2026-03-31T14:50:55.473Z</time></trkpt><trkpt lat="45.94003" lon="4.509185"><ele>558.8333333333333</ele><time>2026-03-31T14:50:58.474Z</time></trkpt><trkpt lat="45.94001" lon="4.5093017"><ele>560.0</ele><time>2026-03-31T14:51:01.473Z</time></trkpt><trkpt lat="45.9399967" lon="4.5094083"><ele>560.0</ele><time>2026-03-31T14:51:04.473Z</time></trkpt><trkpt lat="45.93998" lon="4.509515"><ele>560.0</ele><time>2026-03-31T14:51:07.474Z</time></trkpt><trkpt lat="45.9399533" lon="4.5096167"><ele>560.0</ele><time>2026-03-31T14:51:10.474Z</time></trkpt><trkpt lat="45.939935" lon="4.5097167"><ele>560.0</ele><time>2026-03-31T14:51:13.474Z</time></trkpt><trkpt lat="45.9399133" lon="4.5098067"><ele>560.0</ele><time>2026-03-31T14:51:15.474Z</time></trkpt><trkpt lat="45.9399" lon="4.5099283"><ele>560.0</ele><time>2026-03-31T14:51:20.474Z</time></trkpt><trkpt lat="45.9398767" lon="4.5100283"><ele>560.0</ele><time>2026-03-31T14:51:22.473Z</time></trkpt><trkpt lat="45.9398533" lon="4.5101167"><ele>557.5</ele><time>2026-03-31T14:51:24.474Z</time></trkpt><trkpt lat="45.9398233" lon="4.5102283"><ele>555.0</ele><time>2026-03-31T14:51:27.474Z</time></trkpt><trkpt lat="45.939775" lon="4.5102983"><ele>552.5</ele><time>2026-03-31T14:51:30.474Z</time></trkpt><trkpt lat="45.9397183" lon="4.5103817"><ele>550.0</ele><time>2026-03-31T14:51:47.473Z</time></trkpt><trkpt lat="45.9396667" lon="4.5104717"><ele>547.5</ele><time>2026-03-31T14:51:52.474Z</time></trkpt><trkpt lat="45.93964" lon="4.5105767"><ele>545.0</ele><time>2026-03-31T14:51:57.475Z</time></trkpt><trkpt lat="45.9395917" lon="4.5107217"><ele>543.4285714285714</ele><time>2026-03-31T14:52:06.475Z</time></trkpt><trkpt lat="45.9395617" lon="4.5108167"><ele>541.8571428571429</ele><time>2026-03-31T14:52:08.475Z</time></trkpt><trkpt lat="45.9395333" lon="4.5108983"><ele>540.2857142857143</ele><time>2026-03-31T14:52:10.475Z</time></trkpt><trkpt lat="45.9395017" lon="4.5109833"><ele>538.7142857142858</ele><time>2026-03-31T14:53:37.475Z</time></trkpt><trkpt lat="45.9394667" lon="4.5110733"><ele>537.1428571428571</ele><time>2026-03-31T14:53:40.475Z</time></trkpt><trkpt lat="45.93945" lon="4.5111933"><ele>535.5714285714287</ele><time>2026-03-31T14:53:56.475Z</time></trkpt><trkpt lat="45.9393883" lon="4.511255"><ele>534.0</ele><time>2026-03-31T14:54:19.474Z</time></trkpt><trkpt lat="45.93931" lon="4.5112367"><ele>532.7142857142858</ele><time>2026-03-31T14:54:23.475Z</time></trkpt><trkpt lat="45.9392533" lon="4.5112783"><ele>531.4285714285714</ele><time>2026-03-31T14:54:27.475Z</time></trkpt><trkpt lat="45.93917" lon="4.5113333"><ele>530.1428571428571</ele><time>2026-03-31T14:54:31.475Z</time></trkpt><trkpt lat="45.9391083" lon="4.5113683"><ele>528.8571428571429</ele><time>2026-03-31T14:54:33.474Z</time></trkpt><trkpt lat="45.9390467" lon="4.5114083"><ele>527.5714285714286</ele><time>2026-03-31T14:54:36.475Z</time></trkpt><trkpt lat="45.9389683" lon="4.5114467"><ele>526.2857142857143</ele><time>2026-03-31T14:54:39.475Z</time></trkpt><trkpt lat="45.9389" lon="4.5114783"><ele>525.0</ele><time>2026-03-31T14:54:41.475Z</time></trkpt><trkpt lat="45.938805" lon="4.5115317"><ele>525.0</ele><time>2026-03-31T14:54:43.475Z</time></trkpt><trkpt lat="45.9387067" lon="4.5115933"><ele>525.0</ele><time>2026-03-31T14:54:55.474Z</time></trkpt><trkpt lat="45.9386183" lon="4.51164"><ele>525.0</ele><time>2026-03-31T14:54:57.475Z</time></trkpt><trkpt lat="45.9385183" lon="4.5116983"><ele>525.0</ele><time>2026-03-31T14:54:59.475Z</time></trkpt><trkpt lat="45.9384267" lon="4.5117633"><ele>525.0</ele><time>2026-03-31T14:55:01.475Z</time></trkpt><trkpt lat="45.9383633" lon="4.511825"><ele>524.0</ele><time>2026-03-31T14:55:03.475Z</time></trkpt><trkpt lat="45.938275" lon="4.5119067"><ele>523.0</ele><time>2026-03-31T14:55:06.474Z</time></trkpt><trkpt lat="45.9381817" lon="4.5120017"><ele>522.0</ele><time>2026-03-31T14:55:08.475Z</time></trkpt><trkpt lat="45.9381283" lon="4.512065"><ele>521.0</ele><time>2026-03-31T14:55:09.475Z</time></trkpt><trkpt lat="45.938075" lon="4.5121317"><ele>520.0</ele><time>2026-03-31T14:55:10.475Z</time></trkpt><trkpt lat="45.9380217" lon="4.5121967"><ele>519.0</ele><time>2026-03-31T14:55:11.475Z</time></trkpt><trkpt lat="45.9379667" lon="4.512265"><ele>519.0</ele><time>2026-03-31T14:55:12.475Z</time></trkpt><trkpt lat="45.9379117" lon="4.5123383"><ele>519.0</ele><time>2026-03-31T14:55:13.475Z</time></trkpt><trkpt lat="45.937865" lon="4.51241"><ele>519.0</ele><time>2026-03-31T14:55:14.475Z</time></trkpt><trkpt lat="45.9378167" lon="4.5124783"><ele>519.0</ele><time>2026-03-31T14:55:15.475Z</time></trkpt><trkpt lat="45.9377617" lon="4.5125633"><ele>519.0</ele><time>2026-03-31T14:55:16.475Z</time></trkpt><trkpt lat="45.9377217" lon="4.5126417"><ele>519.0</ele><time>2026-03-31T14:55:17.475Z</time></trkpt><trkpt lat="45.9376867" lon="4.51272"><ele>519.0</ele><time>2026-03-31T14:55:18.475Z</time></trkpt><trkpt lat="45.937615" lon="4.5128717"><ele>520.0</ele><time>2026-03-31T14:55:20.475Z</time></trkpt><trkpt lat="45.9375783" lon="4.51295"><ele>521.0</ele><time>2026-03-31T14:55:21.474Z</time></trkpt><trkpt lat="45.9375417" lon="4.51304"><ele>522.0</ele><time>2026-03-31T14:55:22.475Z</time></trkpt><trkpt lat="45.9375" lon="4.5131433"><ele>523.0</ele><time>2026-03-31T14:55:23.475Z</time></trkpt><trkpt lat="45.93746" lon="4.5132567"><ele>524.0</ele><time>2026-03-31T14:55:24.475Z</time></trkpt><trkpt lat="45.937425" lon="4.51336"><ele>525.0</ele><time>2026-03-31T14:55:25.475Z</time></trkpt><trkpt lat="45.9373867" lon="4.513465"><ele>522.0</ele><time>2026-03-31T14:55:26.475Z</time></trkpt><trkpt lat="45.9373533" lon="4.5135767"><ele>519.0</ele><time>2026-03-31T14:55:27.475Z</time></trkpt><trkpt lat="45.937325" lon="4.5136867"><ele>516.0</ele><time>2026-03-31T14:55:28.474Z</time></trkpt><trkpt lat="45.9372917" lon="4.5138133"><ele>513.0</ele><time>2026-03-31T14:55:29.475Z</time></trkpt><trkpt lat="45.9372633" lon="4.51393"><ele>510.0</ele><time>2026-03-31T14:55:30.475Z</time></trkpt><trkpt lat="45.9372317" lon="4.514045"><ele>507.0</ele><time>2026-03-31T14:55:31.475Z</time></trkpt><trkpt lat="45.9372017" lon="4.514165"><ele>507.0</ele><time>2026-03-31T14:55:32.475Z</time></trkpt><trkpt lat="45.9371717" lon="4.5142733"><ele>507.00000000000006</ele><time>2026-03-31T14:55:33.475Z</time></trkpt><trkpt lat="45.9371483" lon="4.51437"><ele>507.00000000000006</ele><time>2026-03-31T14:55:34.475Z</time></trkpt><trkpt lat="45.9371167" lon="4.5145217"><ele>507.0</ele><time>2026-03-31T14:55:36.475Z</time></trkpt><trkpt lat="45.9370833" lon="4.5146367"><ele>507.0</ele><time>2026-03-31T14:55:38.475Z</time></trkpt><trkpt lat="45.9370517" lon="4.5148067"><ele>505.40000000000003</ele><time>2026-03-31T14:55:40.475Z</time></trkpt><trkpt lat="45.9370233" lon="4.5149433"><ele>503.80000000000007</ele><time>2026-03-31T14:55:42.475Z</time></trkpt><trkpt lat="45.937015" lon="4.5150633"><ele>502.2</ele><time>2026-03-31T14:55:44.475Z</time></trkpt><trkpt lat="45.937005" lon="4.5152433"><ele>500.6</ele><time>2026-03-31T14:55:46.475Z</time></trkpt><trkpt lat="45.9370083" lon="4.5153483"><ele>499.0</ele><time>2026-03-31T14:55:47.475Z</time></trkpt><trkpt lat="45.9370117" lon="4.5154683"><ele>496.6666666666667</ele><time>2026-03-31T14:55:48.475Z</time></trkpt><trkpt lat="45.9370183" lon="4.5155867"><ele>494.33333333333337</ele><time>2026-03-31T14:55:49.475Z</time></trkpt><trkpt lat="45.9370233" lon="4.5156933"><ele>492.0</ele><time>2026-03-31T14:55:50.475Z</time></trkpt><trkpt lat="45.9370233" lon="4.5157917"><ele>489.66666666666663</ele><time>2026-03-31T14:55:51.475Z</time></trkpt><trkpt lat="45.9370183" lon="4.5158933"><ele>487.3333333333333</ele><time>2026-03-31T14:55:52.474Z</time></trkpt><trkpt lat="45.9370117" lon="4.5160667"><ele>485.0</ele><time>2026-03-31T14:55:54.475Z</time></trkpt><trkpt lat="45.93698" lon="4.5162217"><ele>483.0</ele><time>2026-03-31T14:55:56.475Z</time></trkpt><trkpt lat="45.9369583" lon="4.51632"><ele>481.0</ele><time>2026-03-31T14:55:57.475Z</time></trkpt><trkpt lat="45.9369317" lon="4.516415"><ele>479.0</ele><time>2026-03-31T14:55:58.475Z</time></trkpt><trkpt lat="45.936885" lon="4.5165767"><ele>477.0</ele><time>2026-03-31T14:56:00.474Z</time></trkpt><trkpt lat="45.93685" lon="4.5167267"><ele>475.0</ele><time>2026-03-31T14:56:02.475Z</time></trkpt><trkpt lat="45.9368083" lon="4.5168317"><ele>475.0</ele><time>2026-03-31T14:56:04.475Z</time></trkpt><trkpt lat="45.93678" lon="4.5169567"><ele>475.0</ele><time>2026-03-31T14:56:07.475Z</time></trkpt><trkpt lat="45.9367533" lon="4.517095"><ele>475.0</ele><time>2026-03-31T14:59:52.474Z</time></trkpt><trkpt lat="45.9367233" lon="4.5171917"><ele>475.0</ele><time>2026-03-31T14:59:54.475Z</time></trkpt><trkpt lat="45.9366933" lon="4.517355"><ele>475.0</ele><time>2026-03-31T14:59:56.475Z</time></trkpt><trkpt lat="45.9366617" lon="4.5175183"><ele>475.0</ele><time>2026-03-31T14:59:58.475Z</time></trkpt><trkpt lat="45.93665" lon="4.51761"><ele>475.00000000000006</ele><time>2026-03-31T14:59:59.475Z</time></trkpt><trkpt lat="45.9366283" lon="4.5177017"><ele>475.0</ele><time>2026-03-31T15:00:00.475Z</time></trkpt><trkpt lat="45.936605" lon="4.5178017"><ele>475.0</ele><time>2026-03-31T15:00:01.475Z</time></trkpt><trkpt lat="45.936585" lon="4.5179017"><ele>475.00000000000006</ele><time>2026-03-31T15:00:02.475Z</time></trkpt><trkpt lat="45.9365633" lon="4.5180017"><ele>475.0</ele><time>2026-03-31T15:00:03.475Z</time></trkpt><trkpt lat="45.93654" lon="4.5180983"><ele>475.0</ele><time>2026-03-31T15:00:04.475Z</time></trkpt><trkpt lat="45.9365217" lon="4.5181867"><ele>475.0</ele><time>2026-03-31T15:00:05.475Z</time></trkpt><trkpt lat="45.93649" lon="4.5183683"><ele>475.0</ele><time>2026-03-31T15:00:07.475Z</time></trkpt><trkpt lat="45.9364683" lon="4.5185383"><ele>475.0</ele><time>2026-03-31T15:00:09.475Z</time></trkpt><trkpt lat="45.9364433" lon="4.518685"><ele>475.0</ele><time>2026-03-31T15:00:11.475Z</time></trkpt><trkpt lat="45.9364233" lon="4.5188233"><ele>474.00000000000006</ele><time>2026-03-31T15:00:13.476Z</time></trkpt><trkpt lat="45.9363967" lon="4.5189633"><ele>473.0</ele><time>2026-03-31T15:00:15.476Z</time></trkpt><trkpt lat="45.9363683" lon="4.5190867"><ele>472.0</ele><time>2026-03-31T15:00:17.476Z</time></trkpt><trkpt lat="45.9363433" lon="4.5191883"><ele>471.0</ele><time>2026-03-31T15:00:19.476Z</time></trkpt><trkpt lat="45.9363117" lon="4.5192833"><ele>470.00000000000006</ele><time>2026-03-31T15:00:21.476Z</time></trkpt><trkpt lat="45.9362783" lon="4.51938"><ele>469.0</ele><time>2026-03-31T15:00:23.476Z</time></trkpt><trkpt lat="45.9362333" lon="4.519525"><ele>467.83333333333337</ele><time>2026-03-31T15:00:25.476Z</time></trkpt><trkpt lat="45.9361817" lon="4.5196767"><ele>466.6666666666667</ele><time>2026-03-31T15:00:27.476Z</time></trkpt><trkpt lat="45.9361383" lon="4.519795"><ele>465.5</ele><time>2026-03-31T15:00:29.476Z</time></trkpt><trkpt lat="45.9361017" lon="4.5198733"><ele>464.33333333333337</ele><time>2026-03-31T15:00:31.476Z</time></trkpt><trkpt lat="45.9360433" lon="4.5199267"><ele>463.1666666666667</ele><time>2026-03-31T15:00:34.476Z</time></trkpt><trkpt lat="45.9359733" lon="4.51998"><ele>462.0</ele><time>2026-03-31T15:01:11.476Z</time></trkpt><trkpt lat="45.9359767" lon="4.5200983"><ele>462.0</ele><time>2026-03-31T15:01:15.475Z</time></trkpt><trkpt lat="45.9360133" lon="4.520175"><ele>462.0</ele><time>2026-03-31T15:01:17.476Z</time></trkpt><trkpt lat="45.9360683" lon="4.520265"><ele>462.0</ele><time>2026-03-31T15:01:19.475Z</time></trkpt><trkpt lat="45.9361233" lon="4.52036"><ele>462.0</ele><time>2026-03-31T15:01:21.476Z</time></trkpt><trkpt lat="45.9361867" lon="4.52047"><ele>462.0</ele><time>2026-03-31T15:01:23.476Z</time></trkpt><trkpt lat="45.9362517" lon="4.5205717"><ele>462.0</ele><time>2026-03-31T15:01:25.476Z</time></trkpt><trkpt lat="45.93631" lon="4.5206833"><ele>460.3333333333333</ele><time>2026-03-31T15:01:27.476Z</time></trkpt><trkpt lat="45.93637" lon="4.5208017"><ele>458.66666666666663</ele><time>2026-03-31T15:01:29.476Z</time></trkpt><trkpt lat="45.9364267" lon="4.520895"><ele>457.0</ele><time>2026-03-31T15:01:31.476Z</time></trkpt><trkpt lat="45.93647" lon="4.5209667"><ele>455.3333333333333</ele><time>2026-03-31T15:01:33.476Z</time></trkpt><trkpt lat="45.9365067" lon="4.521055"><ele>453.66666666666663</ele><time>2026-03-31T15:01:36.476Z</time></trkpt><trkpt lat="45.9365267" lon="4.521175"><ele>452.0</ele><time>2026-03-31T15:01:41.476Z</time></trkpt><trkpt lat="45.9365283" lon="4.5212833"><ele>450.66666666666663</ele><time>2026-03-31T15:01:51.476Z</time></trkpt><trkpt lat="45.936515" lon="4.5213967"><ele>449.3333333333333</ele><time>2026-03-31T15:01:55.476Z</time></trkpt><trkpt lat="45.9365117" lon="4.5215083"><ele>448.0</ele><time>2026-03-31T15:01:59.476Z</time></trkpt><trkpt lat="45.9365" lon="4.521605"><ele>446.66666666666663</ele><time>2026-03-31T15:02:03.476Z</time></trkpt><trkpt lat="45.93648" lon="4.521715"><ele>445.3333333333333</ele><time>2026-03-31T15:02:07.476Z</time></trkpt><trkpt lat="45.9364633" lon="4.5218283"><ele>444.0</ele><time>2026-03-31T15:02:11.476Z</time></trkpt><trkpt lat="45.936465" lon="4.52194"><ele>444.0</ele><time>2026-03-31T15:02:15.476Z</time></trkpt><trkpt lat="45.9364783" lon="4.52206"><ele>444.0</ele><time>2026-03-31T15:02:19.476Z</time></trkpt><trkpt lat="45.93649" lon="4.5221733"><ele>444.0</ele><time>2026-03-31T15:02:22.476Z</time></trkpt><trkpt lat="45.9365067" lon="4.5222633"><ele>444.0</ele><time>2026-03-31T15:02:25.476Z</time></trkpt><trkpt lat="45.936515" lon="4.52236"><ele>444.0</ele><time>2026-03-31T15:02:29.476Z</time></trkpt><trkpt lat="45.9365283" lon="4.52245"><ele>444.0</ele><time>2026-03-31T15:02:32.476Z</time></trkpt><trkpt lat="45.9365317" lon="4.5225433"><ele>444.0</ele><time>2026-03-31T15:02:38.476Z</time></trkpt><trkpt lat="45.9365433" lon="4.52264"><ele>442.4</ele><time>2026-03-31T15:02:40.476Z</time></trkpt><trkpt lat="45.9365633" lon="4.52273"><ele>440.79999999999995</ele><time>2026-03-31T15:02:43.476Z</time></trkpt><trkpt lat="45.9365733" lon="4.5228567"><ele>439.20000000000005</ele><time>2026-03-31T15:02:46.476Z</time></trkpt><trkpt lat="45.9365733" lon="4.5229817"><ele>437.6</ele><time>2026-03-31T15:02:48.476Z</time></trkpt><trkpt lat="45.93658" lon="4.5231567"><ele>436.0</ele><time>2026-03-31T15:02:50.476Z</time></trkpt><trkpt lat="45.9365867" lon="4.5232833"><ele>434.83333333333337</ele><time>2026-03-31T15:02:52.476Z</time></trkpt><trkpt lat="45.9365967" lon="4.5233833"><ele>433.6666666666667</ele><time>2026-03-31T15:03:03.476Z</time></trkpt><trkpt lat="45.9366033" lon="4.523565"><ele>432.5</ele><time>2026-03-31T15:03:05.476Z</time></trkpt><trkpt lat="45.9366" lon="4.5236583"><ele>431.33333333333337</ele><time>2026-03-31T15:03:06.476Z</time></trkpt><trkpt lat="45.9366017" lon="4.52383"><ele>430.1666666666667</ele><time>2026-03-31T15:03:08.476Z</time></trkpt><trkpt lat="45.9366033" lon="4.523925"><ele>429.0</ele><time>2026-03-31T15:03:09.475Z</time></trkpt><trkpt lat="45.936605" lon="4.524035"><ele>428.5</ele><time>2026-03-31T15:03:10.476Z</time></trkpt><trkpt lat="45.9366017" lon="4.52416"><ele>428.0</ele><time>2026-03-31T15:03:11.476Z</time></trkpt><trkpt lat="45.9366" lon="4.5242867"><ele>427.5</ele><time>2026-03-31T15:03:12.476Z</time></trkpt><trkpt lat="45.9366" lon="4.5244033"><ele>427.0</ele><time>2026-03-31T15:03:13.476Z</time></trkpt><trkpt lat="45.936595" lon="4.5245083"><ele>426.5</ele><time>2026-03-31T15:03:14.475Z</time></trkpt><trkpt lat="45.936595" lon="4.5246083"><ele>426.0</ele><time>2026-03-31T15:03:15.475Z</time></trkpt><trkpt lat="45.9366" lon="4.5247067"><ele>425.5</ele><time>2026-03-31T15:03:16.476Z</time></trkpt><trkpt lat="45.9366" lon="4.5248083"><ele>425.0</ele><time>2026-03-31T15:03:17.476Z</time></trkpt><trkpt lat="45.93658" lon="4.5249567"><ele>424.5</ele><time>2026-03-31T15:03:19.476Z</time></trkpt><trkpt lat="45.9365667" lon="4.52511"><ele>424.0</ele><time>2026-03-31T15:03:21.476Z</time></trkpt><trkpt lat="45.9365483" lon="4.5252117"><ele>423.5</ele><time>2026-03-31T15:03:22.476Z</time></trkpt><trkpt lat="45.9365183" lon="4.52533"><ele>423.0</ele><time>2026-03-31T15:03:23.476Z</time></trkpt><trkpt lat="45.9364817" lon="4.52547"><ele>423.0</ele><time>2026-03-31T15:03:24.476Z</time></trkpt><trkpt lat="45.9364317" lon="4.5256233"><ele>423.0</ele><time>2026-03-31T15:03:25.476Z</time></trkpt><trkpt lat="45.9363817" lon="4.525785"><ele>423.0</ele><time>2026-03-31T15:03:26.476Z</time></trkpt><trkpt lat="45.9363283" lon="4.5259617"><ele>423.0</ele><time>2026-03-31T15:03:27.476Z</time></trkpt><trkpt lat="45.9362783" lon="4.52613"><ele>422.79999999999995</ele><time>2026-03-31T15:03:28.476Z</time></trkpt><trkpt lat="45.9362333" lon="4.5262817"><ele>422.6</ele><time>2026-03-31T15:03:29.476Z</time></trkpt><trkpt lat="45.9361917" lon="4.52642"><ele>422.4</ele><time>2026-03-31T15:03:30.476Z</time></trkpt><trkpt lat="45.9361483" lon="4.5265683"><ele>422.20000000000005</ele><time>2026-03-31T15:03:31.476Z</time></trkpt><trkpt lat="45.9360983" lon="4.5267217"><ele>422.0</ele><time>2026-03-31T15:03:32.476Z</time></trkpt><trkpt lat="45.936055" lon="4.5268633"><ele>422.0</ele><time>2026-03-31T15:03:33.476Z</time></trkpt><trkpt lat="45.9360183" lon="4.5269917"><ele>422.0</ele><time>2026-03-31T15:03:34.476Z</time></trkpt><trkpt lat="45.9359867" lon="4.5271083"><ele>422.0</ele><time>2026-03-31T15:03:35.476Z</time></trkpt><trkpt lat="45.9359533" lon="4.52723"><ele>422.0</ele><time>2026-03-31T15:03:36.475Z</time></trkpt><trkpt lat="45.9359167" lon="4.5273617"><ele>422.0</ele><time>2026-03-31T15:03:37.476Z</time></trkpt><trkpt lat="45.9358817" lon="4.5274983"><ele>421.6</ele><time>2026-03-31T15:03:38.476Z</time></trkpt><trkpt lat="45.9358517" lon="4.527635"><ele>421.20000000000005</ele><time>2026-03-31T15:03:39.476Z</time></trkpt><trkpt lat="45.93583" lon="4.5277717"><ele>420.8</ele><time>2026-03-31T15:03:40.475Z</time></trkpt><trkpt lat="45.9358133" lon="4.5279233"><ele>420.4</ele><time>2026-03-31T15:03:41.476Z</time></trkpt><trkpt lat="45.9357883" lon="4.5280867"><ele>420.0</ele><time>2026-03-31T15:03:42.476Z</time></trkpt><trkpt lat="45.9357583" lon="4.528265"><ele>419.5</ele><time>2026-03-31T15:03:43.476Z</time></trkpt><trkpt lat="45.9357217" lon="4.5284517"><ele>419.0</ele><time>2026-03-31T15:03:44.476Z</time></trkpt><trkpt lat="45.935685" lon="4.5286383"><ele>418.5</ele><time>2026-03-31T15:03:45.476Z</time></trkpt><trkpt lat="45.9356583" lon="4.5287967"><ele>418.0</ele><time>2026-03-31T15:03:46.476Z</time></trkpt><trkpt lat="45.9356367" lon="4.528945"><ele>417.2</ele><time>2026-03-31T15:03:47.476Z</time></trkpt><trkpt lat="45.9356233" lon="4.529075"><ele>416.4</ele><time>2026-03-31T15:03:48.476Z</time></trkpt><trkpt lat="45.9356117" lon="4.5292067"><ele>415.59999999999997</ele><time>2026-03-31T15:03:49.476Z</time></trkpt><trkpt lat="45.9356" lon="4.529345"><ele>414.79999999999995</ele><time>2026-03-31T15:03:50.476Z</time></trkpt><trkpt lat="45.935585" lon="4.5294717"><ele>414.0</ele><time>2026-03-31T15:03:51.476Z</time></trkpt><trkpt lat="45.9355617" lon="4.5295817"><ele>413.8333333333333</ele><time>2026-03-31T15:03:52.476Z</time></trkpt><trkpt lat="45.9355383" lon="4.529685"><ele>413.66666666666663</ele><time>2026-03-31T15:03:53.476Z</time></trkpt><trkpt lat="45.9355167" lon="4.5297917"><ele>413.5</ele><time>2026-03-31T15:03:54.475Z</time></trkpt><trkpt lat="45.9354883" lon="4.5299067"><ele>413.3333333333333</ele><time>2026-03-31T15:03:55.476Z</time></trkpt><trkpt lat="45.9354517" lon="4.530035"><ele>413.16666666666663</ele><time>2026-03-31T15:03:56.476Z</time></trkpt><trkpt lat="45.9354" lon="4.5301817"><ele>413.0</ele><time>2026-03-31T15:03:57.475Z</time></trkpt><trkpt lat="45.935345" lon="4.5303483"><ele>412.0</ele><time>2026-03-31T15:03:58.475Z</time></trkpt><trkpt lat="45.935285" lon="4.5305267"><ele>411.0</ele><time>2026-03-31T15:03:59.476Z</time></trkpt><trkpt lat="45.9352183" lon="4.53071"><ele>410.0</ele><time>2026-03-31T15:04:00.476Z</time></trkpt><trkpt lat="45.935155" lon="4.5308983"><ele>409.0</ele><time>2026-03-31T15:04:01.476Z</time></trkpt><trkpt lat="45.9350983" lon="4.5310933"><ele>410.75</ele><time>2026-03-31T15:04:02.476Z</time></trkpt><trkpt lat="45.9350367" lon="4.5312867"><ele>412.5</ele><time>2026-03-31T15:04:03.476Z</time></trkpt><trkpt lat="45.9349733" lon="4.53147"><ele>414.25</ele><time>2026-03-31T15:04:04.475Z</time></trkpt><trkpt lat="45.9349133" lon="4.53165"><ele>416.0</ele><time>2026-03-31T15:04:05.476Z</time></trkpt><trkpt lat="45.9348583" lon="4.5318367"><ele>416.0</ele><time>2026-03-31T15:04:06.476Z</time></trkpt><trkpt lat="45.9348017" lon="4.5320083"><ele>416.0</ele><time>2026-03-31T15:04:07.476Z</time></trkpt><trkpt lat="45.9347517" lon="4.5321733"><ele>416.0</ele><time>2026-03-31T15:04:08.476Z</time></trkpt><trkpt lat="45.934705" lon="4.532325"><ele>416.0</ele><time>2026-03-31T15:04:09.476Z</time></trkpt><trkpt lat="45.9346567" lon="4.5324767"><ele>416.6</ele><time>2026-03-31T15:04:10.476Z</time></trkpt><trkpt lat="45.93461" lon="4.5326333"><ele>417.20000000000005</ele><time>2026-03-31T15:04:11.476Z</time></trkpt><trkpt lat="45.9345667" lon="4.5327767"><ele>417.79999999999995</ele><time>2026-03-31T15:04:12.476Z</time></trkpt><trkpt lat="45.9345283" lon="4.5329"><ele>418.4</ele><time>2026-03-31T15:04:13.476Z</time></trkpt><trkpt lat="45.9344933" lon="4.5330217"><ele>419.0</ele><time>2026-03-31T15:04:14.475Z</time></trkpt><trkpt lat="45.934455" lon="4.5331483"><ele>419.66666666666663</ele><time>2026-03-31T15:04:15.476Z</time></trkpt><trkpt lat="45.9344183" lon="4.5332683"><ele>420.3333333333333</ele><time>2026-03-31T15:04:16.476Z</time></trkpt><trkpt lat="45.934375" lon="4.5333917"><ele>421.0</ele><time>2026-03-31T15:04:17.476Z</time></trkpt><trkpt lat="45.9343367" lon="4.5334983"><ele>421.66666666666663</ele><time>2026-03-31T15:04:18.476Z</time></trkpt><trkpt lat="45.9343017" lon="4.5335967"><ele>422.3333333333333</ele><time>2026-03-31T15:04:19.476Z</time></trkpt><trkpt lat="45.9342667" lon="4.5336917"><ele>423.0</ele><time>2026-03-31T15:04:20.476Z</time></trkpt><trkpt lat="45.934225" lon="4.5338083"><ele>421.79999999999995</ele><time>2026-03-31T15:04:21.476Z</time></trkpt><trkpt lat="45.93418" lon="4.53394"><ele>420.6</ele><time>2026-03-31T15:04:22.476Z</time></trkpt><trkpt lat="45.9341283" lon="4.53408"><ele>419.4</ele><time>2026-03-31T15:04:23.476Z</time></trkpt><trkpt lat="45.93408" lon="4.5342067"><ele>418.20000000000005</ele><time>2026-03-31T15:04:24.476Z</time></trkpt><trkpt lat="45.9340267" lon="4.5343283"><ele>417.0</ele><time>2026-03-31T15:04:25.476Z</time></trkpt><trkpt lat="45.9339733" lon="4.5344583"><ele>416.5</ele><time>2026-03-31T15:04:26.476Z</time></trkpt><trkpt lat="45.9339167" lon="4.5346033"><ele>416.0</ele><time>2026-03-31T15:04:27.475Z</time></trkpt><trkpt lat="45.9338533" lon="4.5347633"><ele>415.5</ele><time>2026-03-31T15:04:28.476Z</time></trkpt><trkpt lat="45.933795" lon="4.53491"><ele>415.0</ele><time>2026-03-31T15:04:29.476Z</time></trkpt><trkpt lat="45.9337417" lon="4.53504"><ele>415.0</ele><time>2026-03-31T15:04:30.476Z</time></trkpt><trkpt lat="45.9336933" lon="4.5351533"><ele>415.0</ele><time>2026-03-31T15:04:31.476Z</time></trkpt><trkpt lat="45.933645" lon="4.53527"><ele>415.0</ele><time>2026-03-31T15:04:32.476Z</time></trkpt><trkpt lat="45.9335883" lon="4.5353967"><ele>415.0</ele><time>2026-03-31T15:04:33.475Z</time></trkpt><trkpt lat="45.9335183" lon="4.5355317"><ele>415.0</ele><time>2026-03-31T15:04:34.476Z</time></trkpt><trkpt lat="45.9334433" lon="4.5356733"><ele>413.0</ele><time>2026-03-31T15:04:35.476Z</time></trkpt><trkpt lat="45.9333767" lon="4.53581"><ele>411.0</ele><time>2026-03-31T15:04:36.476Z</time></trkpt><trkpt lat="45.93331" lon="4.53593"><ele>409.0</ele><time>2026-03-31T15:04:37.476Z</time></trkpt><trkpt lat="45.93324" lon="4.5360517"><ele>407.0</ele><time>2026-03-31T15:04:38.476Z</time></trkpt><trkpt lat="45.933165" lon="4.5361867"><ele>406.0</ele><time>2026-03-31T15:04:39.476Z</time></trkpt><trkpt lat="45.9330783" lon="4.5363283"><ele>405.0</ele><time>2026-03-31T15:04:40.476Z</time></trkpt><trkpt lat="45.9329933" lon="4.536465"><ele>404.0</ele><time>2026-03-31T15:04:41.476Z</time></trkpt><trkpt lat="45.93292" lon="4.536595"><ele>403.0</ele><time>2026-03-31T15:04:42.476Z</time></trkpt><trkpt lat="45.93284" lon="4.5367317"><ele>403.0</ele><time>2026-03-31T15:04:43.476Z</time></trkpt><trkpt lat="45.932755" lon="4.5368717"><ele>403.0</ele><time>2026-03-31T15:04:44.476Z</time></trkpt><trkpt lat="45.9326683" lon="4.5370117"><ele>403.0</ele><time>2026-03-31T15:04:45.476Z</time></trkpt><trkpt lat="45.9325883" lon="4.5371433"><ele>403.0</ele><time>2026-03-31T15:04:46.476Z</time></trkpt><trkpt lat="45.932515" lon="4.5372667"><ele>402.83333333333337</ele><time>2026-03-31T15:04:47.476Z</time></trkpt><trkpt lat="45.93245" lon="4.5373817"><ele>402.6666666666667</ele><time>2026-03-31T15:04:48.476Z</time></trkpt><trkpt lat="45.932385" lon="4.537475"><ele>402.5</ele><time>2026-03-31T15:04:49.476Z</time></trkpt><trkpt lat="45.9323317" lon="4.5375533"><ele>402.33333333333337</ele><time>2026-03-31T15:04:50.476Z</time></trkpt><trkpt lat="45.9322867" lon="4.53762"><ele>402.1666666666667</ele><time>2026-03-31T15:04:51.476Z</time></trkpt><trkpt lat="45.9322117" lon="4.5377183"><ele>402.0</ele><time>2026-03-31T15:04:53.476Z</time></trkpt><trkpt lat="45.9321233" lon="4.53782"><ele>402.0</ele><time>2026-03-31T15:04:56.476Z</time></trkpt><trkpt lat="45.9320417" lon="4.5378783"><ele>402.0</ele><time>2026-03-31T15:04:58.475Z</time></trkpt><trkpt lat="45.9319733" lon="4.5379067"><ele>402.0</ele><time>2026-03-31T15:04:59.476Z</time></trkpt><trkpt lat="45.9318533" lon="4.5379383"><ele>402.0</ele><time>2026-03-31T15:05:01.476Z</time></trkpt><trkpt lat="45.9317183" lon="4.53796"><ele>402.0</ele><time>2026-03-31T15:05:03.476Z</time></trkpt><trkpt lat="45.93165" lon="4.5379733"><ele>402.40000000000003</ele><time>2026-03-31T15:05:04.476Z</time></trkpt><trkpt lat="45.93154" lon="4.5379967"><ele>402.8</ele><time>2026-03-31T15:05:06.476Z</time></trkpt><trkpt lat="45.9314767" lon="4.5380017"><ele>403.2</ele><time>2026-03-31T15:05:07.476Z</time></trkpt><trkpt lat="45.93135" lon="4.53803"><ele>403.6</ele><time>2026-03-31T15:05:09.476Z</time></trkpt><trkpt lat="45.9312767" lon="4.538045"><ele>404.0</ele><time>2026-03-31T15:05:10.476Z</time></trkpt><trkpt lat="45.9312" lon="4.5380533"><ele>403.99999999999994</ele><time>2026-03-31T15:05:11.476Z</time></trkpt><trkpt lat="45.931115" lon="4.5380733"><ele>404.0</ele><time>2026-03-31T15:05:12.476Z</time></trkpt><trkpt lat="45.931035" lon="4.5380883"><ele>404.0</ele><time>2026-03-31T15:05:13.475Z</time></trkpt><trkpt lat="45.9309583" lon="4.538115"><ele>404.0</ele><time>2026-03-31T15:05:14.476Z</time></trkpt><trkpt lat="45.930875" lon="4.53814"><ele>403.99999999999994</ele><time>2026-03-31T15:05:15.476Z</time></trkpt><trkpt lat="45.9307967" lon="4.5381767"><ele>404.0</ele><time>2026-03-31T15:05:16.476Z</time></trkpt><trkpt lat="45.9307183" lon="4.5382217"><ele>404.8333333333333</ele><time>2026-03-31T15:05:17.476Z</time></trkpt><trkpt lat="45.9306317" lon="4.5382767"><ele>405.66666666666663</ele><time>2026-03-31T15:05:18.476Z</time></trkpt><trkpt lat="45.93055" lon="4.5383383"><ele>406.5</ele><time>2026-03-31T15:05:19.476Z</time></trkpt><trkpt lat="45.9304833" lon="4.5384"><ele>407.33333333333337</ele><time>2026-03-31T15:05:20.476Z</time></trkpt><trkpt lat="45.9304167" lon="4.5384767"><ele>408.1666666666667</ele><time>2026-03-31T15:05:21.476Z</time></trkpt><trkpt lat="45.9303633" lon="4.53854"><ele>409.0</ele><time>2026-03-31T15:05:22.476Z</time></trkpt><trkpt lat="45.9303083" lon="4.538615"><ele>409.0</ele><time>2026-03-31T15:05:23.475Z</time></trkpt><trkpt lat="45.9302633" lon="4.53868"><ele>409.0</ele><time>2026-03-31T15:05:24.476Z</time></trkpt><trkpt lat="45.930215" lon="4.5387467"><ele>409.0</ele><time>2026-03-31T15:05:25.476Z</time></trkpt><trkpt lat="45.9301667" lon="4.5388233"><ele>409.0</ele><time>2026-03-31T15:05:26.476Z</time></trkpt><trkpt lat="45.9301167" lon="4.53891"><ele>409.0</ele><time>2026-03-31T15:05:27.476Z</time></trkpt><trkpt lat="45.9300667" lon="4.5389933"><ele>409.0</ele><time>2026-03-31T15:05:28.476Z</time></trkpt><trkpt lat="45.9300167" lon="4.5390817"><ele>409.0</ele><time>2026-03-31T15:05:29.476Z</time></trkpt><trkpt lat="45.9299617" lon="4.5391717"><ele>408.6666666666667</ele><time>2026-03-31T15:05:30.476Z</time></trkpt><trkpt lat="45.929905" lon="4.5392633"><ele>408.33333333333337</ele><time>2026-03-31T15:05:31.476Z</time></trkpt><trkpt lat="45.9298483" lon="4.53935"><ele>408.0</ele><time>2026-03-31T15:05:32.476Z</time></trkpt><trkpt lat="45.9297883" lon="4.53944"><ele>407.66666666666663</ele><time>2026-03-31T15:05:33.476Z</time></trkpt><trkpt lat="45.9297317" lon="4.5395317"><ele>407.3333333333333</ele><time>2026-03-31T15:05:34.476Z</time></trkpt><trkpt lat="45.92967" lon="4.5396117"><ele>407.0</ele><time>2026-03-31T15:05:35.476Z</time></trkpt><trkpt lat="45.9296" lon="4.5397167"><ele>406.99999999999994</ele><time>2026-03-31T15:05:37.476Z</time></trkpt><trkpt lat="45.92953" lon="4.5398333"><ele>407.0</ele><time>2026-03-31T15:05:39.476Z</time></trkpt><trkpt lat="45.9294767" lon="4.5399083"><ele>407.0</ele><time>2026-03-31T15:05:40.475Z</time></trkpt><trkpt lat="45.929425" lon="4.5399833"><ele>407.0</ele><time>2026-03-31T15:05:41.476Z</time></trkpt><trkpt lat="45.92937" lon="4.5400583"><ele>406.99999999999994</ele><time>2026-03-31T15:05:42.476Z</time></trkpt><trkpt lat="45.92932" lon="4.540135"><ele>407.0</ele><time>2026-03-31T15:05:43.475Z</time></trkpt><trkpt lat="45.9292583" lon="4.5402117"><ele>407.0</ele><time>2026-03-31T15:05:44.476Z</time></trkpt><trkpt lat="45.9291933" lon="4.540285"><ele>407.0</ele><time>2026-03-31T15:05:45.476Z</time></trkpt><trkpt lat="45.9291267" lon="4.5403567"><ele>407.0</ele><time>2026-03-31T15:05:46.476Z</time></trkpt><trkpt lat="45.9290533" lon="4.5404083"><ele>407.0</ele><time>2026-03-31T15:05:47.476Z</time></trkpt><trkpt lat="45.9289633" lon="4.5404517"><ele>407.0</ele><time>2026-03-31T15:05:48.476Z</time></trkpt><trkpt lat="45.92886" lon="4.54051"><ele>405.6</ele><time>2026-03-31T15:05:49.476Z</time></trkpt><trkpt lat="45.9287667" lon="4.5405767"><ele>404.20000000000005</ele><time>2026-03-31T15:05:50.476Z</time></trkpt><trkpt lat="45.9286767" lon="4.540645"><ele>402.8</ele><time>2026-03-31T15:05:51.476Z</time></trkpt><trkpt lat="45.92859" lon="4.54071"><ele>401.4</ele><time>2026-03-31T15:05:52.475Z</time></trkpt><trkpt lat="45.9285067" lon="4.540775"><ele>400.0</ele><time>2026-03-31T15:05:53.476Z</time></trkpt><trkpt lat="45.9284217" lon="4.5408533"><ele>399.75</ele><time>2026-03-31T15:05:54.476Z</time></trkpt><trkpt lat="45.9283267" lon="4.5409383"><ele>399.5</ele><time>2026-03-31T15:05:55.475Z</time></trkpt><trkpt lat="45.928225" lon="4.541025"><ele>399.25</ele><time>2026-03-31T15:05:56.476Z</time></trkpt><trkpt lat="45.928125" lon="4.5410983"><ele>399.0</ele><time>2026-03-31T15:05:57.476Z</time></trkpt><trkpt lat="45.9280167" lon="4.541175"><ele>397.5</ele><time>2026-03-31T15:05:58.476Z</time></trkpt><trkpt lat="45.9279033" lon="4.5412467"><ele>396.0</ele><time>2026-03-31T15:05:59.476Z</time></trkpt><trkpt lat="45.9277917" lon="4.5413167"><ele>394.5</ele><time>2026-03-31T15:06:00.476Z</time></trkpt><trkpt lat="45.9276833" lon="4.541385"><ele>393.0</ele><time>2026-03-31T15:06:01.476Z</time></trkpt><trkpt lat="45.9275733" lon="4.5414483"><ele>392.6666666666667</ele><time>2026-03-31T15:06:02.475Z</time></trkpt><trkpt lat="45.9274717" lon="4.5415067"><ele>392.33333333333337</ele><time>2026-03-31T15:06:03.476Z</time></trkpt><trkpt lat="45.927385" lon="4.5415583"><ele>392.0</ele><time>2026-03-31T15:06:04.476Z</time></trkpt><trkpt lat="45.9273033" lon="4.5415933"><ele>391.6666666666667</ele><time>2026-03-31T15:06:05.476Z</time></trkpt><trkpt lat="45.9272283" lon="4.54163"><ele>391.33333333333337</ele><time>2026-03-31T15:06:06.476Z</time></trkpt><trkpt lat="45.9271583" lon="4.5416717"><ele>391.0</ele><time>2026-03-31T15:06:07.476Z</time></trkpt><trkpt lat="45.9270983" lon="4.5417183"><ele>391.00000000000006</ele><time>2026-03-31T15:06:08.476Z</time></trkpt><trkpt lat="45.927045" lon="4.5417717"><ele>391.0</ele><time>2026-03-31T15:06:09.476Z</time></trkpt><trkpt lat="45.926995" lon="4.5418283"><ele>391.0</ele><time>2026-03-31T15:06:10.476Z</time></trkpt><trkpt lat="45.92693" lon="4.5419"><ele>391.0</ele><time>2026-03-31T15:06:12.476Z</time></trkpt><trkpt lat="45.92688" lon="4.5419633"><ele>391.00000000000006</ele><time>2026-03-31T15:06:14.476Z</time></trkpt><trkpt lat="45.9267983" lon="4.5420717"><ele>391.0</ele><time>2026-03-31T15:06:17.476Z</time></trkpt><trkpt lat="45.9267033" lon="4.5422117"><ele>390.00000000000006</ele><time>2026-03-31T15:06:19.476Z</time></trkpt><trkpt lat="45.92665" lon="4.5422983"><ele>389.0</ele><time>2026-03-31T15:06:20.476Z</time></trkpt><trkpt lat="45.92659" lon="4.5423833"><ele>388.0</ele><time>2026-03-31T15:06:21.476Z</time></trkpt><trkpt lat="45.92653" lon="4.5424683"><ele>387.0</ele><time>2026-03-31T15:06:22.475Z</time></trkpt><trkpt lat="45.9264517" lon="4.5425617"><ele>386.00000000000006</ele><time>2026-03-31T15:06:23.476Z</time></trkpt><trkpt lat="45.9263833" lon="4.542645"><ele>385.0</ele><time>2026-03-31T15:06:24.476Z</time></trkpt><trkpt lat="45.9263133" lon="4.5427333"><ele>385.00000000000006</ele><time>2026-03-31T15:06:25.475Z</time></trkpt><trkpt lat="45.9262367" lon="4.5428217"><ele>385.0</ele><time>2026-03-31T15:06:26.476Z</time></trkpt><trkpt lat="45.9261733" lon="4.54291"><ele>385.0</ele><time>2026-03-31T15:06:27.476Z</time></trkpt><trkpt lat="45.92612" lon="4.5429933"><ele>385.0</ele><time>2026-03-31T15:06:28.476Z</time></trkpt><trkpt lat="45.9260667" lon="4.5430833"><ele>385.00000000000006</ele><time>2026-03-31T15:06:29.475Z</time></trkpt><trkpt lat="45.926025" lon="4.5431833"><ele>385.0</ele><time>2026-03-31T15:06:30.476Z</time></trkpt><trkpt lat="45.9259783" lon="4.54329"><ele>384.83333333333337</ele><time>2026-03-31T15:06:31.476Z</time></trkpt><trkpt lat="45.92593" lon="4.543395"><ele>384.6666666666667</ele><time>2026-03-31T15:06:32.476Z</time></trkpt><trkpt lat="45.92589" lon="4.5435017"><ele>384.5</ele><time>2026-03-31T15:06:33.475Z</time></trkpt><trkpt lat="45.9258417" lon="4.543605"><ele>384.33333333333337</ele><time>2026-03-31T15:06:34.476Z</time></trkpt><trkpt lat="45.9257817" lon="4.543685"><ele>384.1666666666667</ele><time>2026-03-31T15:06:35.476Z</time></trkpt><trkpt lat="45.925715" lon="4.5437717"><ele>384.0</ele><time>2026-03-31T15:06:36.476Z</time></trkpt><trkpt lat="45.9256517" lon="4.5438667"><ele>383.8333333333333</ele><time>2026-03-31T15:06:37.476Z</time></trkpt><trkpt lat="45.9255867" lon="4.5439533"><ele>383.6666666666667</ele><time>2026-03-31T15:06:38.476Z</time></trkpt><trkpt lat="45.9255217" lon="4.5440467"><ele>383.5</ele><time>2026-03-31T15:06:39.476Z</time></trkpt><trkpt lat="45.9254633" lon="4.54414"><ele>383.33333333333337</ele><time>2026-03-31T15:06:40.476Z</time></trkpt><trkpt lat="45.9254133" lon="4.5442317"><ele>383.1666666666667</ele><time>2026-03-31T15:06:41.476Z</time></trkpt><trkpt lat="45.92537" lon="4.5443267"><ele>383.0</ele><time>2026-03-31T15:06:42.476Z</time></trkpt><trkpt lat="45.9253317" lon="4.5444083"><ele>383.0</ele><time>2026-03-31T15:06:43.476Z</time></trkpt><trkpt lat="45.9252967" lon="4.5444883"><ele>383.0</ele><time>2026-03-31T15:06:44.476Z</time></trkpt><trkpt lat="45.9252583" lon="4.5445767"><ele>383.0</ele><time>2026-03-31T15:06:45.476Z</time></trkpt><trkpt lat="45.9252133" lon="4.5446717"><ele>383.0</ele><time>2026-03-31T15:06:46.476Z</time></trkpt><trkpt lat="45.9251717" lon="4.5447567"><ele>383.0</ele><time>2026-03-31T15:06:47.476Z</time></trkpt><trkpt lat="45.9251267" lon="4.5448383"><ele>383.0</ele><time>2026-03-31T15:06:48.476Z</time></trkpt><trkpt lat="45.9250783" lon="4.5449117"><ele>383.0</ele><time>2026-03-31T15:06:49.476Z</time></trkpt><trkpt lat="45.92502" lon="4.5449883"><ele>383.0</ele><time>2026-03-31T15:06:50.475Z</time></trkpt><trkpt lat="45.9249633" lon="4.545065"><ele>383.0</ele><time>2026-03-31T15:06:51.476Z</time></trkpt><trkpt lat="45.92491" lon="4.5451267"><ele>383.0</ele><time>2026-03-31T15:06:52.475Z</time></trkpt><trkpt lat="45.9248217" lon="4.5452283"><ele>383.0</ele><time>2026-03-31T15:06:54.476Z</time></trkpt><trkpt lat="45.92475" lon="4.5453283"><ele>383.0</ele><time>2026-03-31T15:06:56.476Z</time></trkpt><trkpt lat="45.9246517" lon="4.5454567"><ele>383.0</ele><time>2026-03-31T15:06:58.476Z</time></trkpt><trkpt lat="45.9245867" lon="4.5455333"><ele>383.0</ele><time>2026-03-31T15:06:59.476Z</time></trkpt><trkpt lat="45.924515" lon="4.5456067"><ele>383.0</ele><time>2026-03-31T15:07:00.476Z</time></trkpt><trkpt lat="45.924455" lon="4.5456667"><ele>383.0</ele><time>2026-03-31T15:07:01.476Z</time></trkpt><trkpt lat="45.9243933" lon="4.5457617"><ele>383.0</ele><time>2026-03-31T15:07:02.476Z</time></trkpt><trkpt lat="45.924335" lon="4.545865"><ele>383.0</ele><time>2026-03-31T15:07:03.476Z</time></trkpt><trkpt lat="45.924285" lon="4.5459567"><ele>382.6666666666667</ele><time>2026-03-31T15:07:04.476Z</time></trkpt><trkpt lat="45.9242267" lon="4.5460417"><ele>382.33333333333337</ele><time>2026-03-31T15:07:05.476Z</time></trkpt><trkpt lat="45.9241633" lon="4.5461183"><ele>382.0</ele><time>2026-03-31T15:07:06.476Z</time></trkpt><trkpt lat="45.9240967" lon="4.5461867"><ele>381.6666666666667</ele><time>2026-03-31T15:07:07.476Z</time></trkpt><trkpt lat="45.9240417" lon="4.5462583"><ele>381.3333333333333</ele><time>2026-03-31T15:07:08.476Z</time></trkpt><trkpt lat="45.9239583" lon="4.5463783"><ele>381.0</ele><time>2026-03-31T15:07:10.476Z</time></trkpt><trkpt lat="45.9238883" lon="4.5464517"><ele>380.3333333333333</ele><time>2026-03-31T15:07:12.476Z</time></trkpt><trkpt lat="45.9237983" lon="4.54657"><ele>379.6666666666667</ele><time>2026-03-31T15:07:14.476Z</time></trkpt><trkpt lat="45.9237533" lon="4.546635"><ele>379.0</ele><time>2026-03-31T15:07:15.476Z</time></trkpt><trkpt lat="45.9237067" lon="4.5467067"><ele>378.33333333333337</ele><time>2026-03-31T15:07:16.476Z</time></trkpt><trkpt lat="45.9236617" lon="4.5467717"><ele>377.6666666666667</ele><time>2026-03-31T15:07:17.477Z</time></trkpt><trkpt lat="45.9235917" lon="4.5468767"><ele>377.0</ele><time>2026-03-31T15:07:19.476Z</time></trkpt><trkpt lat="45.923525" lon="4.5469583"><ele>377.0</ele><time>2026-03-31T15:07:21.477Z</time></trkpt><trkpt lat="45.9234617" lon="4.5470317"><ele>377.0</ele><time>2026-03-31T15:07:23.477Z</time></trkpt><trkpt lat="45.9234133" lon="4.5470983"><ele>377.0</ele><time>2026-03-31T15:07:25.477Z</time></trkpt><trkpt lat="45.9233217" lon="4.5472217"><ele>377.0</ele><time>2026-03-31T15:07:27.477Z</time></trkpt><trkpt lat="45.9232633" lon="4.5472867"><ele>377.0</ele><time>2026-03-31T15:07:28.477Z</time></trkpt><trkpt lat="45.923215" lon="4.5473467"><ele>377.0</ele><time>2026-03-31T15:07:29.477Z</time></trkpt><trkpt lat="45.9231483" lon="4.5474467"><ele>374.8</ele><time>2026-03-31T15:07:31.476Z</time></trkpt><trkpt lat="45.9230733" lon="4.5475533"><ele>372.6</ele><time>2026-03-31T15:07:33.477Z</time></trkpt><trkpt lat="45.9230317" lon="4.5476217"><ele>370.40000000000003</ele><time>2026-03-31T15:07:34.477Z</time></trkpt><trkpt lat="45.9229883" lon="4.54772"><ele>368.20000000000005</ele><time>2026-03-31T15:07:36.477Z</time></trkpt><trkpt lat="45.9229133" lon="4.54783"><ele>366.0</ele><time>2026-03-31T15:07:38.476Z</time></trkpt><trkpt lat="45.92283" lon="4.547975"><ele>365.25</ele><time>2026-03-31T15:07:40.477Z</time></trkpt><trkpt lat="45.9227583" lon="4.5481083"><ele>364.5</ele><time>2026-03-31T15:07:42.477Z</time></trkpt><trkpt lat="45.9226783" lon="4.5482367"><ele>363.75</ele><time>2026-03-31T15:07:44.477Z</time></trkpt><trkpt lat="45.9225967" lon="4.548365"><ele>363.0</ele><time>2026-03-31T15:07:46.477Z</time></trkpt><trkpt lat="45.9224983" lon="4.54851"><ele>363.0</ele><time>2026-03-31T15:07:48.477Z</time></trkpt><trkpt lat="45.9224367" lon="4.5486217"><ele>363.0</ele><time>2026-03-31T15:07:49.477Z</time></trkpt><trkpt lat="45.9223833" lon="4.5487283"><ele>363.0</ele><time>2026-03-31T15:07:50.477Z</time></trkpt><trkpt lat="45.92233" lon="4.54883"><ele>363.0</ele><time>2026-03-31T15:07:51.477Z</time></trkpt><trkpt lat="45.9222783" lon="4.5489333"><ele>363.0</ele><time>2026-03-31T15:07:52.477Z</time></trkpt><trkpt lat="45.9222267" lon="4.5490333"><ele>362.5</ele><time>2026-03-31T15:07:53.477Z</time></trkpt><trkpt lat="45.92217" lon="4.5491383"><ele>362.0</ele><time>2026-03-31T15:07:54.477Z</time></trkpt><trkpt lat="45.9221183" lon="4.5492467"><ele>361.5</ele><time>2026-03-31T15:07:55.477Z</time></trkpt><trkpt lat="45.9220733" lon="4.5493383"><ele>361.0</ele><time>2026-03-31T15:07:56.477Z</time></trkpt><trkpt lat="45.9220333" lon="4.5494233"><ele>360.5</ele><time>2026-03-31T15:07:57.477Z</time></trkpt><trkpt lat="45.9219967" lon="4.5494983"><ele>360.0</ele><time>2026-03-31T15:07:58.477Z</time></trkpt><trkpt lat="45.9219583" lon="4.549575"><ele>358.3333333333333</ele><time>2026-03-31T15:07:59.477Z</time></trkpt><trkpt lat="45.9219067" lon="4.5496633"><ele>356.6666666666667</ele><time>2026-03-31T15:08:00.477Z</time></trkpt><trkpt lat="45.9218617" lon="4.5497517"><ele>355.0</ele><time>2026-03-31T15:08:01.476Z</time></trkpt><trkpt lat="45.9218167" lon="4.5498417"><ele>353.33333333333337</ele><time>2026-03-31T15:08:02.477Z</time></trkpt><trkpt lat="45.92178" lon="4.5499383"><ele>351.6666666666667</ele><time>2026-03-31T15:08:03.477Z</time></trkpt><trkpt lat="45.921745" lon="4.550035"><ele>350.0</ele><time>2026-03-31T15:08:04.477Z</time></trkpt><trkpt lat="45.9217117" lon="4.55013"><ele>350.0</ele><time>2026-03-31T15:08:05.476Z</time></trkpt><trkpt lat="45.9216833" lon="4.5502283"><ele>350.0</ele><time>2026-03-31T15:08:06.477Z</time></trkpt><trkpt lat="45.921665" lon="4.5503267"><ele>350.0</ele><time>2026-03-31T15:08:07.477Z</time></trkpt><trkpt lat="45.9216533" lon="4.5504267"><ele>350.0</ele><time>2026-03-31T15:08:08.477Z</time></trkpt><trkpt lat="45.9216433" lon="4.5505183"><ele>350.0</ele><time>2026-03-31T15:08:09.477Z</time></trkpt><trkpt lat="45.9216283" lon="4.55062"><ele>350.0</ele><time>2026-03-31T15:08:10.477Z</time></trkpt><trkpt lat="45.9215933" lon="4.5507217"><ele>350.0</ele><time>2026-03-31T15:08:11.477Z</time></trkpt><trkpt lat="45.9215517" lon="4.550835"><ele>348.5</ele><time>2026-03-31T15:08:12.477Z</time></trkpt><trkpt lat="45.9215" lon="4.5509517"><ele>347.0</ele><time>2026-03-31T15:08:13.477Z</time></trkpt><trkpt lat="45.92145" lon="4.5510617"><ele>345.5</ele><time>2026-03-31T15:08:14.477Z</time></trkpt><trkpt lat="45.9214" lon="4.5511533"><ele>344.0</ele><time>2026-03-31T15:08:15.477Z</time></trkpt><trkpt lat="45.921345" lon="4.55123"><ele>342.5</ele><time>2026-03-31T15:08:16.477Z</time></trkpt><trkpt lat="45.9212933" lon="4.5512917"><ele>341.0</ele><time>2026-03-31T15:08:17.477Z</time></trkpt><trkpt lat="45.9212433" lon="4.5513617"><ele>338.6666666666667</ele><time>2026-03-31T15:08:18.477Z</time></trkpt><trkpt lat="45.92119" lon="4.5514467"><ele>336.33333333333337</ele><time>2026-03-31T15:08:19.477Z</time></trkpt><trkpt lat="45.9211317" lon="4.551535"><ele>334.0</ele><time>2026-03-31T15:08:20.477Z</time></trkpt><trkpt lat="45.9210717" lon="4.5516217"><ele>331.6666666666667</ele><time>2026-03-31T15:08:21.477Z</time></trkpt><trkpt lat="45.9210167" lon="4.5517033"><ele>329.3333333333333</ele><time>2026-03-31T15:08:22.477Z</time></trkpt><trkpt lat="45.9209717" lon="4.5517817"><ele>327.0</ele><time>2026-03-31T15:08:23.476Z</time></trkpt><trkpt lat="45.9209083" lon="4.5519233"><ele>326.7142857142857</ele><time>2026-03-31T15:08:25.476Z</time></trkpt><trkpt lat="45.9208833" lon="4.5520067"><ele>326.42857142857144</ele><time>2026-03-31T15:08:26.476Z</time></trkpt><trkpt lat="45.92086" lon="4.5521067"><ele>326.1428571428571</ele><time>2026-03-31T15:08:27.477Z</time></trkpt><trkpt lat="45.92084" lon="4.5522217"><ele>325.8571428571429</ele><time>2026-03-31T15:08:28.477Z</time></trkpt><trkpt lat="45.9208217" lon="4.552325"><ele>325.5714285714286</ele><time>2026-03-31T15:08:29.477Z</time></trkpt><trkpt lat="45.9208067" lon="4.5524217"><ele>325.2857142857143</ele><time>2026-03-31T15:08:30.477Z</time></trkpt><trkpt lat="45.9207917" lon="4.5525217"><ele>325.0</ele><time>2026-03-31T15:08:31.477Z</time></trkpt><trkpt lat="45.9207767" lon="4.552615"><ele>324.16666666666663</ele><time>2026-03-31T15:08:32.477Z</time></trkpt><trkpt lat="45.920765" lon="4.5527217"><ele>323.3333333333333</ele><time>2026-03-31T15:08:33.477Z</time></trkpt><trkpt lat="45.920745" lon="4.5528167"><ele>322.5</ele><time>2026-03-31T15:08:34.477Z</time></trkpt><trkpt lat="45.920715" lon="4.5529533"><ele>321.6666666666667</ele><time>2026-03-31T15:08:36.477Z</time></trkpt><trkpt lat="45.9206983" lon="4.5530767"><ele>320.83333333333337</ele><time>2026-03-31T15:08:38.477Z</time></trkpt><trkpt lat="45.9206833" lon="4.5531733"><ele>320.0</ele><time>2026-03-31T15:08:39.477Z</time></trkpt><trkpt lat="45.92067" lon="4.5532733"><ele>318.6666666666667</ele><time>2026-03-31T15:08:40.476Z</time></trkpt><trkpt lat="45.9206567" lon="4.5533767"><ele>317.33333333333337</ele><time>2026-03-31T15:08:41.477Z</time></trkpt><trkpt lat="45.9206417" lon="4.5534817"><ele>316.0</ele><time>2026-03-31T15:08:42.476Z</time></trkpt><trkpt lat="45.920625" lon="4.5535833"><ele>314.6666666666667</ele><time>2026-03-31T15:08:43.477Z</time></trkpt><trkpt lat="45.9206183" lon="4.5536767"><ele>313.3333333333333</ele><time>2026-03-31T15:08:44.477Z</time></trkpt><trkpt lat="45.9206183" lon="4.5538367"><ele>312.0</ele><time>2026-03-31T15:08:46.477Z</time></trkpt><trkpt lat="45.920625" lon="4.55401"><ele>311.0</ele><time>2026-03-31T15:08:48.476Z</time></trkpt><trkpt lat="45.920635" lon="4.5541567"><ele>310.0</ele><time>2026-03-31T15:08:50.477Z</time></trkpt><trkpt lat="45.920635" lon="4.5542783"><ele>309.0</ele><time>2026-03-31T15:08:52.477Z</time></trkpt><trkpt lat="45.9206317" lon="4.5544017"><ele>308.0</ele><time>2026-03-31T15:08:54.477Z</time></trkpt><trkpt lat="45.9206267" lon="4.5545383"><ele>307.0</ele><time>2026-03-31T15:08:56.477Z</time></trkpt><trkpt lat="45.9206383" lon="4.5546933"><ele>306.0</ele><time>2026-03-31T15:08:58.477Z</time></trkpt><trkpt lat="45.9206517" lon="4.55487"><ele>305.0</ele><time>2026-03-31T15:09:00.477Z</time></trkpt><trkpt lat="45.9206533" lon="4.5549867"><ele>304.0</ele><time>2026-03-31T15:09:01.477Z</time></trkpt><trkpt lat="45.92066" lon="4.5551083"><ele>303.0</ele><time>2026-03-31T15:09:02.477Z</time></trkpt><trkpt lat="45.9206667" lon="4.5552133"><ele>302.0</ele><time>2026-03-31T15:09:03.477Z</time></trkpt><trkpt lat="45.9206783" lon="4.5553833"><ele>301.33333333333337</ele><time>2026-03-31T15:09:05.477Z</time></trkpt><trkpt lat="45.9206833" lon="4.55553"><ele>300.6666666666667</ele><time>2026-03-31T15:09:07.477Z</time></trkpt><trkpt lat="45.92069" lon="4.55569"><ele>300.0</ele><time>2026-03-31T15:09:09.476Z</time></trkpt><trkpt lat="45.9206933" lon="4.5557967"><ele>299.3333333333333</ele><time>2026-03-31T15:09:10.477Z</time></trkpt><trkpt lat="45.9206983" lon="4.5559"><ele>298.66666666666663</ele><time>2026-03-31T15:09:11.477Z</time></trkpt><trkpt lat="45.9207017" lon="4.5559933"><ele>298.0</ele><time>2026-03-31T15:09:12.477Z</time></trkpt><trkpt lat="45.92071" lon="4.5561017"><ele>297.2857142857143</ele><time>2026-03-31T15:09:13.477Z</time></trkpt><trkpt lat="45.9207083" lon="4.5562167"><ele>296.57142857142856</ele><time>2026-03-31T15:09:14.477Z</time></trkpt><trkpt lat="45.92071" lon="4.556315"><ele>295.85714285714283</ele><time>2026-03-31T15:09:15.477Z</time></trkpt><trkpt lat="45.920715" lon="4.5564083"><ele>295.1428571428571</ele><time>2026-03-31T15:09:16.476Z</time></trkpt><trkpt lat="45.9207183" lon="4.5565083"><ele>294.42857142857144</ele><time>2026-03-31T15:09:17.477Z</time></trkpt><trkpt lat="45.9207217" lon="4.5566317"><ele>293.71428571428567</ele><time>2026-03-31T15:09:18.477Z</time></trkpt><trkpt lat="45.92072" lon="4.5567467"><ele>293.0</ele><time>2026-03-31T15:09:19.477Z</time></trkpt><trkpt lat="45.92072" lon="4.5568433"><ele>293.0</ele><time>2026-03-31T15:09:20.477Z</time></trkpt><trkpt lat="45.9207133" lon="4.55695"><ele>293.0</ele><time>2026-03-31T15:09:21.477Z</time></trkpt><trkpt lat="45.9207" lon="4.5570667"><ele>293.0</ele><time>2026-03-31T15:09:22.477Z</time></trkpt><trkpt lat="45.9206983" lon="4.5571617"><ele>293.0</ele><time>2026-03-31T15:09:23.477Z</time></trkpt><trkpt lat="45.920705" lon="4.5573133"><ele>293.0</ele><time>2026-03-31T15:09:25.477Z</time></trkpt><trkpt lat="45.920715" lon="4.5574917"><ele>292.0</ele><time>2026-03-31T15:09:27.477Z</time></trkpt><trkpt lat="45.9207217" lon="4.55759"><ele>291.0</ele><time>2026-03-31T15:09:28.477Z</time></trkpt><trkpt lat="45.9207267" lon="4.5577483"><ele>290.0</ele><time>2026-03-31T15:09:30.477Z</time></trkpt><trkpt lat="45.92073" lon="4.55792"><ele>289.0</ele><time>2026-03-31T15:09:32.477Z</time></trkpt><trkpt lat="45.920725" lon="4.5580167"><ele>288.0</ele><time>2026-03-31T15:09:33.477Z</time></trkpt><trkpt lat="45.92072" lon="4.558165"><ele>287.6</ele><time>2026-03-31T15:09:35.477Z</time></trkpt><trkpt lat="45.92071" lon="4.558295"><ele>287.20000000000005</ele><time>2026-03-31T15:09:37.477Z</time></trkpt><trkpt lat="45.9207033" lon="4.5584217"><ele>286.8</ele><time>2026-03-31T15:09:39.476Z</time></trkpt><trkpt lat="45.9207133" lon="4.558555"><ele>286.40000000000003</ele><time>2026-03-31T15:09:41.477Z</time></trkpt><trkpt lat="45.9207483" lon="4.55871"><ele>286.0</ele><time>2026-03-31T15:09:43.477Z</time></trkpt><trkpt lat="45.9207933" lon="4.5588183"><ele>285.0</ele><time>2026-03-31T15:09:45.477Z</time></trkpt><trkpt lat="45.9208417" lon="4.5589433"><ele>284.0</ele><time>2026-03-31T15:09:47.476Z</time></trkpt><trkpt lat="45.9208717" lon="4.5590317"><ele>283.0</ele><time>2026-03-31T15:09:48.477Z</time></trkpt><trkpt lat="45.9209" lon="4.5591133"><ele>282.0</ele><time>2026-03-31T15:09:49.476Z</time></trkpt><trkpt lat="45.9209333" lon="4.5592417"><ele>281.0</ele><time>2026-03-31T15:09:51.477Z</time></trkpt><trkpt lat="45.920965" lon="4.5593583"><ele>280.0</ele><time>2026-03-31T15:09:53.477Z</time></trkpt><trkpt lat="45.9210083" lon="4.5594933"><ele>278.6</ele><time>2026-03-31T15:09:55.477Z</time></trkpt><trkpt lat="45.9210517" lon="4.5596"><ele>277.2</ele><time>2026-03-31T15:09:57.476Z</time></trkpt><trkpt lat="45.921075" lon="4.5597217"><ele>275.8</ele><time>2026-03-31T15:09:59.477Z</time></trkpt><trkpt lat="45.92109" lon="4.5598383"><ele>274.4</ele><time>2026-03-31T15:10:01.477Z</time></trkpt><trkpt lat="45.9211083" lon="4.5599933"><ele>273.0</ele><time>2026-03-31T15:10:03.477Z</time></trkpt><trkpt lat="45.9211183" lon="4.560125"><ele>273.0</ele><time>2026-03-31T15:10:05.477Z</time></trkpt><trkpt lat="45.9211267" lon="4.5602333"><ele>273.0</ele><time>2026-03-31T15:10:07.477Z</time></trkpt><trkpt lat="45.9211517" lon="4.5603667"><ele>273.0</ele><time>2026-03-31T15:10:09.477Z</time></trkpt><trkpt lat="45.9211967" lon="4.5604633"><ele>273.0</ele><time>2026-03-31T15:10:11.477Z</time></trkpt><trkpt lat="45.92128" lon="4.5605317"><ele>273.0</ele><time>2026-03-31T15:10:14.477Z</time></trkpt><trkpt lat="45.9213517" lon="4.56055"><ele>273.0</ele><time>2026-03-31T15:10:16.477Z</time></trkpt><trkpt lat="45.9214233" lon="4.5605433"><ele>271.57142857142856</ele><time>2026-03-31T15:10:18.477Z</time></trkpt><trkpt lat="45.9214883" lon="4.5605333"><ele>270.1428571428571</ele><time>2026-03-31T15:10:20.477Z</time></trkpt><trkpt lat="45.9215533" lon="4.5605017"><ele>268.7142857142857</ele><time>2026-03-31T15:10:23.477Z</time></trkpt><trkpt lat="45.9216233" lon="4.5605383"><ele>267.2857142857143</ele><time>2026-03-31T15:10:27.477Z</time></trkpt><trkpt lat="45.9215883" lon="4.5606217"><ele>265.85714285714283</ele><time>2026-03-31T15:10:29.477Z</time></trkpt><trkpt lat="45.9215317" lon="4.5606917"><ele>264.42857142857144</ele><time>2026-03-31T15:10:30.477Z</time></trkpt><trkpt lat="45.9214567" lon="4.560775"><ele>263.0</ele><time>2026-03-31T15:10:31.477Z</time></trkpt><trkpt lat="45.9213617" lon="4.560865"><ele>263.0</ele><time>2026-03-31T15:10:32.477Z</time></trkpt><trkpt lat="45.9212767" lon="4.5609367"><ele>263.0</ele><time>2026-03-31T15:10:33.476Z</time></trkpt><trkpt lat="45.9212133" lon="4.561005"><ele>263.0</ele><time>2026-03-31T15:10:34.477Z</time></trkpt><trkpt lat="45.9211483" lon="4.5610567"><ele>263.0</ele><time>2026-03-31T15:10:35.477Z</time></trkpt><trkpt lat="45.921025" lon="4.5611183"><ele>263.0</ele><time>2026-03-31T15:10:37.477Z</time></trkpt><trkpt lat="45.920935" lon="4.5611683"><ele>263.1666666666667</ele><time>2026-03-31T15:10:39.477Z</time></trkpt><trkpt lat="45.9208683" lon="4.561195"><ele>263.33333333333337</ele><time>2026-03-31T15:10:41.477Z</time></trkpt><trkpt lat="45.9208067" lon="4.561265"><ele>263.5</ele><time>2026-03-31T15:10:43.477Z</time></trkpt><trkpt lat="45.9207233" lon="4.5614217"><ele>263.6666666666667</ele><time>2026-03-31T15:10:45.477Z</time></trkpt><trkpt lat="45.9206817" lon="4.5615267"><ele>263.8333333333333</ele><time>2026-03-31T15:10:46.477Z</time></trkpt><trkpt lat="45.9206383" lon="4.5616217"><ele>264.0</ele><time>2026-03-31T15:10:47.477Z</time></trkpt><trkpt lat="45.9206133" lon="4.5617083"><ele>262.8</ele><time>2026-03-31T15:10:48.477Z</time></trkpt><trkpt lat="45.9205483" lon="4.5618183"><ele>261.59999999999997</ele><time>2026-03-31T15:10:50.477Z</time></trkpt><trkpt lat="45.9204067" lon="4.5618333"><ele>260.4</ele><time>2026-03-31T15:10:52.477Z</time></trkpt><trkpt lat="45.920325" lon="4.561825"><ele>259.2</ele><time>2026-03-31T15:10:53.476Z</time></trkpt><trkpt lat="45.9202167" lon="4.5618267"><ele>258.0</ele><time>2026-03-31T15:10:54.477Z</time></trkpt><trkpt lat="45.9200883" lon="4.5618117"><ele>259.25</ele><time>2026-03-31T15:10:55.477Z</time></trkpt><trkpt lat="45.9199483" lon="4.5617983"><ele>260.5</ele><time>2026-03-31T15:10:56.477Z</time></trkpt><trkpt lat="45.9198117" lon="4.56178"><ele>261.75</ele><time>2026-03-31T15:10:57.477Z</time></trkpt><trkpt lat="45.919695" lon="4.5617783"><ele>263.0</ele><time>2026-03-31T15:10:58.477Z</time></trkpt><trkpt lat="45.9196" lon="4.5617733"><ele>263.0</ele><time>2026-03-31T15:10:59.476Z</time></trkpt><trkpt lat="45.9194983" lon="4.5617633"><ele>263.0</ele><time>2026-03-31T15:11:00.476Z</time></trkpt><trkpt lat="45.91938" lon="4.5617617"><ele>263.0</ele><time>2026-03-31T15:11:01.477Z</time></trkpt><trkpt lat="45.9192817" lon="4.5617683"><ele>263.0</ele><time>2026-03-31T15:11:02.477Z</time></trkpt><trkpt lat="45.9191983" lon="4.5617833"><ele>263.0</ele><time>2026-03-31T15:11:03.477Z</time></trkpt><trkpt lat="45.9191367" lon="4.561805"><ele>264.1666666666667</ele><time>2026-03-31T15:11:04.477Z</time></trkpt><trkpt lat="45.91903" lon="4.5618417"><ele>265.33333333333337</ele><time>2026-03-31T15:11:06.477Z</time></trkpt><trkpt lat="45.9189617" lon="4.5618333"><ele>266.5</ele><time>2026-03-31T15:11:07.477Z</time></trkpt><trkpt lat="45.9188883" lon="4.561805"><ele>267.6666666666667</ele><time>2026-03-31T15:11:08.477Z</time></trkpt><trkpt lat="45.91881" lon="4.561755"><ele>268.8333333333333</ele><time>2026-03-31T15:11:09.477Z</time></trkpt><trkpt lat="45.918735" lon="4.5616833"><ele>270.0</ele><time>2026-03-31T15:11:10.477Z</time></trkpt><trkpt lat="45.91866" lon="4.5616017"><ele>270.0</ele><time>2026-03-31T15:11:11.477Z</time></trkpt><trkpt lat="45.918575" lon="4.5615367"><ele>270.0</ele><time>2026-03-31T15:11:12.477Z</time></trkpt><trkpt lat="45.91849" lon="4.5614817"><ele>270.0</ele><time>2026-03-31T15:11:13.477Z</time></trkpt><trkpt lat="45.9184217" lon="4.5614367"><ele>270.0</ele><time>2026-03-31T15:11:14.477Z</time></trkpt><trkpt lat="45.9183567" lon="4.56141"><ele>270.0</ele><time>2026-03-31T15:11:15.476Z</time></trkpt><trkpt lat="45.9182867" lon="4.561385"><ele>270.0</ele><time>2026-03-31T15:11:16.477Z</time></trkpt><trkpt lat="45.9182133" lon="4.56138"><ele>271.5</ele><time>2026-03-31T15:11:17.477Z</time></trkpt><trkpt lat="45.9181483" lon="4.561385"><ele>273.0</ele><time>2026-03-31T15:11:18.477Z</time></trkpt><trkpt lat="45.9180583" lon="4.5613967"><ele>274.5</ele><time>2026-03-31T15:11:20.477Z</time></trkpt><trkpt lat="45.9179717" lon="4.5613967"><ele>276.0</ele><time>2026-03-31T15:11:23.477Z</time></trkpt><trkpt lat="45.9178983" lon="4.5614033"><ele>277.5</ele><time>2026-03-31T15:11:25.477Z</time></trkpt><trkpt lat="45.9177867" lon="4.5613917"><ele>279.0</ele><time>2026-03-31T15:11:27.477Z</time></trkpt><trkpt lat="45.9176917" lon="4.5613633"><ele>279.0</ele><time>2026-03-31T15:11:29.477Z</time></trkpt><trkpt lat="45.9175867" lon="4.56133"><ele>279.0</ele><time>2026-03-31T15:11:31.477Z</time></trkpt><trkpt lat="45.9174967" lon="4.5613117"><ele>279.0</ele><time>2026-03-31T15:11:33.477Z</time></trkpt><trkpt lat="45.917435" lon="4.5612633"><ele>279.0</ele><time>2026-03-31T15:11:35.477Z</time></trkpt><trkpt lat="45.91741" lon="4.5611283"><ele>279.0</ele><time>2026-03-31T15:11:37.477Z</time></trkpt><trkpt lat="45.9174267" lon="4.5610267"><ele>279.0</ele><time>2026-03-31T15:11:38.477Z</time></trkpt><trkpt lat="45.91746" lon="4.5609067"><ele>280.59999999999997</ele><time>2026-03-31T15:11:39.477Z</time></trkpt><trkpt lat="45.9175133" lon="4.5607667"><ele>282.2</ele><time>2026-03-31T15:11:40.476Z</time></trkpt><trkpt lat="45.9175667" lon="4.5606167"><ele>283.79999999999995</ele><time>2026-03-31T15:11:41.476Z</time></trkpt><trkpt lat="45.9176183" lon="4.5604933"><ele>285.4</ele><time>2026-03-31T15:11:42.477Z</time></trkpt><trkpt lat="45.9176583" lon="4.560385"><ele>287.0</ele><time>2026-03-31T15:11:43.477Z</time></trkpt><trkpt lat="45.9176933" lon="4.5603"><ele>287.6666666666667</ele><time>2026-03-31T15:11:44.477Z</time></trkpt><trkpt lat="45.9177183" lon="4.560215"><ele>288.33333333333337</ele><time>2026-03-31T15:11:45.477Z</time></trkpt><trkpt lat="45.91775" lon="4.560115"><ele>289.0</ele><time>2026-03-31T15:11:46.477Z</time></trkpt><trkpt lat="45.9177883" lon="4.56"><ele>289.6666666666667</ele><time>2026-03-31T15:11:47.477Z</time></trkpt><trkpt lat="45.9178267" lon="4.5598883"><ele>290.3333333333333</ele><time>2026-03-31T15:11:48.477Z</time></trkpt><trkpt lat="45.9178583" lon="4.5597883"><ele>291.0</ele><time>2026-03-31T15:11:49.477Z</time></trkpt><trkpt lat="45.9178917" lon="4.559705"><ele>291.0</ele><time>2026-03-31T15:11:50.477Z</time></trkpt><trkpt lat="45.9179233" lon="4.5596217"><ele>291.0</ele><time>2026-03-31T15:11:51.477Z</time></trkpt><trkpt lat="45.9179533" lon="4.5595167"><ele>291.0</ele><time>2026-03-31T15:11:52.477Z</time></trkpt><trkpt lat="45.91798" lon="4.55939"><ele>291.0</ele><time>2026-03-31T15:11:53.476Z</time></trkpt><trkpt lat="45.91801" lon="4.5592467"><ele>291.0</ele><time>2026-03-31T15:11:54.477Z</time></trkpt><trkpt lat="45.9180367" lon="4.5591017"><ele>291.0</ele><time>2026-03-31T15:11:55.477Z</time></trkpt><trkpt lat="45.9180517" lon="4.5589733"><ele>291.40000000000003</ele><time>2026-03-31T15:11:56.476Z</time></trkpt><trkpt lat="45.9180767" lon="4.5588483"><ele>291.8</ele><time>2026-03-31T15:11:57.477Z</time></trkpt><trkpt lat="45.9180967" lon="4.5587233"><ele>292.20000000000005</ele><time>2026-03-31T15:11:58.477Z</time></trkpt><trkpt lat="45.9181217" lon="4.5586067"><ele>292.6</ele><time>2026-03-31T15:11:59.477Z</time></trkpt><trkpt lat="45.918135" lon="4.5585067"><ele>293.0</ele><time>2026-03-31T15:12:00.477Z</time></trkpt><trkpt lat="45.9181617" lon="4.55834"><ele>294.4</ele><time>2026-03-31T15:12:02.477Z</time></trkpt><trkpt lat="45.91817" lon="4.5581717"><ele>295.8</ele><time>2026-03-31T15:12:04.477Z</time></trkpt><trkpt lat="45.91814" lon="4.5580233"><ele>297.2</ele><time>2026-03-31T15:12:06.477Z</time></trkpt><trkpt lat="45.9180933" lon="4.5578667"><ele>298.6</ele><time>2026-03-31T15:12:08.477Z</time></trkpt><trkpt lat="45.9180733" lon="4.5577717"><ele>300.0</ele><time>2026-03-31T15:12:09.477Z</time></trkpt><trkpt lat="45.9180433" lon="4.5576717"><ele>300.8333333333333</ele><time>2026-03-31T15:12:10.477Z</time></trkpt><trkpt lat="45.9180083" lon="4.5575683"><ele>301.6666666666667</ele><time>2026-03-31T15:12:11.476Z</time></trkpt><trkpt lat="45.9179717" lon="4.5574617"><ele>302.5</ele><time>2026-03-31T15:12:12.477Z</time></trkpt><trkpt lat="45.917945" lon="4.5573483"><ele>303.33333333333337</ele><time>2026-03-31T15:12:13.477Z</time></trkpt><trkpt lat="45.9179233" lon="4.5572383"><ele>304.1666666666667</ele><time>2026-03-31T15:12:14.477Z</time></trkpt><trkpt lat="45.9179033" lon="4.5571167"><ele>305.0</ele><time>2026-03-31T15:12:15.477Z</time></trkpt><trkpt lat="45.91788" lon="4.5569917"><ele>305.83333333333337</ele><time>2026-03-31T15:12:16.477Z</time></trkpt><trkpt lat="45.917855" lon="4.556875"><ele>306.6666666666667</ele><time>2026-03-31T15:12:17.477Z</time></trkpt><trkpt lat="45.91783" lon="4.5567767"><ele>307.5</ele><time>2026-03-31T15:12:18.477Z</time></trkpt><trkpt lat="45.9178017" lon="4.5566917"><ele>308.3333333333333</ele><time>2026-03-31T15:12:19.477Z</time></trkpt><trkpt lat="45.9177617" lon="4.5565817"><ele>309.16666666666663</ele><time>2026-03-31T15:12:21.477Z</time></trkpt><trkpt lat="45.9177017" lon="4.5564533"><ele>310.0</ele><time>2026-03-31T15:12:23.477Z</time></trkpt><trkpt lat="45.9176583" lon="4.5563717"><ele>310.0</ele><time>2026-03-31T15:12:24.477Z</time></trkpt><trkpt lat="45.9176017" lon="4.556275"><ele>310.0</ele><time>2026-03-31T15:12:25.477Z</time></trkpt><trkpt lat="45.9175317" lon="4.556155"><ele>310.0</ele><time>2026-03-31T15:12:26.477Z</time></trkpt><trkpt lat="45.9174667" lon="4.5560317"><ele>310.0</ele><time>2026-03-31T15:12:27.477Z</time></trkpt><trkpt lat="45.9174117" lon="4.555925"><ele>310.0</ele><time>2026-03-31T15:12:28.477Z</time></trkpt><trkpt lat="45.9173683" lon="4.55584"><ele>312.3333333333333</ele><time>2026-03-31T15:12:29.476Z</time></trkpt><trkpt lat="45.9173267" lon="4.5557717"><ele>314.66666666666663</ele><time>2026-03-31T15:12:30.477Z</time></trkpt><trkpt lat="45.917245" lon="4.5556267"><ele>317.0</ele><time>2026-03-31T15:12:32.477Z</time></trkpt><trkpt lat="45.9171917" lon="4.5555317"><ele>319.3333333333333</ele><time>2026-03-31T15:12:33.477Z</time></trkpt><trkpt lat="45.9171383" lon="4.55544"><ele>321.6666666666667</ele><time>2026-03-31T15:12:34.477Z</time></trkpt><trkpt lat="45.9170933" lon="4.5553683"><ele>324.0</ele><time>2026-03-31T15:12:35.477Z</time></trkpt><trkpt lat="45.917035" lon="4.5552183"><ele>324.3333333333333</ele><time>2026-03-31T15:12:37.477Z</time></trkpt><trkpt lat="45.917025" lon="4.5551133"><ele>324.6666666666667</ele><time>2026-03-31T15:12:38.477Z</time></trkpt><trkpt lat="45.9170083" lon="4.5550017"><ele>325.0</ele><time>2026-03-31T15:12:39.478Z</time></trkpt><trkpt lat="45.916985" lon="4.5549117"><ele>325.33333333333337</ele><time>2026-03-31T15:12:40.477Z</time></trkpt><trkpt lat="45.91694" lon="4.5548083"><ele>325.6666666666667</ele><time>2026-03-31T15:12:42.478Z</time></trkpt><trkpt lat="45.9168483" lon="4.5546633"><ele>326.0</ele><time>2026-03-31T15:13:03.478Z</time></trkpt><trkpt lat="45.9167917" lon="4.5545783"><ele>329.20000000000005</ele><time>2026-03-31T15:13:04.477Z</time></trkpt><trkpt lat="45.916725" lon="4.55447"><ele>332.40000000000003</ele><time>2026-03-31T15:13:05.478Z</time></trkpt><trkpt lat="45.91665" lon="4.5543483"><ele>335.6</ele><time>2026-03-31T15:13:06.478Z</time></trkpt><trkpt lat="45.9165733" lon="4.5542133"><ele>338.8</ele><time>2026-03-31T15:13:07.478Z</time></trkpt><trkpt lat="45.9165033" lon="4.5540883"><ele>342.0</ele><time>2026-03-31T15:13:08.478Z</time></trkpt><trkpt lat="45.91645" lon="4.5539933"><ele>342.0</ele><time>2026-03-31T15:13:09.478Z</time></trkpt><trkpt lat="45.9164033" lon="4.55391"><ele>342.0</ele><time>2026-03-31T15:13:10.478Z</time></trkpt><trkpt lat="45.9163333" lon="4.5537817"><ele>342.0</ele><time>2026-03-31T15:13:12.478Z</time></trkpt><trkpt lat="45.9162933" lon="4.5536917"><ele>342.0</ele><time>2026-03-31T15:13:13.478Z</time></trkpt><trkpt lat="45.916245" lon="4.5535833"><ele>342.0</ele><time>2026-03-31T15:13:14.478Z</time></trkpt><trkpt lat="45.9162117" lon="4.5534767"><ele>342.0</ele><time>2026-03-31T15:13:15.478Z</time></trkpt><trkpt lat="45.9161717" lon="4.5533517"><ele>341.8333333333333</ele><time>2026-03-31T15:13:16.478Z</time></trkpt><trkpt lat="45.9161333" lon="4.553215"><ele>341.6666666666667</ele><time>2026-03-31T15:13:17.478Z</time></trkpt><trkpt lat="45.9161" lon="4.5530867"><ele>341.5</ele><time>2026-03-31T15:13:18.478Z</time></trkpt><trkpt lat="45.9160767" lon="4.5529767"><ele>341.33333333333337</ele><time>2026-03-31T15:13:19.477Z</time></trkpt><trkpt lat="45.9160583" lon="4.552875"><ele>341.1666666666667</ele><time>2026-03-31T15:13:20.478Z</time></trkpt><trkpt lat="45.91604" lon="4.5527583"><ele>341.0</ele><time>2026-03-31T15:13:21.478Z</time></trkpt><trkpt lat="45.9160183" lon="4.5526267"><ele>341.83333333333337</ele><time>2026-03-31T15:13:22.478Z</time></trkpt><trkpt lat="45.9159967" lon="4.55249"><ele>342.6666666666667</ele><time>2026-03-31T15:13:23.478Z</time></trkpt><trkpt lat="45.9159833" lon="4.55237"><ele>343.5</ele><time>2026-03-31T15:13:24.478Z</time></trkpt><trkpt lat="45.9159683" lon="4.55226"><ele>344.3333333333333</ele><time>2026-03-31T15:13:25.478Z</time></trkpt><trkpt lat="45.91596" lon="4.5521667"><ele>345.16666666666663</ele><time>2026-03-31T15:13:26.478Z</time></trkpt><trkpt lat="45.91595" lon="4.5520767"><ele>346.0</ele><time>2026-03-31T15:13:27.478Z</time></trkpt><trkpt lat="45.91593" lon="4.55193"><ele>346.8333333333333</ele><time>2026-03-31T15:13:29.478Z</time></trkpt><trkpt lat="45.91592" lon="4.5518183"><ele>347.66666666666663</ele><time>2026-03-31T15:13:31.478Z</time></trkpt><trkpt lat="45.9159183" lon="4.5517167"><ele>348.5</ele><time>2026-03-31T15:13:33.478Z</time></trkpt><trkpt lat="45.915865" lon="4.5516383"><ele>349.3333333333333</ele><time>2026-03-31T15:13:37.478Z</time></trkpt><trkpt lat="45.9158017" lon="4.5517467"><ele>350.1666666666667</ele><time>2026-03-31T15:13:40.478Z</time></trkpt><trkpt lat="45.915755" lon="4.5518933"><ele>351.0</ele><time>2026-03-31T15:13:42.478Z</time></trkpt><trkpt lat="45.9157283" lon="4.5519967"><ele>352.6</ele><time>2026-03-31T15:13:43.478Z</time></trkpt><trkpt lat="45.9157083" lon="4.5521033"><ele>354.20000000000005</ele><time>2026-03-31T15:13:44.478Z</time></trkpt><trkpt lat="45.915675" lon="4.5522683"><ele>355.79999999999995</ele><time>2026-03-31T15:13:46.478Z</time></trkpt><trkpt lat="45.915625" lon="4.5524067"><ele>357.4</ele><time>2026-03-31T15:13:48.478Z</time></trkpt><trkpt lat="45.9155483" lon="4.5525433"><ele>359.0</ele><time>2026-03-31T15:13:50.478Z</time></trkpt><trkpt lat="45.9155117" lon="4.5526317"><ele>359.0</ele><time>2026-03-31T15:13:51.478Z</time></trkpt><trkpt lat="45.9154867" lon="4.552715"><ele>359.0</ele><time>2026-03-31T15:13:52.478Z</time></trkpt><trkpt lat="45.9154167" lon="4.5528467"><ele>359.0</ele><time>2026-03-31T15:13:54.477Z</time></trkpt><trkpt lat="45.9153633" lon="4.5529067"><ele>359.0</ele><time>2026-03-31T15:13:55.478Z</time></trkpt><trkpt lat="45.9153183" lon="4.55297"><ele>359.0</ele><time>2026-03-31T15:13:56.478Z</time></trkpt><trkpt lat="45.9152533" lon="4.5531217"><ele>359.0</ele><time>2026-03-31T15:13:58.478Z</time></trkpt><trkpt lat="45.9152117" lon="4.5531967"><ele>358.0</ele><time>2026-03-31T15:13:59.478Z</time></trkpt><trkpt lat="45.9151683" lon="4.5532667"><ele>357.0</ele><time>2026-03-31T15:14:00.478Z</time></trkpt><trkpt lat="45.915135" lon="4.55336"><ele>356.0</ele><time>2026-03-31T15:14:02.478Z</time></trkpt><trkpt lat="45.915135" lon="4.5534583"><ele>355.0</ele><time>2026-03-31T15:14:04.478Z</time></trkpt><trkpt lat="45.9151767" lon="4.553605"><ele>354.0</ele><time>2026-03-31T15:14:07.478Z</time></trkpt><trkpt lat="45.9152567" lon="4.5537367"><ele>353.0</ele><time>2026-03-31T15:14:09.478Z</time></trkpt><trkpt lat="45.9153333" lon="4.5538417"><ele>352.4</ele><time>2026-03-31T15:14:11.478Z</time></trkpt><trkpt lat="45.9154083" lon="4.553905"><ele>351.79999999999995</ele><time>2026-03-31T15:14:13.478Z</time></trkpt><trkpt lat="45.9154833" lon="4.5540117"><ele>351.2</ele><time>2026-03-31T15:14:16.478Z</time></trkpt><trkpt lat="45.9155383" lon="4.5541533"><ele>350.6</ele><time>2026-03-31T15:14:18.478Z</time></trkpt><trkpt lat="45.9156217" lon="4.5542767"><ele>350.0</ele><time>2026-03-31T15:14:20.478Z</time></trkpt><trkpt lat="45.9156633" lon="4.5543933"><ele>350.0</ele><time>2026-03-31T15:14:22.478Z</time></trkpt><trkpt lat="45.9157167" lon="4.5544933"><ele>350.0</ele><time>2026-03-31T15:14:24.478Z</time></trkpt><trkpt lat="45.915815" lon="4.5546"><ele>350.0</ele><time>2026-03-31T15:14:26.478Z</time></trkpt><trkpt lat="45.9158783" lon="4.554655"><ele>350.0</ele><time>2026-03-31T15:14:27.478Z</time></trkpt><trkpt lat="45.915945" lon="4.5547117"><ele>350.0</ele><time>2026-03-31T15:14:28.478Z</time></trkpt><trkpt lat="45.91601" lon="4.554765"><ele>350.0</ele><time>2026-03-31T15:14:29.478Z</time></trkpt><trkpt lat="45.9160833" lon="4.5548533"><ele>348.5</ele><time>2026-03-31T15:14:31.478Z</time></trkpt><trkpt lat="45.9161567" lon="4.554935"><ele>347.0</ele><time>2026-03-31T15:14:33.478Z</time></trkpt><trkpt lat="45.9162133" lon="4.555065"><ele>345.5</ele><time>2026-03-31T15:14:35.478Z</time></trkpt><trkpt lat="45.9162383" lon="4.5551583"><ele>344.0</ele><time>2026-03-31T15:14:36.478Z</time></trkpt><trkpt lat="45.9162667" lon="4.555275"><ele>342.5</ele><time>2026-03-31T15:14:37.478Z</time></trkpt><trkpt lat="45.9162867" lon="4.5553683"><ele>341.0</ele><time>2026-03-31T15:14:38.478Z</time></trkpt><trkpt lat="45.9162983" lon="4.5555283"><ele>340.83333333333337</ele><time>2026-03-31T15:14:40.478Z</time></trkpt><trkpt lat="45.9162733" lon="4.5556867"><ele>340.6666666666667</ele><time>2026-03-31T15:14:42.478Z</time></trkpt><trkpt lat="45.9162133" lon="4.5558217"><ele>340.5</ele><time>2026-03-31T15:14:44.478Z</time></trkpt><trkpt lat="45.91616" lon="4.5558783"><ele>340.3333333333333</ele><time>2026-03-31T15:14:45.477Z</time></trkpt><trkpt lat="45.9161017" lon="4.5559317"><ele>340.16666666666663</ele><time>2026-03-31T15:14:46.478Z</time></trkpt><trkpt lat="45.9160467" lon="4.5559783"><ele>340.0</ele><time>2026-03-31T15:14:47.477Z</time></trkpt><trkpt lat="45.9159283" lon="4.55603"><ele>340.2</ele><time>2026-03-31T15:14:49.478Z</time></trkpt><trkpt lat="45.9158483" lon="4.5560617"><ele>340.4</ele><time>2026-03-31T15:14:50.478Z</time></trkpt><trkpt lat="45.9157667" lon="4.5561067"><ele>340.6</ele><time>2026-03-31T15:14:51.478Z</time></trkpt><trkpt lat="45.9156867" lon="4.55615"><ele>340.8</ele><time>2026-03-31T15:14:52.478Z</time></trkpt><trkpt lat="45.91562" lon="4.5561783"><ele>341.0</ele><time>2026-03-31T15:14:53.478Z</time></trkpt><trkpt lat="45.9154983" lon="4.5562133"><ele>340.33333333333337</ele><time>2026-03-31T15:14:55.478Z</time></trkpt><trkpt lat="45.9154283" lon="4.5562217"><ele>339.6666666666667</ele><time>2026-03-31T15:14:56.478Z</time></trkpt><trkpt lat="45.915355" lon="4.556235"><ele>339.0</ele><time>2026-03-31T15:14:57.478Z</time></trkpt><trkpt lat="45.91527" lon="4.5562533"><ele>338.3333333333333</ele><time>2026-03-31T15:14:58.478Z</time></trkpt><trkpt lat="45.9151717" lon="4.5562733"><ele>337.66666666666663</ele><time>2026-03-31T15:14:59.478Z</time></trkpt><trkpt lat="45.9150767" lon="4.556295"><ele>337.0</ele><time>2026-03-31T15:15:00.478Z</time></trkpt><trkpt lat="45.9149817" lon="4.55631"><ele>336.5</ele><time>2026-03-31T15:15:01.478Z</time></trkpt><trkpt lat="45.91489" lon="4.5563267"><ele>336.0</ele><time>2026-03-31T15:15:02.478Z</time></trkpt><trkpt lat="45.9147967" lon="4.55634"><ele>335.5</ele><time>2026-03-31T15:15:03.478Z</time></trkpt><trkpt lat="45.9147017" lon="4.5563467"><ele>335.0</ele><time>2026-03-31T15:15:04.478Z</time></trkpt><trkpt lat="45.914615" lon="4.556355"><ele>334.5</ele><time>2026-03-31T15:15:05.477Z</time></trkpt><trkpt lat="45.9145383" lon="4.5563717"><ele>334.0</ele><time>2026-03-31T15:15:06.477Z</time></trkpt><trkpt lat="45.9144633" lon="4.5563817"><ele>334.0</ele><time>2026-03-31T15:15:07.478Z</time></trkpt><trkpt lat="45.9143867" lon="4.5563983"><ele>334.0</ele><time>2026-03-31T15:15:08.478Z</time></trkpt><trkpt lat="45.9143067" lon="4.5564233"><ele>334.0</ele><time>2026-03-31T15:15:09.478Z</time></trkpt><trkpt lat="45.9142183" lon="4.556455"><ele>334.0</ele><time>2026-03-31T15:15:10.478Z</time></trkpt><trkpt lat="45.9141317" lon="4.55648"><ele>334.0</ele><time>2026-03-31T15:15:11.478Z</time></trkpt><trkpt lat="45.9140583" lon="4.5565167"><ele>334.0</ele><time>2026-03-31T15:15:12.477Z</time></trkpt><trkpt lat="45.91399" lon="4.5565683"><ele>334.8333333333333</ele><time>2026-03-31T15:15:13.478Z</time></trkpt><trkpt lat="45.9139267" lon="4.5566283"><ele>335.66666666666663</ele><time>2026-03-31T15:15:14.478Z</time></trkpt><trkpt lat="45.91386" lon="4.55669"><ele>336.5</ele><time>2026-03-31T15:15:15.478Z</time></trkpt><trkpt lat="45.9137883" lon="4.5567417"><ele>337.3333333333333</ele><time>2026-03-31T15:15:16.478Z</time></trkpt><trkpt lat="45.9137167" lon="4.5568183"><ele>338.1666666666667</ele><time>2026-03-31T15:15:17.478Z</time></trkpt><trkpt lat="45.913655" lon="4.55688"><ele>339.0</ele><time>2026-03-31T15:15:18.478Z</time></trkpt><trkpt lat="45.9135933" lon="4.5569483"><ele>339.0</ele><time>2026-03-31T15:15:19.478Z</time></trkpt><trkpt lat="45.9135367" lon="4.5570133"><ele>339.0</ele><time>2026-03-31T15:15:20.478Z</time></trkpt><trkpt lat="45.913465" lon="4.5570983"><ele>339.0</ele><time>2026-03-31T15:15:21.478Z</time></trkpt><trkpt lat="45.9133983" lon="4.5571667"><ele>339.0</ele><time>2026-03-31T15:15:22.477Z</time></trkpt><trkpt lat="45.9133417" lon="4.5572333"><ele>339.0</ele><time>2026-03-31T15:15:23.478Z</time></trkpt><trkpt lat="45.91329" lon="4.5573017"><ele>339.0</ele><time>2026-03-31T15:15:24.478Z</time></trkpt><trkpt lat="45.9132067" lon="4.5574467"><ele>338.1666666666667</ele><time>2026-03-31T15:15:26.478Z</time></trkpt><trkpt lat="45.9131683" lon="4.5575333"><ele>337.3333333333333</ele><time>2026-03-31T15:15:27.478Z</time></trkpt><trkpt lat="45.9131233" lon="4.5576633"><ele>336.5</ele><time>2026-03-31T15:15:29.478Z</time></trkpt><trkpt lat="45.9131117" lon="4.55776"><ele>335.66666666666663</ele><time>2026-03-31T15:15:30.478Z</time></trkpt><trkpt lat="45.9131083" lon="4.5578667"><ele>334.8333333333333</ele><time>2026-03-31T15:15:31.478Z</time></trkpt><trkpt lat="45.9131133" lon="4.5579917"><ele>334.0</ele><time>2026-03-31T15:15:32.478Z</time></trkpt><trkpt lat="45.913125" lon="4.5581233"><ele>333.1428571428571</ele><time>2026-03-31T15:15:33.478Z</time></trkpt><trkpt lat="45.91314" lon="4.5582433"><ele>332.2857142857143</ele><time>2026-03-31T15:15:34.478Z</time></trkpt><trkpt lat="45.9131483" lon="4.5583517"><ele>331.42857142857144</ele><time>2026-03-31T15:15:35.478Z</time></trkpt><trkpt lat="45.9131517" lon="4.5584433"><ele>330.57142857142856</ele><time>2026-03-31T15:15:36.478Z</time></trkpt><trkpt lat="45.91315" lon="4.5585367"><ele>329.7142857142857</ele><time>2026-03-31T15:15:37.478Z</time></trkpt><trkpt lat="45.91315" lon="4.55864"><ele>328.85714285714283</ele><time>2026-03-31T15:15:38.478Z</time></trkpt><trkpt lat="45.913155" lon="4.55875"><ele>328.0</ele><time>2026-03-31T15:15:39.478Z</time></trkpt><trkpt lat="45.9131617" lon="4.55884"><ele>327.2</ele><time>2026-03-31T15:15:40.478Z</time></trkpt><trkpt lat="45.9131983" lon="4.558975"><ele>326.4</ele><time>2026-03-31T15:15:51.478Z</time></trkpt><trkpt lat="45.9132083" lon="4.55908"><ele>325.59999999999997</ele><time>2026-03-31T15:15:53.478Z</time></trkpt><trkpt lat="45.9131933" lon="4.5592583"><ele>324.79999999999995</ele><time>2026-03-31T15:15:58.478Z</time></trkpt><trkpt lat="45.9131433" lon="4.5593267"><ele>324.0</ele><time>2026-03-31T15:16:00.478Z</time></trkpt><trkpt lat="45.9130217" lon="4.5593617"><ele>324.0</ele><time>2026-03-31T15:16:02.478Z</time></trkpt><trkpt lat="45.9129433" lon="4.5593783"><ele>324.0</ele><time>2026-03-31T15:16:03.478Z</time></trkpt><trkpt lat="45.912875" lon="4.55939"><ele>324.0</ele><time>2026-03-31T15:16:04.477Z</time></trkpt><trkpt lat="45.91281" lon="4.5593983"><ele>324.0</ele><time>2026-03-31T15:16:05.477Z</time></trkpt><trkpt lat="45.9126967" lon="4.5594067"><ele>324.0</ele><time>2026-03-31T15:16:07.478Z</time></trkpt><trkpt lat="45.9125917" lon="4.5594533"><ele>324.0</ele><time>2026-03-31T15:16:09.478Z</time></trkpt><trkpt lat="45.91253" lon="4.559505"><ele>323.6</ele><time>2026-03-31T15:16:10.478Z</time></trkpt><trkpt lat="45.9124533" lon="4.5595983"><ele>323.2</ele><time>2026-03-31T15:16:11.478Z</time></trkpt><trkpt lat="45.9123683" lon="4.5597017"><ele>322.8</ele><time>2026-03-31T15:16:12.478Z</time></trkpt><trkpt lat="45.912285" lon="4.5597767"><ele>322.40000000000003</ele><time>2026-03-31T15:16:13.478Z</time></trkpt><trkpt lat="45.9122133" lon="4.55983"><ele>322.0</ele><time>2026-03-31T15:16:14.478Z</time></trkpt><trkpt lat="45.912135" lon="4.5598867"><ele>322.0</ele><time>2026-03-31T15:16:15.478Z</time></trkpt><trkpt lat="45.9120567" lon="4.5599283"><ele>322.0</ele><time>2026-03-31T15:16:16.478Z</time></trkpt><trkpt lat="45.91198" lon="4.559965"><ele>322.0</ele><time>2026-03-31T15:16:17.478Z</time></trkpt><trkpt lat="45.9118967" lon="4.5599983"><ele>322.0</ele><time>2026-03-31T15:16:18.478Z</time></trkpt><trkpt lat="45.9118067" lon="4.5600267"><ele>322.0</ele><time>2026-03-31T15:16:19.478Z</time></trkpt><trkpt lat="45.911725" lon="4.5600533"><ele>322.0</ele><time>2026-03-31T15:16:20.478Z</time></trkpt><trkpt lat="45.911645" lon="4.56007"><ele>321.8333333333333</ele><time>2026-03-31T15:16:21.478Z</time></trkpt><trkpt lat="45.9115567" lon="4.560075"><ele>321.66666666666663</ele><time>2026-03-31T15:16:22.477Z</time></trkpt><trkpt lat="45.911465" lon="4.56008"><ele>321.5</ele><time>2026-03-31T15:16:23.478Z</time></trkpt><trkpt lat="45.911375" lon="4.5600833"><ele>321.3333333333333</ele><time>2026-03-31T15:16:24.478Z</time></trkpt><trkpt lat="45.9112933" lon="4.5600867"><ele>321.1666666666667</ele><time>2026-03-31T15:16:25.478Z</time></trkpt><trkpt lat="45.9112083" lon="4.5600883"><ele>321.0</ele><time>2026-03-31T15:16:26.478Z</time></trkpt><trkpt lat="45.9111217" lon="4.560085"><ele>321.0</ele><time>2026-03-31T15:16:27.478Z</time></trkpt><trkpt lat="45.911035" lon="4.5600817"><ele>321.0</ele><time>2026-03-31T15:16:28.478Z</time></trkpt><trkpt lat="45.9109533" lon="4.56008"><ele>321.0</ele><time>2026-03-31T15:16:29.478Z</time></trkpt><trkpt lat="45.9108883" lon="4.560075"><ele>321.0</ele><time>2026-03-31T15:16:30.478Z</time></trkpt><trkpt lat="45.9107783" lon="4.56007"><ele>321.0</ele><time>2026-03-31T15:16:32.478Z</time></trkpt><trkpt lat="45.9106533" lon="4.560095"><ele>319.3333333333333</ele><time>2026-03-31T15:16:34.478Z</time></trkpt><trkpt lat="45.9105783" lon="4.5601067"><ele>317.6666666666667</ele><time>2026-03-31T15:16:35.478Z</time></trkpt><trkpt lat="45.9104833" lon="4.56012"><ele>316.0</ele><time>2026-03-31T15:16:36.478Z</time></trkpt><trkpt lat="45.9103833" lon="4.5601333"><ele>314.33333333333337</ele><time>2026-03-31T15:16:37.478Z</time></trkpt><trkpt lat="45.91029" lon="4.5601467"><ele>312.6666666666667</ele><time>2026-03-31T15:16:38.478Z</time></trkpt><trkpt lat="45.910215" lon="4.56016"><ele>311.0</ele><time>2026-03-31T15:16:39.478Z</time></trkpt><trkpt lat="45.910145" lon="4.5601817"><ele>311.0</ele><time>2026-03-31T15:16:40.478Z</time></trkpt><trkpt lat="45.9100817" lon="4.5602017"><ele>311.0</ele><time>2026-03-31T15:16:41.478Z</time></trkpt><trkpt lat="45.9100167" lon="4.56023"><ele>311.0</ele><time>2026-03-31T15:16:42.477Z</time></trkpt><trkpt lat="45.9099217" lon="4.5602767"><ele>311.0</ele><time>2026-03-31T15:16:44.478Z</time></trkpt><trkpt lat="45.9098533" lon="4.5603733"><ele>311.0</ele><time>2026-03-31T15:16:47.478Z</time></trkpt><trkpt lat="45.9097883" lon="4.56048"><ele>311.0</ele><time>2026-03-31T15:16:49.478Z</time></trkpt><trkpt lat="45.90974" lon="4.560595"><ele>310.0</ele><time>2026-03-31T15:16:51.478Z</time></trkpt><trkpt lat="45.9097167" lon="4.5607183"><ele>309.0</ele><time>2026-03-31T15:16:53.478Z</time></trkpt><trkpt lat="45.9097233" lon="4.5608133"><ele>308.0</ele><time>2026-03-31T15:16:54.477Z</time></trkpt><trkpt lat="45.9097483" lon="4.5609767"><ele>307.0</ele><time>2026-03-31T15:16:56.478Z</time></trkpt><trkpt lat="45.9097533" lon="4.5610683"><ele>306.0</ele><time>2026-03-31T15:16:57.477Z</time></trkpt><trkpt lat="45.9097567" lon="4.5611717"><ele>305.0</ele><time>2026-03-31T15:16:58.478Z</time></trkpt><trkpt lat="45.9097583" lon="4.5612833"><ele>304.6666666666667</ele><time>2026-03-31T15:16:59.478Z</time></trkpt><trkpt lat="45.9097517" lon="4.561385"><ele>304.33333333333337</ele><time>2026-03-31T15:17:00.477Z</time></trkpt><trkpt lat="45.9097467" lon="4.5614917"><ele>304.0</ele><time>2026-03-31T15:17:01.478Z</time></trkpt><trkpt lat="45.90974" lon="4.561595"><ele>303.6666666666667</ele><time>2026-03-31T15:17:02.478Z</time></trkpt><trkpt lat="45.9097283" lon="4.561695"><ele>303.3333333333333</ele><time>2026-03-31T15:17:03.478Z</time></trkpt><trkpt lat="45.9097167" lon="4.5617967"><ele>303.0</ele><time>2026-03-31T15:17:04.478Z</time></trkpt><trkpt lat="45.9096783" lon="4.5619633"><ele>302.2</ele><time>2026-03-31T15:17:06.478Z</time></trkpt><trkpt lat="45.9096533" lon="4.5620467"><ele>301.4</ele><time>2026-03-31T15:17:07.478Z</time></trkpt><trkpt lat="45.9096317" lon="4.5621433"><ele>300.59999999999997</ele><time>2026-03-31T15:17:08.478Z</time></trkpt><trkpt lat="45.90957" lon="4.5623267"><ele>299.8</ele><time>2026-03-31T15:17:10.478Z</time></trkpt><trkpt lat="45.9095383" lon="4.5624517"><ele>299.0</ele><time>2026-03-31T15:17:11.477Z</time></trkpt><trkpt lat="45.90951" lon="4.562585"><ele>299.0</ele><time>2026-03-31T15:17:12.478Z</time></trkpt><trkpt lat="45.9094867" lon="4.5627117"><ele>299.0</ele><time>2026-03-31T15:17:13.478Z</time></trkpt><trkpt lat="45.9094617" lon="4.562835"><ele>299.0</ele><time>2026-03-31T15:17:14.478Z</time></trkpt><trkpt lat="45.9094333" lon="4.5629633"><ele>299.0</ele><time>2026-03-31T15:17:15.477Z</time></trkpt><trkpt lat="45.9094033" lon="4.5631033"><ele>299.0</ele><time>2026-03-31T15:17:16.478Z</time></trkpt><trkpt lat="45.909375" lon="4.56324"><ele>298.5</ele><time>2026-03-31T15:17:17.478Z</time></trkpt><trkpt lat="45.909355" lon="4.5633333"><ele>298.0</ele><time>2026-03-31T15:17:18.478Z</time></trkpt><trkpt lat="45.90933" lon="4.56342"><ele>297.5</ele><time>2026-03-31T15:17:19.478Z</time></trkpt><trkpt lat="45.909305" lon="4.5635417"><ele>297.0</ele><time>2026-03-31T15:17:20.478Z</time></trkpt><trkpt lat="45.9092733" lon="4.563675"><ele>296.5</ele><time>2026-03-31T15:17:21.478Z</time></trkpt><trkpt lat="45.90923" lon="4.5638183"><ele>296.0</ele><time>2026-03-31T15:17:22.478Z</time></trkpt><trkpt lat="45.9091817" lon="4.5639617"><ele>295.6</ele><time>2026-03-31T15:17:23.478Z</time></trkpt><trkpt lat="45.909135" lon="4.5640833"><ele>295.20000000000005</ele><time>2026-03-31T15:17:24.478Z</time></trkpt><trkpt lat="45.9090867" lon="4.5641983"><ele>294.79999999999995</ele><time>2026-03-31T15:17:25.478Z</time></trkpt><trkpt lat="45.9090433" lon="4.5643067"><ele>294.4</ele><time>2026-03-31T15:17:26.477Z</time></trkpt><trkpt lat="45.909005" lon="4.564425"><ele>294.0</ele><time>2026-03-31T15:17:27.478Z</time></trkpt><trkpt lat="45.9089783" lon="4.5645617"><ele>294.0</ele><time>2026-03-31T15:17:28.478Z</time></trkpt><trkpt lat="45.9089533" lon="4.56471"><ele>294.0</ele><time>2026-03-31T15:17:29.478Z</time></trkpt><trkpt lat="45.9089317" lon="4.5649"><ele>294.0</ele><time>2026-03-31T15:17:30.478Z</time></trkpt><trkpt lat="45.9089117" lon="4.5650433"><ele>294.0</ele><time>2026-03-31T15:17:31.478Z</time></trkpt><trkpt lat="45.9088917" lon="4.5651717"><ele>294.0</ele><time>2026-03-31T15:17:32.478Z</time></trkpt><trkpt lat="45.9088783" lon="4.5652867"><ele>294.4</ele><time>2026-03-31T15:17:33.478Z</time></trkpt><trkpt lat="45.9088567" lon="4.5654233"><ele>294.79999999999995</ele><time>2026-03-31T15:17:34.478Z</time></trkpt><trkpt lat="45.90883" lon="4.565565"><ele>295.20000000000005</ele><time>2026-03-31T15:17:35.477Z</time></trkpt><trkpt lat="45.9088033" lon="4.565685"><ele>295.6</ele><time>2026-03-31T15:17:36.478Z</time></trkpt><trkpt lat="45.9087817" lon="4.565805"><ele>296.0</ele><time>2026-03-31T15:17:37.478Z</time></trkpt><trkpt lat="45.9087533" lon="4.5659133"><ele>296.0</ele><time>2026-03-31T15:17:38.478Z</time></trkpt><trkpt lat="45.908725" lon="4.5660233"><ele>296.0</ele><time>2026-03-31T15:17:39.478Z</time></trkpt><trkpt lat="45.9086983" lon="4.5661283"><ele>296.0</ele><time>2026-03-31T15:17:40.478Z</time></trkpt><trkpt lat="45.9086633" lon="4.566225"><ele>296.0</ele><time>2026-03-31T15:17:41.478Z</time></trkpt><trkpt lat="45.90862" lon="4.5663233"><ele>296.0</ele><time>2026-03-31T15:17:42.478Z</time></trkpt><trkpt lat="45.9085767" lon="4.5664233"><ele>296.0</ele><time>2026-03-31T15:17:43.478Z</time></trkpt><trkpt lat="45.908525" lon="4.5665017"><ele>296.0</ele><time>2026-03-31T15:17:44.478Z</time></trkpt><trkpt lat="45.9084683" lon="4.5666"><ele>296.0</ele><time>2026-03-31T15:17:45.478Z</time></trkpt><trkpt lat="45.9084067" lon="4.56671"><ele>296.0</ele><time>2026-03-31T15:17:46.478Z</time></trkpt><trkpt lat="45.9083383" lon="4.5668333"><ele>296.0</ele><time>2026-03-31T15:17:47.478Z</time></trkpt><trkpt lat="45.908275" lon="4.56696"><ele>296.0</ele><time>2026-03-31T15:17:48.479Z</time></trkpt><trkpt lat="45.90822" lon="4.5670767"><ele>295.33333333333337</ele><time>2026-03-31T15:17:49.479Z</time></trkpt><trkpt lat="45.9081783" lon="4.5671633"><ele>294.6666666666667</ele><time>2026-03-31T15:17:50.479Z</time></trkpt><trkpt lat="45.90812" lon="4.567275"><ele>294.0</ele><time>2026-03-31T15:17:52.479Z</time></trkpt><trkpt lat="45.9080817" lon="4.5673583"><ele>293.3333333333333</ele><time>2026-03-31T15:17:53.479Z</time></trkpt><trkpt lat="45.9080417" lon="4.5674317"><ele>292.66666666666663</ele><time>2026-03-31T15:17:54.479Z</time></trkpt><trkpt lat="45.90796" lon="4.5675533"><ele>292.0</ele><time>2026-03-31T15:17:56.479Z</time></trkpt><trkpt lat="45.9078833" lon="4.5676567"><ele>292.0</ele><time>2026-03-31T15:17:58.479Z</time></trkpt><trkpt lat="45.9078133" lon="4.56769"><ele>292.0</ele><time>2026-03-31T15:18:00.479Z</time></trkpt><trkpt lat="45.9077583" lon="4.5677883"><ele>292.0</ele><time>2026-03-31T15:18:03.479Z</time></trkpt><trkpt lat="45.9077083" lon="4.567855"><ele>292.0</ele><time>2026-03-31T15:18:05.479Z</time></trkpt><trkpt lat="45.9076117" lon="4.5679467"><ele>292.0</ele><time>2026-03-31T15:18:07.479Z</time></trkpt><trkpt lat="45.9075433" lon="4.5680067"><ele>292.0</ele><time>2026-03-31T15:18:08.479Z</time></trkpt><trkpt lat="45.9074783" lon="4.56806"><ele>292.4</ele><time>2026-03-31T15:18:09.479Z</time></trkpt><trkpt lat="45.9073817" lon="4.568145"><ele>292.79999999999995</ele><time>2026-03-31T15:18:11.479Z</time></trkpt><trkpt lat="45.9072917" lon="4.56823"><ele>293.2</ele><time>2026-03-31T15:18:13.479Z</time></trkpt><trkpt lat="45.9072283" lon="4.5683033"><ele>293.59999999999997</ele><time>2026-03-31T15:18:16.479Z</time></trkpt><trkpt lat="45.90721" lon="4.5684233"><ele>294.0</ele><time>2026-03-31T15:18:18.479Z</time></trkpt><trkpt lat="45.9071767" lon="4.5685767"><ele>294.0</ele><time>2026-03-31T15:18:20.479Z</time></trkpt><trkpt lat="45.9071333" lon="4.568675"><ele>294.0</ele><time>2026-03-31T15:18:22.479Z</time></trkpt><trkpt lat="45.9070683" lon="4.5687683"><ele>294.0</ele><time>2026-03-31T15:18:24.479Z</time></trkpt><trkpt lat="45.9069533" lon="4.5688483"><ele>294.0</ele><time>2026-03-31T15:18:26.479Z</time></trkpt><trkpt lat="45.9068833" lon="4.5688883"><ele>294.0</ele><time>2026-03-31T15:18:27.479Z</time></trkpt><trkpt lat="45.9068067" lon="4.568935"><ele>293.0</ele><time>2026-03-31T15:18:28.479Z</time></trkpt><trkpt lat="45.9067383" lon="4.568975"><ele>292.0</ele><time>2026-03-31T15:18:29.478Z</time></trkpt><trkpt lat="45.9066567" lon="4.569"><ele>291.0</ele><time>2026-03-31T15:18:31.479Z</time></trkpt><trkpt lat="45.9065833" lon="4.569"><ele>290.0</ele><time>2026-03-31T15:18:33.479Z</time></trkpt><trkpt lat="45.9065383" lon="4.569115"><ele>289.0</ele><time>2026-03-31T15:18:36.478Z</time></trkpt><trkpt lat="45.9065467" lon="4.569235"><ele>288.0</ele><time>2026-03-31T15:18:37.478Z</time></trkpt><trkpt lat="45.90656" lon="4.5693683"><ele>288.0</ele><time>2026-03-31T15:18:38.479Z</time></trkpt><trkpt lat="45.9065733" lon="4.5695"><ele>288.0</ele><time>2026-03-31T15:18:39.479Z</time></trkpt><trkpt lat="45.90658" lon="4.5696"><ele>288.0</ele><time>2026-03-31T15:18:40.479Z</time></trkpt><trkpt lat="45.9065967" lon="4.5697383"><ele>288.0</ele><time>2026-03-31T15:18:42.478Z</time></trkpt><trkpt lat="45.9066067" lon="4.569885"><ele>288.0</ele><time>2026-03-31T15:18:44.479Z</time></trkpt><trkpt lat="45.9065967" lon="4.5700067"><ele>288.0</ele><time>2026-03-31T15:18:46.478Z</time></trkpt><trkpt lat="45.906565" lon="4.5701533"><ele>287.6</ele><time>2026-03-31T15:18:48.479Z</time></trkpt><trkpt lat="45.9065217" lon="4.5702833"><ele>287.20000000000005</ele><time>2026-03-31T15:18:50.479Z</time></trkpt><trkpt lat="45.90649" lon="4.570425"><ele>286.8</ele><time>2026-03-31T15:18:52.479Z</time></trkpt><trkpt lat="45.9064783" lon="4.5705167"><ele>286.40000000000003</ele><time>2026-03-31T15:18:53.479Z</time></trkpt><trkpt lat="45.906465" lon="4.570685"><ele>286.0</ele><time>2026-03-31T15:18:55.478Z</time></trkpt><trkpt lat="45.906455" lon="4.5708367"><ele>285.0</ele><time>2026-03-31T15:18:57.479Z</time></trkpt><trkpt lat="45.9064517" lon="4.5709317"><ele>284.0</ele><time>2026-03-31T15:18:58.479Z</time></trkpt><trkpt lat="45.90647" lon="4.5710917"><ele>283.0</ele><time>2026-03-31T15:19:00.479Z</time></trkpt><trkpt lat="45.906475" lon="4.5712183"><ele>282.0</ele><time>2026-03-31T15:19:02.479Z</time></trkpt><trkpt lat="45.906495" lon="4.571375"><ele>281.0</ele><time>2026-03-31T15:19:04.479Z</time></trkpt><trkpt lat="45.9065183" lon="4.57153"><ele>279.0</ele><time>2026-03-31T15:19:06.479Z</time></trkpt><trkpt lat="45.9065433" lon="4.5716733"><ele>277.0</ele><time>2026-03-31T15:19:08.479Z</time></trkpt><trkpt lat="45.9065533" lon="4.5718017"><ele>275.0</ele><time>2026-03-31T15:19:10.479Z</time></trkpt><trkpt lat="45.9065533" lon="4.571925"><ele>273.0</ele><time>2026-03-31T15:19:12.479Z</time></trkpt><trkpt lat="45.90655" lon="4.572045"><ele>271.0</ele><time>2026-03-31T15:19:14.479Z</time></trkpt><trkpt lat="45.9065" lon="4.5722017"><ele>268.2</ele><time>2026-03-31T15:19:16.478Z</time></trkpt><trkpt lat="45.9064567" lon="4.5723183"><ele>265.40000000000003</ele><time>2026-03-31T15:19:18.479Z</time></trkpt><trkpt lat="45.906395" lon="4.57241"><ele>262.6</ele><time>2026-03-31T15:19:20.479Z</time></trkpt><trkpt lat="45.9063117" lon="4.57243"><ele>259.8</ele><time>2026-03-31T15:19:22.478Z</time></trkpt><trkpt lat="45.9062133" lon="4.5723867"><ele>257.0</ele><time>2026-03-31T15:19:24.479Z</time></trkpt><trkpt lat="45.906135" lon="4.5723383"><ele>257.0</ele><time>2026-03-31T15:19:26.479Z</time></trkpt><trkpt lat="45.9060483" lon="4.5723183"><ele>257.0</ele><time>2026-03-31T15:19:28.479Z</time></trkpt><trkpt lat="45.9059833" lon="4.5723"><ele>257.0</ele><time>2026-03-31T15:19:30.479Z</time></trkpt><trkpt lat="45.9059067" lon="4.57227"><ele>257.0</ele><time>2026-03-31T15:19:33.479Z</time></trkpt><trkpt lat="45.9058567" lon="4.5723583"><ele>257.0</ele><time>2026-03-31T15:19:37.478Z</time></trkpt><trkpt lat="45.9058867" lon="4.572445"><ele>257.0</ele><time>2026-03-31T15:19:40.479Z</time></trkpt><trkpt lat="45.9059267" lon="4.5725167"><ele>257.0</ele><time>2026-03-31T15:19:43.479Z</time></trkpt><trkpt lat="45.9059817" lon="4.57262"><ele>257.0</ele><time>2026-03-31T15:19:45.479Z</time></trkpt><trkpt lat="45.9060333" lon="4.5727067"><ele>257.0</ele><time>2026-03-31T15:19:47.479Z</time></trkpt><trkpt lat="45.90608" lon="4.57278"><ele>257.0</ele><time>2026-03-31T15:19:49.478Z</time></trkpt><trkpt lat="45.9060867" lon="4.5728933"><ele>257.0</ele><time>2026-03-31T15:19:52.479Z</time></trkpt><trkpt lat="45.9060033" lon="4.572885"><ele>257.0</ele><time>2026-03-31T15:19:55.479Z</time></trkpt><trkpt lat="45.9059667" lon="4.5728"><ele>257.0</ele><time>2026-03-31T15:19:56.479Z</time></trkpt><trkpt lat="45.90592" lon="4.57269"><ele>256.0</ele><time>2026-03-31T15:19:57.479Z</time></trkpt><trkpt lat="45.9058717" lon="4.5725933"><ele>255.0</ele><time>2026-03-31T15:19:58.479Z</time></trkpt><trkpt lat="45.9058333" lon="4.5725183"><ele>254.0</ele><time>2026-03-31T15:19:59.479Z</time></trkpt><trkpt lat="45.9057767" lon="4.5724083"><ele>253.0</ele><time>2026-03-31T15:20:01.479Z</time></trkpt><trkpt lat="45.905695" lon="4.5724083"><ele>252.00000000000003</ele><time>2026-03-31T15:20:13.478Z</time></trkpt><trkpt lat="45.9056333" lon="4.5725433"><ele>251.0</ele><time>2026-03-31T15:20:15.479Z</time></trkpt><trkpt lat="45.9056217" lon="4.5726383"><ele>251.0</ele><time>2026-03-31T15:20:16.479Z</time></trkpt><trkpt lat="45.9055983" lon="4.5727983"><ele>251.00000000000003</ele><time>2026-03-31T15:20:18.479Z</time></trkpt><trkpt lat="45.905555" lon="4.572915"><ele>251.00000000000003</ele><time>2026-03-31T15:20:20.479Z</time></trkpt><trkpt lat="45.9054833" lon="4.5729833"><ele>251.0</ele><time>2026-03-31T15:20:22.479Z</time></trkpt><trkpt lat="45.905405" lon="4.5729467"><ele>251.0</ele><time>2026-03-31T15:20:24.479Z</time></trkpt><trkpt lat="45.9053133" lon="4.572865"><ele>251.0</ele><time>2026-03-31T15:20:26.479Z</time></trkpt><trkpt lat="45.9052333" lon="4.5727717"><ele>251.00000000000003</ele><time>2026-03-31T15:20:28.479Z</time></trkpt><trkpt lat="45.9051767" lon="4.5727067"><ele>251.00000000000003</ele><time>2026-03-31T15:20:30.479Z</time></trkpt><trkpt lat="45.9051117" lon="4.572655"><ele>251.0</ele><time>2026-03-31T15:21:09.479Z</time></trkpt><trkpt lat="45.90503" lon="4.5725433"><ele>251.0</ele><time>2026-03-31T15:21:11.479Z</time></trkpt><trkpt lat="45.90495" lon="4.5724133"><ele>250.83333333333334</ele><time>2026-03-31T15:21:13.479Z</time></trkpt><trkpt lat="45.9049117" lon="4.57234"><ele>250.66666666666669</ele><time>2026-03-31T15:21:14.479Z</time></trkpt><trkpt lat="45.9048583" lon="4.5722633"><ele>250.5</ele><time>2026-03-31T15:21:16.479Z</time></trkpt><trkpt lat="45.904805" lon="4.572165"><ele>250.33333333333331</ele><time>2026-03-31T15:21:19.479Z</time></trkpt><trkpt lat="45.9047567" lon="4.57209"><ele>250.16666666666666</ele><time>2026-03-31T15:21:21.478Z</time></trkpt><trkpt lat="45.9046967" lon="4.572015"><ele>250.0</ele><time>2026-03-31T15:21:23.479Z</time></trkpt><trkpt lat="45.9046383" lon="4.5719283"><ele>249.99999999999997</ele><time>2026-03-31T15:21:25.479Z</time></trkpt><trkpt lat="45.9045717" lon="4.5718333"><ele>250.0</ele><time>2026-03-31T15:21:27.479Z</time></trkpt><trkpt lat="45.90453" lon="4.5717633"><ele>250.0</ele><time>2026-03-31T15:21:29.479Z</time></trkpt><trkpt lat="45.9044867" lon="4.5716817"><ele>250.0</ele><time>2026-03-31T15:21:31.478Z</time></trkpt><trkpt lat="45.90444" lon="4.5715767"><ele>249.99999999999997</ele><time>2026-03-31T15:21:33.479Z</time></trkpt><trkpt lat="45.904395" lon="4.57144"><ele>250.0</ele><time>2026-03-31T15:21:35.479Z</time></trkpt><trkpt lat="45.9043517" lon="4.571325"><ele>250.0</ele><time>2026-03-31T15:21:37.479Z</time></trkpt><trkpt lat="45.9043217" lon="4.57121"><ele>250.0</ele><time>2026-03-31T15:21:39.479Z</time></trkpt><trkpt lat="45.90429" lon="4.5710867"><ele>250.0</ele><time>2026-03-31T15:21:41.479Z</time></trkpt><trkpt lat="45.9042517" lon="4.5709567"><ele>250.0</ele><time>2026-03-31T15:21:43.479Z</time></trkpt><trkpt lat="45.9042167" lon="4.5708083"><ele>250.0</ele><time>2026-03-31T15:21:45.479Z</time></trkpt><trkpt lat="45.904175" lon="4.5706967"><ele>251.2</ele><time>2026-03-31T15:21:47.479Z</time></trkpt><trkpt lat="45.90413" lon="4.57054"><ele>252.4</ele><time>2026-03-31T15:21:49.479Z</time></trkpt><trkpt lat="45.9041033" lon="4.5704267"><ele>253.60000000000002</ele><time>2026-03-31T15:21:50.479Z</time></trkpt><trkpt lat="45.90408" lon="4.5703083"><ele>254.8</ele><time>2026-03-31T15:21:51.479Z</time></trkpt><trkpt lat="45.9040517" lon="4.57019"><ele>256.0</ele><time>2026-03-31T15:21:52.478Z</time></trkpt><trkpt lat="45.9040283" lon="4.5700717"><ele>256.1428571428571</ele><time>2026-03-31T15:21:53.479Z</time></trkpt><trkpt lat="45.904" lon="4.5699583"><ele>256.2857142857143</ele><time>2026-03-31T15:21:54.479Z</time></trkpt><trkpt lat="45.903975" lon="4.5698533"><ele>256.42857142857144</ele><time>2026-03-31T15:21:55.479Z</time></trkpt><trkpt lat="45.90395" lon="4.5697517"><ele>256.57142857142856</ele><time>2026-03-31T15:21:56.479Z</time></trkpt><trkpt lat="45.9039267" lon="4.5696583"><ele>256.7142857142857</ele><time>2026-03-31T15:21:57.478Z</time></trkpt><trkpt lat="45.9039017" lon="4.5695617"><ele>256.85714285714283</ele><time>2026-03-31T15:21:58.479Z</time></trkpt><trkpt lat="45.90388" lon="4.5694767"><ele>257.0</ele><time>2026-03-31T15:21:59.478Z</time></trkpt><trkpt lat="45.9038133" lon="4.56934"><ele>257.1428571428571</ele><time>2026-03-31T15:22:01.479Z</time></trkpt><trkpt lat="45.903765" lon="4.5692633"><ele>257.2857142857143</ele><time>2026-03-31T15:22:02.479Z</time></trkpt><trkpt lat="45.90371" lon="4.5691867"><ele>257.42857142857144</ele><time>2026-03-31T15:22:03.479Z</time></trkpt><trkpt lat="45.9036667" lon="4.5691183"><ele>257.57142857142856</ele><time>2026-03-31T15:22:04.479Z</time></trkpt><trkpt lat="45.9036167" lon="4.56905"><ele>257.7142857142857</ele><time>2026-03-31T15:22:05.479Z</time></trkpt><trkpt lat="45.9035667" lon="4.5689933"><ele>257.85714285714283</ele><time>2026-03-31T15:22:06.478Z</time></trkpt><trkpt lat="45.9035117" lon="4.5689283"><ele>258.0</ele><time>2026-03-31T15:22:07.479Z</time></trkpt><trkpt lat="45.9034517" lon="4.568865"><ele>258.1428571428571</ele><time>2026-03-31T15:22:08.479Z</time></trkpt><trkpt lat="45.9033867" lon="4.5688117"><ele>258.2857142857143</ele><time>2026-03-31T15:22:09.479Z</time></trkpt><trkpt lat="45.9033267" lon="4.5687683"><ele>258.42857142857144</ele><time>2026-03-31T15:22:10.479Z</time></trkpt><trkpt lat="45.9032567" lon="4.5687283"><ele>258.57142857142856</ele><time>2026-03-31T15:22:11.479Z</time></trkpt><trkpt lat="45.9031883" lon="4.568695"><ele>258.7142857142857</ele><time>2026-03-31T15:22:12.479Z</time></trkpt><trkpt lat="45.9031167" lon="4.5686633"><ele>258.85714285714283</ele><time>2026-03-31T15:22:13.479Z</time></trkpt><trkpt lat="45.9030433" lon="4.5686367"><ele>259.0</ele><time>2026-03-31T15:22:14.479Z</time></trkpt><trkpt lat="45.90297" lon="4.56862"><ele>259.0</ele><time>2026-03-31T15:22:15.479Z</time></trkpt><trkpt lat="45.9029067" lon="4.5686"><ele>259.0</ele><time>2026-03-31T15:22:16.479Z</time></trkpt><trkpt lat="45.9028317" lon="4.5685683"><ele>259.0</ele><time>2026-03-31T15:22:17.479Z</time></trkpt><trkpt lat="45.9027617" lon="4.56853"><ele>259.0</ele><time>2026-03-31T15:22:18.479Z</time></trkpt><trkpt lat="45.9026867" lon="4.5684917"><ele>259.0</ele><time>2026-03-31T15:22:19.478Z</time></trkpt><trkpt lat="45.9026133" lon="4.5684417"><ele>259.0</ele><time>2026-03-31T15:22:20.479Z</time></trkpt><trkpt lat="45.902545" lon="4.56839"><ele>261.2857142857143</ele><time>2026-03-31T15:22:21.479Z</time></trkpt><trkpt lat="45.9024817" lon="4.56833"><ele>263.57142857142856</ele><time>2026-03-31T15:22:22.479Z</time></trkpt><trkpt lat="45.90243" lon="4.5682667"><ele>265.8571428571429</ele><time>2026-03-31T15:22:23.479Z</time></trkpt><trkpt lat="45.9023833" lon="4.5682033"><ele>268.1428571428571</ele><time>2026-03-31T15:22:24.479Z</time></trkpt><trkpt lat="45.9023317" lon="4.5681333"><ele>270.42857142857144</ele><time>2026-03-31T15:22:25.478Z</time></trkpt><trkpt lat="45.9022883" lon="4.5680583"><ele>272.7142857142857</ele><time>2026-03-31T15:22:26.479Z</time></trkpt><trkpt lat="45.9022467" lon="4.56798"><ele>275.0</ele><time>2026-03-31T15:22:27.479Z</time></trkpt><trkpt lat="45.9022117" lon="4.567885"><ele>272.6666666666667</ele><time>2026-03-31T15:22:28.479Z</time></trkpt><trkpt lat="45.9021733" lon="4.5677733"><ele>270.33333333333337</ele><time>2026-03-31T15:22:29.479Z</time></trkpt><trkpt lat="45.9021333" lon="4.5676667"><ele>268.0</ele><time>2026-03-31T15:22:30.479Z</time></trkpt><trkpt lat="45.9020817" lon="4.5675617"><ele>265.6666666666667</ele><time>2026-03-31T15:22:31.479Z</time></trkpt><trkpt lat="45.9020383" lon="4.5674817"><ele>263.3333333333333</ele><time>2026-03-31T15:22:32.479Z</time></trkpt><trkpt lat="45.9019883" lon="4.5673783"><ele>261.0</ele><time>2026-03-31T15:22:34.479Z</time></trkpt><trkpt lat="45.901935" lon="4.5672683"><ele>261.0</ele><time>2026-03-31T15:22:36.479Z</time></trkpt><trkpt lat="45.90188" lon="4.5671517"><ele>261.0</ele><time>2026-03-31T15:22:38.479Z</time></trkpt><trkpt lat="45.9018017" lon="4.5669933"><ele>261.0</ele><time>2026-03-31T15:22:40.479Z</time></trkpt><trkpt lat="45.9017583" lon="4.5669033"><ele>261.0</ele><time>2026-03-31T15:22:41.479Z</time></trkpt><trkpt lat="45.9017067" lon="4.5668033"><ele>261.0</ele><time>2026-03-31T15:22:42.478Z</time></trkpt><trkpt lat="45.90166" lon="4.5667067"><ele>261.6666666666667</ele><time>2026-03-31T15:22:43.478Z</time></trkpt><trkpt lat="45.9016133" lon="4.5666117"><ele>262.3333333333333</ele><time>2026-03-31T15:22:44.479Z</time></trkpt><trkpt lat="45.901565" lon="4.5665133"><ele>263.0</ele><time>2026-03-31T15:22:45.479Z</time></trkpt><trkpt lat="45.901515" lon="4.5664167"><ele>263.66666666666663</ele><time>2026-03-31T15:22:46.479Z</time></trkpt><trkpt lat="45.901465" lon="4.56632"><ele>264.3333333333333</ele><time>2026-03-31T15:22:47.479Z</time></trkpt><trkpt lat="45.901425" lon="4.5662267"><ele>265.0</ele><time>2026-03-31T15:22:48.479Z</time></trkpt><trkpt lat="45.901375" lon="4.5661333"><ele>265.0</ele><time>2026-03-31T15:22:49.479Z</time></trkpt><trkpt lat="45.9013267" lon="4.566055"><ele>265.0</ele><time>2026-03-31T15:22:50.479Z</time></trkpt><trkpt lat="45.901275" lon="4.565985"><ele>265.0</ele><time>2026-03-31T15:22:51.479Z</time></trkpt><trkpt lat="45.90121" lon="4.5659117"><ele>265.0</ele><time>2026-03-31T15:22:52.479Z</time></trkpt><trkpt lat="45.9011417" lon="4.5658367"><ele>265.0</ele><time>2026-03-31T15:22:53.479Z</time></trkpt><trkpt lat="45.9010683" lon="4.565775"><ele>265.0</ele><time>2026-03-31T15:22:54.479Z</time></trkpt><trkpt lat="45.9009833" lon="4.565725"><ele>268.4</ele><time>2026-03-31T15:22:55.479Z</time></trkpt><trkpt lat="45.9008967" lon="4.5656883"><ele>271.8</ele><time>2026-03-31T15:22:56.479Z</time></trkpt><trkpt lat="45.900815" lon="4.5656533"><ele>275.2</ele><time>2026-03-31T15:22:57.479Z</time></trkpt><trkpt lat="45.9007283" lon="4.56562"><ele>278.6</ele><time>2026-03-31T15:22:58.479Z</time></trkpt><trkpt lat="45.9006383" lon="4.56559"><ele>282.0</ele><time>2026-03-31T15:22:59.479Z</time></trkpt><trkpt lat="45.9005433" lon="4.5655633"><ele>282.0</ele><time>2026-03-31T15:23:00.479Z</time></trkpt><trkpt lat="45.900455" lon="4.5655283"><ele>282.0</ele><time>2026-03-31T15:23:01.479Z</time></trkpt><trkpt lat="45.9003533" lon="4.565485"><ele>282.0</ele><time>2026-03-31T15:23:02.48Z</time></trkpt><trkpt lat="45.900265" lon="4.5654433"><ele>282.0</ele><time>2026-03-31T15:23:03.48Z</time></trkpt><trkpt lat="45.9001967" lon="4.5654117"><ele>282.0</ele><time>2026-03-31T15:23:04.48Z</time></trkpt><trkpt lat="45.900095" lon="4.5653083"><ele>281.1666666666667</ele><time>2026-03-31T15:23:06.479Z</time></trkpt><trkpt lat="45.9000033" lon="4.565185"><ele>280.3333333333333</ele><time>2026-03-31T15:23:08.48Z</time></trkpt><trkpt lat="45.8999617" lon="4.5651083"><ele>279.5</ele><time>2026-03-31T15:23:09.48Z</time></trkpt><trkpt lat="45.89992" lon="4.565025"><ele>278.66666666666663</ele><time>2026-03-31T15:23:10.48Z</time></trkpt><trkpt lat="45.89988" lon="4.56493"><ele>277.8333333333333</ele><time>2026-03-31T15:23:11.48Z</time></trkpt><trkpt lat="45.89984" lon="4.56482"><ele>277.0</ele><time>2026-03-31T15:23:12.48Z</time></trkpt><trkpt lat="45.8998133" lon="4.5647067"><ele>277.0</ele><time>2026-03-31T15:23:13.48Z</time></trkpt><trkpt lat="45.8997967" lon="4.5645967"><ele>277.0</ele><time>2026-03-31T15:23:14.48Z</time></trkpt><trkpt lat="45.89979" lon="4.5644933"><ele>277.0</ele><time>2026-03-31T15:23:15.479Z</time></trkpt><trkpt lat="45.899795" lon="4.564395"><ele>277.0</ele><time>2026-03-31T15:23:16.48Z</time></trkpt><trkpt lat="45.8997867" lon="4.5642117"><ele>277.0</ele><time>2026-03-31T15:23:18.479Z</time></trkpt><trkpt lat="45.8997833" lon="4.5641"><ele>277.0</ele><time>2026-03-31T15:23:19.48Z</time></trkpt><trkpt lat="45.8997817" lon="4.5639883"><ele>276.66666666666663</ele><time>2026-03-31T15:23:20.48Z</time></trkpt><trkpt lat="45.8997867" lon="4.5638783"><ele>276.3333333333333</ele><time>2026-03-31T15:23:21.48Z</time></trkpt><trkpt lat="45.899795" lon="4.56377"><ele>276.0</ele><time>2026-03-31T15:23:22.48Z</time></trkpt><trkpt lat="45.899805" lon="4.5636567"><ele>275.6666666666667</ele><time>2026-03-31T15:23:23.48Z</time></trkpt><trkpt lat="45.89982" lon="4.5635467"><ele>275.33333333333337</ele><time>2026-03-31T15:23:24.48Z</time></trkpt><trkpt lat="45.8998333" lon="4.5634383"><ele>275.0</ele><time>2026-03-31T15:23:25.479Z</time></trkpt><trkpt lat="45.8998483" lon="4.5633283"><ele>275.6666666666667</ele><time>2026-03-31T15:23:26.48Z</time></trkpt><trkpt lat="45.8998717" lon="4.5632217"><ele>276.33333333333337</ele><time>2026-03-31T15:23:27.48Z</time></trkpt><trkpt lat="45.8998967" lon="4.56312"><ele>277.0</ele><time>2026-03-31T15:23:28.48Z</time></trkpt><trkpt lat="45.899925" lon="4.5630133"><ele>277.6666666666667</ele><time>2026-03-31T15:23:29.48Z</time></trkpt><trkpt lat="45.8999467" lon="4.5628833"><ele>278.3333333333333</ele><time>2026-03-31T15:23:30.479Z</time></trkpt><trkpt lat="45.8999733" lon="4.5627533"><ele>279.0</ele><time>2026-03-31T15:23:31.48Z</time></trkpt><trkpt lat="45.8999917" lon="4.5626433"><ele>279.3333333333333</ele><time>2026-03-31T15:23:32.48Z</time></trkpt><trkpt lat="45.89999" lon="4.5625033"><ele>279.6666666666667</ele><time>2026-03-31T15:23:34.48Z</time></trkpt><trkpt lat="45.89997" lon="4.562415"><ele>280.0</ele><time>2026-03-31T15:23:36.48Z</time></trkpt><trkpt lat="45.8999367" lon="4.56232"><ele>280.33333333333337</ele><time>2026-03-31T15:23:39.479Z</time></trkpt><trkpt lat="45.8999133" lon="4.562225"><ele>280.6666666666667</ele><time>2026-03-31T15:23:41.48Z</time></trkpt><trkpt lat="45.899905" lon="4.5620717"><ele>281.0</ele><time>2026-03-31T15:23:43.48Z</time></trkpt><trkpt lat="45.8998517" lon="4.56194"><ele>281.0</ele><time>2026-03-31T15:23:45.48Z</time></trkpt><trkpt lat="45.899755" lon="4.5618217"><ele>281.0</ele><time>2026-03-31T15:23:47.48Z</time></trkpt><trkpt lat="45.89969" lon="4.5617717"><ele>281.0</ele><time>2026-03-31T15:23:48.48Z</time></trkpt><trkpt lat="45.8996167" lon="4.5617233"><ele>281.0</ele><time>2026-03-31T15:23:50.48Z</time></trkpt><trkpt lat="45.8995383" lon="4.5616817"><ele>281.0</ele><time>2026-03-31T15:23:58.48Z</time></trkpt><trkpt lat="45.89947" lon="4.561645"><ele>281.0</ele><time>2026-03-31T15:24:01.48Z</time></trkpt><trkpt lat="45.8994083" lon="4.5616117"><ele>281.0</ele><time>2026-03-31T15:24:04.48Z</time></trkpt><trkpt lat="45.8993383" lon="4.5615717"><ele>281.0</ele><time>2026-03-31T15:24:06.48Z</time></trkpt><trkpt lat="45.89922" lon="4.56154"><ele>281.0</ele><time>2026-03-31T15:24:08.48Z</time></trkpt><trkpt lat="45.8991467" lon="4.561515"><ele>281.0</ele><time>2026-03-31T15:24:09.48Z</time></trkpt><trkpt lat="45.8990633" lon="4.561495"><ele>281.0</ele><time>2026-03-31T15:24:10.48Z</time></trkpt><trkpt lat="45.8989883" lon="4.5614767"><ele>281.0</ele><time>2026-03-31T15:24:11.479Z</time></trkpt><trkpt lat="45.8989267" lon="4.5614483"><ele>282.2</ele><time>2026-03-31T15:24:12.48Z</time></trkpt><trkpt lat="45.898815" lon="4.5613317"><ele>283.40000000000003</ele><time>2026-03-31T15:24:14.48Z</time></trkpt><trkpt lat="45.898755" lon="4.56125"><ele>284.6</ele><time>2026-03-31T15:24:15.48Z</time></trkpt><trkpt lat="45.8986967" lon="4.56117"><ele>285.8</ele><time>2026-03-31T15:24:16.479Z</time></trkpt><trkpt lat="45.8986383" lon="4.5610683"><ele>287.0</ele><time>2026-03-31T15:24:17.48Z</time></trkpt><trkpt lat="45.8985917" lon="4.56096"><ele>287.0</ele><time>2026-03-31T15:24:18.48Z</time></trkpt><trkpt lat="45.89855" lon="4.560865"><ele>287.0</ele><time>2026-03-31T15:24:19.48Z</time></trkpt><trkpt lat="45.89851" lon="4.5607783"><ele>287.0</ele><time>2026-03-31T15:24:20.48Z</time></trkpt><trkpt lat="45.89846" lon="4.5606867"><ele>287.0</ele><time>2026-03-31T15:24:21.48Z</time></trkpt><trkpt lat="45.8984" lon="4.560595"><ele>287.0</ele><time>2026-03-31T15:24:22.48Z</time></trkpt><trkpt lat="45.8983467" lon="4.56052"><ele>287.0</ele><time>2026-03-31T15:24:23.48Z</time></trkpt><trkpt lat="45.8982883" lon="4.56045"><ele>288.8</ele><time>2026-03-31T15:24:24.48Z</time></trkpt><trkpt lat="45.89823" lon="4.5603917"><ele>290.6</ele><time>2026-03-31T15:24:25.48Z</time></trkpt><trkpt lat="45.8981017" lon="4.56032"><ele>292.40000000000003</ele><time>2026-03-31T15:24:27.48Z</time></trkpt><trkpt lat="45.8980017" lon="4.5602933"><ele>294.2</ele><time>2026-03-31T15:24:28.48Z</time></trkpt><trkpt lat="45.89789" lon="4.5602667"><ele>296.0</ele><time>2026-03-31T15:24:29.48Z</time></trkpt><trkpt lat="45.8977833" lon="4.5602483"><ele>296.0</ele><time>2026-03-31T15:24:30.48Z</time></trkpt><trkpt lat="45.8976767" lon="4.5602317"><ele>296.0</ele><time>2026-03-31T15:24:31.48Z</time></trkpt><trkpt lat="45.8975983" lon="4.5602233"><ele>296.0</ele><time>2026-03-31T15:24:32.48Z</time></trkpt><trkpt lat="45.89753" lon="4.5602083"><ele>296.0</ele><time>2026-03-31T15:24:33.48Z</time></trkpt><trkpt lat="45.8974633" lon="4.560195"><ele>296.0</ele><time>2026-03-31T15:24:34.48Z</time></trkpt><trkpt lat="45.8973583" lon="4.56015"><ele>296.0</ele><time>2026-03-31T15:24:36.48Z</time></trkpt><trkpt lat="45.8973017" lon="4.5601033"><ele>296.1666666666667</ele><time>2026-03-31T15:24:37.48Z</time></trkpt><trkpt lat="45.89724" lon="4.5600433"><ele>296.33333333333337</ele><time>2026-03-31T15:24:38.48Z</time></trkpt><trkpt lat="45.8971817" lon="4.5599783"><ele>296.5</ele><time>2026-03-31T15:24:39.48Z</time></trkpt><trkpt lat="45.8971367" lon="4.5599067"><ele>296.6666666666667</ele><time>2026-03-31T15:24:40.48Z</time></trkpt><trkpt lat="45.8971" lon="4.5598317"><ele>296.8333333333333</ele><time>2026-03-31T15:24:41.48Z</time></trkpt><trkpt lat="45.8970517" lon="4.5596767"><ele>297.0</ele><time>2026-03-31T15:24:43.48Z</time></trkpt><trkpt lat="45.8970383" lon="4.559535"><ele>297.0</ele><time>2026-03-31T15:24:45.48Z</time></trkpt><trkpt lat="45.8970167" lon="4.559385"><ele>297.0</ele><time>2026-03-31T15:24:47.48Z</time></trkpt><trkpt lat="45.8970083" lon="4.5592117"><ele>297.0</ele><time>2026-03-31T15:24:49.48Z</time></trkpt><trkpt lat="45.8969883" lon="4.5590283"><ele>297.0</ele><time>2026-03-31T15:24:51.48Z</time></trkpt><trkpt lat="45.896965" lon="4.5589233"><ele>297.0</ele><time>2026-03-31T15:24:52.48Z</time></trkpt><trkpt lat="45.8969467" lon="4.558835"><ele>297.25</ele><time>2026-03-31T15:24:53.479Z</time></trkpt><trkpt lat="45.8968783" lon="4.5586883"><ele>297.5</ele><time>2026-03-31T15:24:55.48Z</time></trkpt><trkpt lat="45.8967983" lon="4.5585767"><ele>297.75</ele><time>2026-03-31T15:24:57.48Z</time></trkpt><trkpt lat="45.89672" lon="4.5584783"><ele>298.0</ele><time>2026-03-31T15:24:59.48Z</time></trkpt><trkpt lat="45.8966217" lon="4.5583833"><ele>299.8333333333333</ele><time>2026-03-31T15:25:01.48Z</time></trkpt><trkpt lat="45.8965517" lon="4.558335"><ele>301.66666666666663</ele><time>2026-03-31T15:25:02.48Z</time></trkpt><trkpt lat="45.8964733" lon="4.5582983"><ele>303.5</ele><time>2026-03-31T15:25:03.48Z</time></trkpt><trkpt lat="45.89639" lon="4.5582733"><ele>305.3333333333333</ele><time>2026-03-31T15:25:04.479Z</time></trkpt><trkpt lat="45.8963083" lon="4.558255"><ele>307.1666666666667</ele><time>2026-03-31T15:25:05.48Z</time></trkpt><trkpt lat="45.8962383" lon="4.5582583"><ele>309.0</ele><time>2026-03-31T15:25:06.48Z</time></trkpt><trkpt lat="45.8961617" lon="4.5582817"><ele>309.00000000000006</ele><time>2026-03-31T15:25:07.48Z</time></trkpt><trkpt lat="45.8960817" lon="4.558325"><ele>309.0</ele><time>2026-03-31T15:25:08.479Z</time></trkpt><trkpt lat="45.896015" lon="4.55837"><ele>309.0</ele><time>2026-03-31T15:25:09.48Z</time></trkpt><trkpt lat="45.8959533" lon="4.5584233"><ele>309.0</ele><time>2026-03-31T15:25:10.48Z</time></trkpt><trkpt lat="45.8959" lon="4.5584867"><ele>309.0</ele><time>2026-03-31T15:25:11.48Z</time></trkpt><trkpt lat="45.8958533" lon="4.5585617"><ele>309.00000000000006</ele><time>2026-03-31T15:25:12.48Z</time></trkpt><trkpt lat="45.8958117" lon="4.55865"><ele>309.0</ele><time>2026-03-31T15:25:13.48Z</time></trkpt><trkpt lat="45.8957617" lon="4.5587733"><ele>309.0</ele><time>2026-03-31T15:25:14.48Z</time></trkpt><trkpt lat="45.8957217" lon="4.55889"><ele>309.0</ele><time>2026-03-31T15:25:15.48Z</time></trkpt><trkpt lat="45.8956817" lon="4.55902"><ele>309.0</ele><time>2026-03-31T15:25:16.48Z</time></trkpt><trkpt lat="45.8956333" lon="4.5591717"><ele>309.0</ele><time>2026-03-31T15:25:17.48Z</time></trkpt><trkpt lat="45.8955883" lon="4.5592983"><ele>309.0</ele><time>2026-03-31T15:25:18.48Z</time></trkpt><trkpt lat="45.8955417" lon="4.5594233"><ele>309.0</ele><time>2026-03-31T15:25:19.48Z</time></trkpt><trkpt lat="45.89549" lon="4.55954"><ele>309.0</ele><time>2026-03-31T15:25:20.48Z</time></trkpt><trkpt lat="45.8954417" lon="4.5596367"><ele>309.0</ele><time>2026-03-31T15:25:21.48Z</time></trkpt><trkpt lat="45.8953917" lon="4.55972"><ele>309.0</ele><time>2026-03-31T15:25:22.48Z</time></trkpt><trkpt lat="45.8953433" lon="4.559795"><ele>309.0</ele><time>2026-03-31T15:25:23.48Z</time></trkpt><trkpt lat="45.895285" lon="4.559865"><ele>309.0</ele><time>2026-03-31T15:25:24.48Z</time></trkpt><trkpt lat="45.895215" lon="4.5599383"><ele>309.0</ele><time>2026-03-31T15:25:25.48Z</time></trkpt><trkpt lat="45.8951133" lon="4.5600083"><ele>309.0</ele><time>2026-03-31T15:25:27.48Z</time></trkpt><trkpt lat="45.89501" lon="4.5601017"><ele>309.0</ele><time>2026-03-31T15:25:30.48Z</time></trkpt><trkpt lat="45.8949617" lon="4.56016"><ele>309.0</ele><time>2026-03-31T15:25:42.48Z</time></trkpt><trkpt lat="45.8948383" lon="4.5601667"><ele>309.0</ele><time>2026-03-31T15:25:44.48Z</time></trkpt><trkpt lat="45.8947383" lon="4.56016"><ele>308.8333333333333</ele><time>2026-03-31T15:25:45.48Z</time></trkpt><trkpt lat="45.8946417" lon="4.56015"><ele>308.6666666666667</ele><time>2026-03-31T15:25:46.48Z</time></trkpt><trkpt lat="45.894565" lon="4.5601283"><ele>308.5</ele><time>2026-03-31T15:25:47.48Z</time></trkpt><trkpt lat="45.8945" lon="4.560105"><ele>308.33333333333337</ele><time>2026-03-31T15:25:48.48Z</time></trkpt><trkpt lat="45.8944317" lon="4.560075"><ele>308.1666666666667</ele><time>2026-03-31T15:25:49.48Z</time></trkpt><trkpt lat="45.8943617" lon="4.5600383"><ele>308.0</ele><time>2026-03-31T15:25:50.48Z</time></trkpt><trkpt lat="45.8942983" lon="4.559985"><ele>308.0</ele><time>2026-03-31T15:25:51.48Z</time></trkpt><trkpt lat="45.8942383" lon="4.5599117"><ele>308.0</ele><time>2026-03-31T15:25:52.48Z</time></trkpt><trkpt lat="45.8941867" lon="4.5598283"><ele>308.0</ele><time>2026-03-31T15:25:53.48Z</time></trkpt><trkpt lat="45.894155" lon="4.5597433"><ele>308.0</ele><time>2026-03-31T15:25:54.48Z</time></trkpt><trkpt lat="45.89409" lon="4.5596267"><ele>308.0</ele><time>2026-03-31T15:25:56.48Z</time></trkpt><trkpt lat="45.894035" lon="4.5595167"><ele>308.0</ele><time>2026-03-31T15:25:58.48Z</time></trkpt><trkpt lat="45.8939667" lon="4.559385"><ele>308.0</ele><time>2026-03-31T15:26:00.48Z</time></trkpt><trkpt lat="45.8939033" lon="4.5593433"><ele>308.0</ele><time>2026-03-31T15:26:03.48Z</time></trkpt><trkpt lat="45.8938783" lon="4.5594383"><ele>308.0</ele><time>2026-03-31T15:26:05.48Z</time></trkpt><trkpt lat="45.8938633" lon="4.559565"><ele>308.0</ele><time>2026-03-31T15:26:07.48Z</time></trkpt><trkpt lat="45.8938467" lon="4.55975"><ele>308.0</ele><time>2026-03-31T15:26:09.479Z</time></trkpt><trkpt lat="45.8938433" lon="4.5598433"><ele>308.0</ele><time>2026-03-31T15:26:10.48Z</time></trkpt><trkpt lat="45.893835" lon="4.559945"><ele>307.83333333333337</ele><time>2026-03-31T15:26:11.48Z</time></trkpt><trkpt lat="45.8938317" lon="4.5600567"><ele>307.6666666666667</ele><time>2026-03-31T15:26:12.48Z</time></trkpt><trkpt lat="45.893825" lon="4.5601617"><ele>307.5</ele><time>2026-03-31T15:26:13.48Z</time></trkpt><trkpt lat="45.8938167" lon="4.5602767"><ele>307.3333333333333</ele><time>2026-03-31T15:26:14.48Z</time></trkpt><trkpt lat="45.8938117" lon="4.56039"><ele>307.16666666666663</ele><time>2026-03-31T15:26:15.48Z</time></trkpt><trkpt lat="45.8938083" lon="4.5604983"><ele>307.0</ele><time>2026-03-31T15:26:16.48Z</time></trkpt><trkpt lat="45.8938033" lon="4.5606367"><ele>306.66666666666663</ele><time>2026-03-31T15:26:18.479Z</time></trkpt><trkpt lat="45.8938083" lon="4.56074"><ele>306.3333333333333</ele><time>2026-03-31T15:26:20.48Z</time></trkpt><trkpt lat="45.8938133" lon="4.560855"><ele>306.0</ele><time>2026-03-31T15:26:23.48Z</time></trkpt><trkpt lat="45.8938767" lon="4.5609633"><ele>305.6666666666667</ele><time>2026-03-31T15:26:25.48Z</time></trkpt><trkpt lat="45.8939483" lon="4.5610267"><ele>305.33333333333337</ele><time>2026-03-31T15:26:26.48Z</time></trkpt><trkpt lat="45.8940467" lon="4.5610917"><ele>305.0</ele><time>2026-03-31T15:26:27.48Z</time></trkpt><trkpt lat="45.8941583" lon="4.5611533"><ele>305.33333333333337</ele><time>2026-03-31T15:26:28.48Z</time></trkpt><trkpt lat="45.89426" lon="4.561205"><ele>305.6666666666667</ele><time>2026-03-31T15:26:29.48Z</time></trkpt><trkpt lat="45.8943433" lon="4.5612367"><ele>306.0</ele><time>2026-03-31T15:26:30.48Z</time></trkpt><trkpt lat="45.8944133" lon="4.5612617"><ele>306.3333333333333</ele><time>2026-03-31T15:26:31.48Z</time></trkpt><trkpt lat="45.894475" lon="4.561305"><ele>306.66666666666663</ele><time>2026-03-31T15:26:32.48Z</time></trkpt><trkpt lat="45.8945533" lon="4.5613667"><ele>307.0</ele><time>2026-03-31T15:26:33.48Z</time></trkpt><trkpt lat="45.894645" lon="4.56144"><ele>307.0</ele><time>2026-03-31T15:26:34.48Z</time></trkpt><trkpt lat="45.8947267" lon="4.5615117"><ele>307.0</ele><time>2026-03-31T15:26:35.479Z</time></trkpt><trkpt lat="45.8948" lon="4.5615717"><ele>307.0</ele><time>2026-03-31T15:26:36.48Z</time></trkpt><trkpt lat="45.8948583" lon="4.5616333"><ele>307.0</ele><time>2026-03-31T15:26:37.48Z</time></trkpt><trkpt lat="45.894915" lon="4.561695"><ele>307.0</ele><time>2026-03-31T15:26:38.48Z</time></trkpt><trkpt lat="45.8949683" lon="4.561755"><ele>307.0</ele><time>2026-03-31T15:26:39.48Z</time></trkpt><trkpt lat="45.8950267" lon="4.5618933"><ele>307.0</ele><time>2026-03-31T15:26:41.48Z</time></trkpt><trkpt lat="45.8950233" lon="4.561995"><ele>307.0</ele><time>2026-03-31T15:26:42.48Z</time></trkpt><trkpt lat="45.895025" lon="4.5621017"><ele>307.0</ele><time>2026-03-31T15:26:43.48Z</time></trkpt><trkpt lat="45.8950283" lon="4.5622117"><ele>307.0</ele><time>2026-03-31T15:26:44.48Z</time></trkpt><trkpt lat="45.8950333" lon="4.562325"><ele>307.0</ele><time>2026-03-31T15:26:45.48Z</time></trkpt><trkpt lat="45.8950317" lon="4.5624483"><ele>307.0</ele><time>2026-03-31T15:26:46.479Z</time></trkpt><trkpt lat="45.895035" lon="4.562575"><ele>306.8</ele><time>2026-03-31T15:26:47.48Z</time></trkpt><trkpt lat="45.89504" lon="4.5627167"><ele>306.6</ele><time>2026-03-31T15:26:48.48Z</time></trkpt><trkpt lat="45.8950417" lon="4.5628633"><ele>306.40000000000003</ele><time>2026-03-31T15:26:49.48Z</time></trkpt><trkpt lat="45.89505" lon="4.5629867"><ele>306.2</ele><time>2026-03-31T15:26:50.48Z</time></trkpt><trkpt lat="45.8950617" lon="4.5631117"><ele>306.0</ele><time>2026-03-31T15:26:51.48Z</time></trkpt><trkpt lat="45.89509" lon="4.5632333"><ele>306.0</ele><time>2026-03-31T15:26:52.479Z</time></trkpt><trkpt lat="45.8951083" lon="4.5633617"><ele>306.0</ele><time>2026-03-31T15:26:53.479Z</time></trkpt><trkpt lat="45.895125" lon="4.5634967"><ele>306.0</ele><time>2026-03-31T15:26:54.48Z</time></trkpt><trkpt lat="45.8951467" lon="4.563615"><ele>306.0</ele><time>2026-03-31T15:26:55.48Z</time></trkpt><trkpt lat="45.8951583" lon="4.5637333"><ele>306.0</ele><time>2026-03-31T15:26:56.48Z</time></trkpt><trkpt lat="45.895165" lon="4.563875"><ele>306.40000000000003</ele><time>2026-03-31T15:26:57.48Z</time></trkpt><trkpt lat="45.8951717" lon="4.5640083"><ele>306.8</ele><time>2026-03-31T15:26:58.48Z</time></trkpt><trkpt lat="45.8951733" lon="4.56413"><ele>307.20000000000005</ele><time>2026-03-31T15:26:59.48Z</time></trkpt><trkpt lat="45.895185" lon="4.5642617"><ele>307.6</ele><time>2026-03-31T15:27:00.48Z</time></trkpt><trkpt lat="45.89519" lon="4.5644083"><ele>308.0</ele><time>2026-03-31T15:27:01.48Z</time></trkpt><trkpt lat="45.8951917" lon="4.5645517"><ele>308.33333333333337</ele><time>2026-03-31T15:27:02.48Z</time></trkpt><trkpt lat="45.8951983" lon="4.5646783"><ele>308.6666666666667</ele><time>2026-03-31T15:27:03.48Z</time></trkpt><trkpt lat="45.8951967" lon="4.564825"><ele>309.0</ele><time>2026-03-31T15:27:04.48Z</time></trkpt><trkpt lat="45.8952017" lon="4.5649617"><ele>309.3333333333333</ele><time>2026-03-31T15:27:05.48Z</time></trkpt><trkpt lat="45.895205" lon="4.5650817"><ele>309.66666666666663</ele><time>2026-03-31T15:27:06.48Z</time></trkpt><trkpt lat="45.8952083" lon="4.56519"><ele>310.0</ele><time>2026-03-31T15:27:07.48Z</time></trkpt><trkpt lat="45.8952" lon="4.5652867"><ele>309.6</ele><time>2026-03-31T15:27:08.48Z</time></trkpt><trkpt lat="45.8951933" lon="4.5653967"><ele>309.2</ele><time>2026-03-31T15:27:09.48Z</time></trkpt><trkpt lat="45.8951883" lon="4.5655217"><ele>308.8</ele><time>2026-03-31T15:27:11.48Z</time></trkpt><trkpt lat="45.8951817" lon="4.5656533"><ele>308.4</ele><time>2026-03-31T15:27:13.48Z</time></trkpt><trkpt lat="45.89518" lon="4.5658067"><ele>308.0</ele><time>2026-03-31T15:27:21.48Z</time></trkpt><trkpt lat="45.8951517" lon="4.5659317"><ele>308.0</ele><time>2026-03-31T15:27:23.48Z</time></trkpt><trkpt lat="45.8951467" lon="4.5660267"><ele>308.0</ele><time>2026-03-31T15:27:24.48Z</time></trkpt><trkpt lat="45.89514" lon="4.56614"><ele>308.0</ele><time>2026-03-31T15:27:25.48Z</time></trkpt><trkpt lat="45.8951317" lon="4.5662433"><ele>308.0</ele><time>2026-03-31T15:27:26.48Z</time></trkpt><trkpt lat="45.8951233" lon="4.5664067"><ele>308.0</ele><time>2026-03-31T15:27:28.479Z</time></trkpt><trkpt lat="45.8951117" lon="4.56658"><ele>308.0</ele><time>2026-03-31T15:27:30.48Z</time></trkpt><trkpt lat="45.8951067" lon="4.5666817"><ele>308.0</ele><time>2026-03-31T15:27:31.48Z</time></trkpt><trkpt lat="45.8951033" lon="4.5667767"><ele>308.0</ele><time>2026-03-31T15:27:32.48Z</time></trkpt><trkpt lat="45.8951017" lon="4.566885"><ele>308.0</ele><time>2026-03-31T15:27:33.48Z</time></trkpt><trkpt lat="45.8951133" lon="4.5669967"><ele>308.0</ele><time>2026-03-31T15:27:34.48Z</time></trkpt><trkpt lat="45.895125" lon="4.5671067"><ele>308.0</ele><time>2026-03-31T15:27:35.48Z</time></trkpt><trkpt lat="45.8951383" lon="4.5672483"><ele>308.0</ele><time>2026-03-31T15:27:36.48Z</time></trkpt><trkpt lat="45.89515" lon="4.5673733"><ele>308.0</ele><time>2026-03-31T15:27:37.48Z</time></trkpt><trkpt lat="45.8951733" lon="4.5675217"><ele>308.0</ele><time>2026-03-31T15:27:38.48Z</time></trkpt><trkpt lat="45.8951917" lon="4.567675"><ele>308.0</ele><time>2026-03-31T15:27:39.48Z</time></trkpt><trkpt lat="45.895205" lon="4.5678083"><ele>308.0</ele><time>2026-03-31T15:27:40.48Z</time></trkpt><trkpt lat="45.89522" lon="4.5679617"><ele>307.4</ele><time>2026-03-31T15:27:41.48Z</time></trkpt><trkpt lat="45.8952333" lon="4.56808"><ele>306.8</ele><time>2026-03-31T15:27:42.48Z</time></trkpt><trkpt lat="45.89526" lon="4.5681933"><ele>306.2</ele><time>2026-03-31T15:27:43.479Z</time></trkpt><trkpt lat="45.8952783" lon="4.568315"><ele>305.6</ele><time>2026-03-31T15:27:44.48Z</time></trkpt><trkpt lat="45.8952983" lon="4.5684533"><ele>305.0</ele><time>2026-03-31T15:27:45.48Z</time></trkpt><trkpt lat="45.895315" lon="4.5685983"><ele>305.4</ele><time>2026-03-31T15:27:46.48Z</time></trkpt><trkpt lat="45.8953283" lon="4.568745"><ele>305.8</ele><time>2026-03-31T15:27:47.48Z</time></trkpt><trkpt lat="45.8953367" lon="4.5688933"><ele>306.2</ele><time>2026-03-31T15:27:48.48Z</time></trkpt><trkpt lat="45.89534" lon="4.5690583"><ele>306.6</ele><time>2026-03-31T15:27:49.479Z</time></trkpt><trkpt lat="45.8953433" lon="4.569215"><ele>307.0</ele><time>2026-03-31T15:27:50.48Z</time></trkpt><trkpt lat="45.89534" lon="4.5693583"><ele>307.0</ele><time>2026-03-31T15:27:51.48Z</time></trkpt><trkpt lat="45.8953467" lon="4.569495"><ele>307.0</ele><time>2026-03-31T15:27:52.48Z</time></trkpt><trkpt lat="45.8953417" lon="4.5696433"><ele>307.0</ele><time>2026-03-31T15:27:53.48Z</time></trkpt><trkpt lat="45.8953517" lon="4.5698"><ele>307.0</ele><time>2026-03-31T15:27:54.48Z</time></trkpt><trkpt lat="45.89536" lon="4.569955"><ele>307.0</ele><time>2026-03-31T15:27:55.48Z</time></trkpt><trkpt lat="45.895375" lon="4.5700883"><ele>307.3333333333333</ele><time>2026-03-31T15:27:56.479Z</time></trkpt><trkpt lat="45.8953783" lon="4.5702033"><ele>307.66666666666663</ele><time>2026-03-31T15:27:57.479Z</time></trkpt><trkpt lat="45.8953783" lon="4.5703233"><ele>308.0</ele><time>2026-03-31T15:27:58.48Z</time></trkpt><trkpt lat="45.895385" lon="4.57044"><ele>308.3333333333333</ele><time>2026-03-31T15:27:59.48Z</time></trkpt><trkpt lat="45.8953883" lon="4.570535"><ele>308.6666666666667</ele><time>2026-03-31T15:28:00.48Z</time></trkpt><trkpt lat="45.8953983" lon="4.57067"><ele>309.0</ele><time>2026-03-31T15:28:02.48Z</time></trkpt><trkpt lat="45.8954" lon="4.5707867"><ele>309.2</ele><time>2026-03-31T15:28:05.48Z</time></trkpt><trkpt lat="45.895305" lon="4.5707883"><ele>309.4</ele><time>2026-03-31T15:28:09.479Z</time></trkpt><trkpt lat="45.895205" lon="4.5706983"><ele>309.6</ele><time>2026-03-31T15:28:11.48Z</time></trkpt><trkpt lat="45.895135" lon="4.5706433"><ele>309.8</ele><time>2026-03-31T15:28:12.481Z</time></trkpt><trkpt lat="45.8950667" lon="4.57059"><ele>310.0</ele><time>2026-03-31T15:28:13.481Z</time></trkpt><trkpt lat="45.894975" lon="4.5705183"><ele>309.0</ele><time>2026-03-31T15:28:15.48Z</time></trkpt><trkpt lat="45.8948733" lon="4.5704383"><ele>308.0</ele><time>2026-03-31T15:28:17.481Z</time></trkpt><trkpt lat="45.8947967" lon="4.5704083"><ele>307.0</ele><time>2026-03-31T15:28:19.481Z</time></trkpt><trkpt lat="45.894705" lon="4.5704467"><ele>306.0</ele><time>2026-03-31T15:28:21.481Z</time></trkpt><trkpt lat="45.8946" lon="4.5705467"><ele>305.0</ele><time>2026-03-31T15:28:23.48Z</time></trkpt><trkpt lat="45.8944867" lon="4.5706617"><ele>305.0</ele><time>2026-03-31T15:28:25.481Z</time></trkpt><trkpt lat="45.89442" lon="4.5707267"><ele>305.0</ele><time>2026-03-31T15:28:26.481Z</time></trkpt><trkpt lat="45.8943533" lon="4.5707917"><ele>305.0</ele><time>2026-03-31T15:28:27.481Z</time></trkpt><trkpt lat="45.8942983" lon="4.5708483"><ele>305.0</ele><time>2026-03-31T15:28:28.48Z</time></trkpt><trkpt lat="45.89424" lon="4.5709133"><ele>305.0</ele><time>2026-03-31T15:28:29.481Z</time></trkpt><trkpt lat="45.8941833" lon="4.570975"><ele>305.0</ele><time>2026-03-31T15:28:30.481Z</time></trkpt><trkpt lat="45.8940867" lon="4.5711033"><ele>304.0</ele><time>2026-03-31T15:28:32.481Z</time></trkpt><trkpt lat="45.89404" lon="4.5711783"><ele>303.0</ele><time>2026-03-31T15:28:33.481Z</time></trkpt><trkpt lat="45.8939683" lon="4.5712933"><ele>302.0</ele><time>2026-03-31T15:28:35.481Z</time></trkpt><trkpt lat="45.8939067" lon="4.57143"><ele>301.0</ele><time>2026-03-31T15:28:37.481Z</time></trkpt><trkpt lat="45.8938633" lon="4.5715067"><ele>300.0</ele><time>2026-03-31T15:28:38.481Z</time></trkpt><trkpt lat="45.8938183" lon="4.571585"><ele>299.0</ele><time>2026-03-31T15:28:39.481Z</time></trkpt><trkpt lat="45.8937417" lon="4.571715"><ele>299.0</ele><time>2026-03-31T15:28:41.481Z</time></trkpt><trkpt lat="45.893665" lon="4.5718467"><ele>299.0</ele><time>2026-03-31T15:28:43.48Z</time></trkpt><trkpt lat="45.8936217" lon="4.57192"><ele>299.0</ele><time>2026-03-31T15:28:44.481Z</time></trkpt><trkpt lat="45.8935883" lon="4.5719967"><ele>299.0</ele><time>2026-03-31T15:28:45.481Z</time></trkpt><trkpt lat="45.89355" lon="4.5720767"><ele>299.0</ele><time>2026-03-31T15:28:46.481Z</time></trkpt><trkpt lat="45.8935033" lon="4.5721767"><ele>299.0</ele><time>2026-03-31T15:28:47.481Z</time></trkpt><trkpt lat="45.8934517" lon="4.572275"><ele>298.5</ele><time>2026-03-31T15:28:48.481Z</time></trkpt><trkpt lat="45.8934017" lon="4.5723633"><ele>298.0</ele><time>2026-03-31T15:28:49.481Z</time></trkpt><trkpt lat="45.8933367" lon="4.5724467"><ele>297.5</ele><time>2026-03-31T15:28:50.481Z</time></trkpt><trkpt lat="45.8932683" lon="4.5725317"><ele>297.0</ele><time>2026-03-31T15:28:51.481Z</time></trkpt><trkpt lat="45.8932067" lon="4.5726133"><ele>296.5</ele><time>2026-03-31T15:28:52.481Z</time></trkpt><trkpt lat="45.8931533" lon="4.5726667"><ele>296.0</ele><time>2026-03-31T15:28:53.481Z</time></trkpt><trkpt lat="45.8930567" lon="4.5727767"><ele>296.0</ele><time>2026-03-31T15:28:55.481Z</time></trkpt><trkpt lat="45.8930033" lon="4.5728283"><ele>296.0</ele><time>2026-03-31T15:28:56.481Z</time></trkpt><trkpt lat="45.8929417" lon="4.5728983"><ele>296.0</ele><time>2026-03-31T15:28:58.481Z</time></trkpt><trkpt lat="45.892845" lon="4.5729983"><ele>296.0</ele><time>2026-03-31T15:29:00.481Z</time></trkpt><trkpt lat="45.89279" lon="4.5730483"><ele>296.0</ele><time>2026-03-31T15:29:01.481Z</time></trkpt><trkpt lat="45.8927233" lon="4.5731233"><ele>296.0</ele><time>2026-03-31T15:29:03.481Z</time></trkpt><trkpt lat="45.8926183" lon="4.5732383"><ele>294.5</ele><time>2026-03-31T15:29:05.481Z</time></trkpt><trkpt lat="45.892555" lon="4.573325"><ele>293.0</ele><time>2026-03-31T15:29:06.481Z</time></trkpt><trkpt lat="45.8924817" lon="4.57341"><ele>291.5</ele><time>2026-03-31T15:29:07.481Z</time></trkpt><trkpt lat="45.89242" lon="4.5735017"><ele>290.0</ele><time>2026-03-31T15:29:08.481Z</time></trkpt><trkpt lat="45.8923617" lon="4.57359"><ele>288.5</ele><time>2026-03-31T15:29:09.481Z</time></trkpt><trkpt lat="45.8923083" lon="4.5736733"><ele>287.0</ele><time>2026-03-31T15:29:10.481Z</time></trkpt><trkpt lat="45.8922567" lon="4.5737583"><ele>286.8</ele><time>2026-03-31T15:29:11.481Z</time></trkpt><trkpt lat="45.8922117" lon="4.5738683"><ele>286.6</ele><time>2026-03-31T15:29:12.481Z</time></trkpt><trkpt lat="45.8921617" lon="4.57402"><ele>286.40000000000003</ele><time>2026-03-31T15:29:13.481Z</time></trkpt><trkpt lat="45.8921167" lon="4.5741717"><ele>286.2</ele><time>2026-03-31T15:29:14.481Z</time></trkpt><trkpt lat="45.8920717" lon="4.5743067"><ele>286.0</ele><time>2026-03-31T15:29:15.481Z</time></trkpt><trkpt lat="45.8920317" lon="4.5744233"><ele>285.3333333333333</ele><time>2026-03-31T15:29:16.481Z</time></trkpt><trkpt lat="45.89199" lon="4.5745317"><ele>284.66666666666663</ele><time>2026-03-31T15:29:17.48Z</time></trkpt><trkpt lat="45.8919417" lon="4.5746133"><ele>284.0</ele><time>2026-03-31T15:29:18.481Z</time></trkpt><trkpt lat="45.8918967" lon="4.5746967"><ele>283.3333333333333</ele><time>2026-03-31T15:29:19.481Z</time></trkpt><trkpt lat="45.8918567" lon="4.574785"><ele>282.6666666666667</ele><time>2026-03-31T15:29:20.481Z</time></trkpt><trkpt lat="45.8918167" lon="4.5748717"><ele>282.0</ele><time>2026-03-31T15:29:21.481Z</time></trkpt><trkpt lat="45.891775" lon="4.5749833"><ele>281.0</ele><time>2026-03-31T15:29:22.481Z</time></trkpt><trkpt lat="45.89173" lon="4.575105"><ele>280.0</ele><time>2026-03-31T15:29:23.481Z</time></trkpt><trkpt lat="45.8916867" lon="4.575215"><ele>279.0</ele><time>2026-03-31T15:29:24.481Z</time></trkpt><trkpt lat="45.89165" lon="4.575325"><ele>278.0</ele><time>2026-03-31T15:29:25.481Z</time></trkpt><trkpt lat="45.8916167" lon="4.5754233"><ele>277.0</ele><time>2026-03-31T15:29:26.48Z</time></trkpt><trkpt lat="45.8915833" lon="4.5755217"><ele>276.0</ele><time>2026-03-31T15:29:27.481Z</time></trkpt><trkpt lat="45.8915567" lon="4.5756267"><ele>275.8333333333333</ele><time>2026-03-31T15:29:28.481Z</time></trkpt><trkpt lat="45.89153" lon="4.575735"><ele>275.6666666666667</ele><time>2026-03-31T15:29:29.481Z</time></trkpt><trkpt lat="45.8915117" lon="4.5758517"><ele>275.5</ele><time>2026-03-31T15:29:30.481Z</time></trkpt><trkpt lat="45.8914933" lon="4.5759633"><ele>275.33333333333337</ele><time>2026-03-31T15:29:31.48Z</time></trkpt><trkpt lat="45.8914767" lon="4.5760783"><ele>275.1666666666667</ele><time>2026-03-31T15:29:32.481Z</time></trkpt><trkpt lat="45.891455" lon="4.576185"><ele>275.0</ele><time>2026-03-31T15:29:33.481Z</time></trkpt><trkpt lat="45.8914233" lon="4.57629"><ele>274.83333333333337</ele><time>2026-03-31T15:29:34.481Z</time></trkpt><trkpt lat="45.891385" lon="4.5764167"><ele>274.6666666666667</ele><time>2026-03-31T15:29:35.48Z</time></trkpt><trkpt lat="45.8913417" lon="4.57653"><ele>274.5</ele><time>2026-03-31T15:29:36.48Z</time></trkpt><trkpt lat="45.891305" lon="4.57661"><ele>274.3333333333333</ele><time>2026-03-31T15:29:37.481Z</time></trkpt><trkpt lat="45.8912433" lon="4.5767667"><ele>274.16666666666663</ele><time>2026-03-31T15:29:39.481Z</time></trkpt><trkpt lat="45.8912033" lon="4.5768417"><ele>274.0</ele><time>2026-03-31T15:29:40.481Z</time></trkpt><trkpt lat="45.8911483" lon="4.576925"><ele>274.0</ele><time>2026-03-31T15:29:41.481Z</time></trkpt><trkpt lat="45.891085" lon="4.577005"><ele>274.0</ele><time>2026-03-31T15:29:42.481Z</time></trkpt><trkpt lat="45.89102" lon="4.5770967"><ele>274.0</ele><time>2026-03-31T15:29:43.48Z</time></trkpt><trkpt lat="45.8909583" lon="4.57718"><ele>274.0</ele><time>2026-03-31T15:29:44.481Z</time></trkpt><trkpt lat="45.8908967" lon="4.5772617"><ele>274.0</ele><time>2026-03-31T15:29:45.48Z</time></trkpt><trkpt lat="45.8908433" lon="4.57733"><ele>274.0</ele><time>2026-03-31T15:29:46.481Z</time></trkpt><trkpt lat="45.8907967" lon="4.5773917"><ele>274.66666666666663</ele><time>2026-03-31T15:29:47.481Z</time></trkpt><trkpt lat="45.8907333" lon="4.5775267"><ele>275.3333333333333</ele><time>2026-03-31T15:29:49.481Z</time></trkpt><trkpt lat="45.8907233" lon="4.5776633"><ele>276.0</ele><time>2026-03-31T15:29:51.481Z</time></trkpt><trkpt lat="45.8907517" lon="4.577805"><ele>276.6666666666667</ele><time>2026-03-31T15:29:53.481Z</time></trkpt><trkpt lat="45.8907817" lon="4.5778983"><ele>277.33333333333337</ele><time>2026-03-31T15:29:55.481Z</time></trkpt><trkpt lat="45.8907717" lon="4.5779917"><ele>278.0</ele><time>2026-03-31T15:29:58.481Z</time></trkpt><trkpt lat="45.8907" lon="4.5779167"><ele>278.0</ele><time>2026-03-31T15:30:02.481Z</time></trkpt><trkpt lat="45.8906417" lon="4.5777883"><ele>278.0</ele><time>2026-03-31T15:30:04.481Z</time></trkpt><trkpt lat="45.8905517" lon="4.5777517"><ele>278.0</ele><time>2026-03-31T15:30:06.481Z</time></trkpt><trkpt lat="45.89046" lon="4.5777683"><ele>278.0</ele><time>2026-03-31T15:30:09.481Z</time></trkpt><trkpt lat="45.8903717" lon="4.5777683"><ele>278.0</ele><time>2026-03-31T15:30:11.481Z</time></trkpt><trkpt lat="45.8902767" lon="4.5777783"><ele>278.0</ele><time>2026-03-31T15:30:13.481Z</time></trkpt><trkpt lat="45.8901633" lon="4.5777683"><ele>278.0</ele><time>2026-03-31T15:30:15.481Z</time></trkpt><trkpt lat="45.8900967" lon="4.5777567"><ele>278.0</ele><time>2026-03-31T15:30:16.481Z</time></trkpt><trkpt lat="45.8900317" lon="4.577755"><ele>278.0</ele><time>2026-03-31T15:30:17.48Z</time></trkpt><trkpt lat="45.8899567" lon="4.5777533"><ele>278.0</ele><time>2026-03-31T15:30:18.48Z</time></trkpt><trkpt lat="45.88988" lon="4.5777533"><ele>278.0</ele><time>2026-03-31T15:30:19.481Z</time></trkpt><trkpt lat="45.889815" lon="4.5777533"><ele>279.6666666666667</ele><time>2026-03-31T15:30:20.481Z</time></trkpt><trkpt lat="45.88975" lon="4.57778"><ele>281.33333333333337</ele><time>2026-03-31T15:30:21.481Z</time></trkpt><trkpt lat="45.8896883" lon="4.57782"><ele>283.0</ele><time>2026-03-31T15:30:22.48Z</time></trkpt><trkpt lat="45.8896267" lon="4.57788"><ele>284.6666666666667</ele><time>2026-03-31T15:30:23.481Z</time></trkpt><trkpt lat="45.8895683" lon="4.5779483"><ele>286.3333333333333</ele><time>2026-03-31T15:30:24.481Z</time></trkpt><trkpt lat="45.8895083" lon="4.578035"><ele>288.0</ele><time>2026-03-31T15:30:25.481Z</time></trkpt><trkpt lat="45.8894467" lon="4.5781333"><ele>288.6</ele><time>2026-03-31T15:30:26.481Z</time></trkpt><trkpt lat="45.8893767" lon="4.5782317"><ele>289.20000000000005</ele><time>2026-03-31T15:30:27.481Z</time></trkpt><trkpt lat="45.8893117" lon="4.578305"><ele>289.8</ele><time>2026-03-31T15:30:28.481Z</time></trkpt><trkpt lat="45.88924" lon="4.5783933"><ele>290.40000000000003</ele><time>2026-03-31T15:30:29.481Z</time></trkpt><trkpt lat="45.8891717" lon="4.578475"><ele>291.0</ele><time>2026-03-31T15:30:30.481Z</time></trkpt><trkpt lat="45.8891033" lon="4.57855"><ele>291.1666666666667</ele><time>2026-03-31T15:30:31.481Z</time></trkpt><trkpt lat="45.8890317" lon="4.5786217"><ele>291.3333333333333</ele><time>2026-03-31T15:30:32.481Z</time></trkpt><trkpt lat="45.888965" lon="4.57868"><ele>291.5</ele><time>2026-03-31T15:30:33.481Z</time></trkpt><trkpt lat="45.8889033" lon="4.5787383"><ele>291.66666666666663</ele><time>2026-03-31T15:30:34.481Z</time></trkpt><trkpt lat="45.8888417" lon="4.5787633"><ele>291.8333333333333</ele><time>2026-03-31T15:30:35.481Z</time></trkpt><trkpt lat="45.888745" lon="4.5788267"><ele>292.0</ele><time>2026-03-31T15:30:37.48Z</time></trkpt><trkpt lat="45.8886617" lon="4.5788383"><ele>292.0</ele><time>2026-03-31T15:30:39.481Z</time></trkpt><trkpt lat="45.88858" lon="4.5788033"><ele>292.0</ele><time>2026-03-31T15:30:41.48Z</time></trkpt><trkpt lat="45.8885033" lon="4.5787067"><ele>292.0</ele><time>2026-03-31T15:30:43.481Z</time></trkpt><trkpt lat="45.8884367" lon="4.57859"><ele>292.0</ele><time>2026-03-31T15:30:45.481Z</time></trkpt><trkpt lat="45.8883567" lon="4.578455"><ele>292.0</ele><time>2026-03-31T15:30:47.481Z</time></trkpt><trkpt lat="45.8883117" lon="4.5783867"><ele>291.85714285714283</ele><time>2026-03-31T15:30:48.48Z</time></trkpt><trkpt lat="45.8882717" lon="4.578315"><ele>291.7142857142857</ele><time>2026-03-31T15:30:49.481Z</time></trkpt><trkpt lat="45.888225" lon="4.5782467"><ele>291.57142857142856</ele><time>2026-03-31T15:30:50.481Z</time></trkpt><trkpt lat="45.8881683" lon="4.5781783"><ele>291.42857142857144</ele><time>2026-03-31T15:30:51.481Z</time></trkpt><trkpt lat="45.8881117" lon="4.5781083"><ele>291.2857142857143</ele><time>2026-03-31T15:30:52.481Z</time></trkpt><trkpt lat="45.88805" lon="4.5780383"><ele>291.1428571428571</ele><time>2026-03-31T15:30:53.481Z</time></trkpt><trkpt lat="45.8879967" lon="4.5779717"><ele>291.0</ele><time>2026-03-31T15:30:54.481Z</time></trkpt><trkpt lat="45.887915" lon="4.5778733"><ele>291.0</ele><time>2026-03-31T15:30:56.481Z</time></trkpt><trkpt lat="45.8878417" lon="4.577785"><ele>291.0</ele><time>2026-03-31T15:30:58.481Z</time></trkpt><trkpt lat="45.8877667" lon="4.5776783"><ele>291.0</ele><time>2026-03-31T15:31:00.481Z</time></trkpt><trkpt lat="45.887715" lon="4.577605"><ele>291.0</ele><time>2026-03-31T15:31:01.481Z</time></trkpt><trkpt lat="45.8876583" lon="4.5775167"><ele>291.0</ele><time>2026-03-31T15:31:02.481Z</time></trkpt><trkpt lat="45.8876133" lon="4.5774383"><ele>291.0</ele><time>2026-03-31T15:31:03.481Z</time></trkpt><trkpt lat="45.8875217" lon="4.5773067"><ele>291.0</ele><time>2026-03-31T15:31:05.481Z</time></trkpt><trkpt lat="45.8874633" lon="4.577245"><ele>291.0</ele><time>2026-03-31T15:31:06.481Z</time></trkpt><trkpt lat="45.8874117" lon="4.5771917"><ele>291.0</ele><time>2026-03-31T15:31:07.481Z</time></trkpt><trkpt lat="45.8873583" lon="4.5771433"><ele>291.0</ele><time>2026-03-31T15:31:08.48Z</time></trkpt><trkpt lat="45.8872983" lon="4.5770967"><ele>291.0</ele><time>2026-03-31T15:31:09.481Z</time></trkpt><trkpt lat="45.8872367" lon="4.5770467"><ele>291.0</ele><time>2026-03-31T15:31:10.481Z</time></trkpt><trkpt lat="45.8871783" lon="4.5770033"><ele>291.0</ele><time>2026-03-31T15:31:11.48Z</time></trkpt><trkpt lat="45.8871167" lon="4.5769533"><ele>291.8333333333333</ele><time>2026-03-31T15:31:12.481Z</time></trkpt><trkpt lat="45.8870467" lon="4.5768967"><ele>292.6666666666667</ele><time>2026-03-31T15:31:13.481Z</time></trkpt><trkpt lat="45.8869717" lon="4.5768433"><ele>293.5</ele><time>2026-03-31T15:31:14.481Z</time></trkpt><trkpt lat="45.886895" lon="4.5767767"><ele>294.33333333333337</ele><time>2026-03-31T15:31:15.481Z</time></trkpt><trkpt lat="45.88683" lon="4.5767233"><ele>295.1666666666667</ele><time>2026-03-31T15:31:16.481Z</time></trkpt><trkpt lat="45.88677" lon="4.5766883"><ele>296.0</ele><time>2026-03-31T15:31:17.481Z</time></trkpt><trkpt lat="45.886715" lon="4.5766433"><ele>296.0</ele><time>2026-03-31T15:31:18.481Z</time></trkpt><trkpt lat="45.8866617" lon="4.5765867"><ele>296.0</ele><time>2026-03-31T15:31:19.481Z</time></trkpt><trkpt lat="45.886565" lon="4.576475"><ele>296.0</ele><time>2026-03-31T15:31:21.481Z</time></trkpt><trkpt lat="45.886515" lon="4.5763983"><ele>296.0</ele><time>2026-03-31T15:31:22.48Z</time></trkpt><trkpt lat="45.886475" lon="4.576305"><ele>296.0</ele><time>2026-03-31T15:31:23.481Z</time></trkpt><trkpt lat="45.8864333" lon="4.5762183"><ele>296.0</ele><time>2026-03-31T15:31:24.481Z</time></trkpt><trkpt lat="45.8863883" lon="4.57614"><ele>297.40000000000003</ele><time>2026-03-31T15:31:25.481Z</time></trkpt><trkpt lat="45.8863283" lon="4.5760617"><ele>298.8</ele><time>2026-03-31T15:31:26.481Z</time></trkpt><trkpt lat="45.886235" lon="4.5760017"><ele>300.20000000000005</ele><time>2026-03-31T15:31:27.481Z</time></trkpt><trkpt lat="45.8861567" lon="4.5759233"><ele>301.6</ele><time>2026-03-31T15:31:28.481Z</time></trkpt><trkpt lat="45.8860733" lon="4.5758517"><ele>303.0</ele><time>2026-03-31T15:31:30.481Z</time></trkpt><trkpt lat="45.8860083" lon="4.5757883"><ele>303.0</ele><time>2026-03-31T15:31:32.48Z</time></trkpt><trkpt lat="45.8859633" lon="4.575725"><ele>303.0</ele><time>2026-03-31T15:31:34.481Z</time></trkpt><trkpt lat="45.8858733" lon="4.5756017"><ele>303.0</ele><time>2026-03-31T15:31:36.481Z</time></trkpt><trkpt lat="45.8858133" lon="4.5754967"><ele>303.0</ele><time>2026-03-31T15:31:37.481Z</time></trkpt><trkpt lat="45.8857317" lon="4.5753833"><ele>303.0</ele><time>2026-03-31T15:31:38.481Z</time></trkpt><trkpt lat="45.885645" lon="4.575255"><ele>302.75</ele><time>2026-03-31T15:31:39.481Z</time></trkpt><trkpt lat="45.8855583" lon="4.5751183"><ele>302.5</ele><time>2026-03-31T15:31:40.481Z</time></trkpt><trkpt lat="45.8854683" lon="4.5749767"><ele>302.25</ele><time>2026-03-31T15:31:41.481Z</time></trkpt><trkpt lat="45.8853833" lon="4.5748383"><ele>302.0</ele><time>2026-03-31T15:31:42.481Z</time></trkpt><trkpt lat="45.8853017" lon="4.5747017"><ele>302.0</ele><time>2026-03-31T15:31:43.48Z</time></trkpt><trkpt lat="45.8852217" lon="4.57458"><ele>302.0</ele><time>2026-03-31T15:31:44.481Z</time></trkpt><trkpt lat="45.8851467" lon="4.57445"><ele>302.0</ele><time>2026-03-31T15:31:45.481Z</time></trkpt><trkpt lat="45.8850633" lon="4.57431"><ele>302.0</ele><time>2026-03-31T15:31:46.481Z</time></trkpt><trkpt lat="45.884985" lon="4.57419"><ele>304.6</ele><time>2026-03-31T15:31:47.481Z</time></trkpt><trkpt lat="45.884915" lon="4.5740733"><ele>307.2</ele><time>2026-03-31T15:31:48.481Z</time></trkpt><trkpt lat="45.8848467" lon="4.5739483"><ele>309.8</ele><time>2026-03-31T15:31:49.481Z</time></trkpt><trkpt lat="45.8847783" lon="4.573825"><ele>312.4</ele><time>2026-03-31T15:31:50.481Z</time></trkpt><trkpt lat="45.8847083" lon="4.5736933"><ele>315.0</ele><time>2026-03-31T15:31:51.481Z</time></trkpt><trkpt lat="45.8846433" lon="4.57357"><ele>316.0</ele><time>2026-03-31T15:31:52.48Z</time></trkpt><trkpt lat="45.8845783" lon="4.5734583"><ele>317.0</ele><time>2026-03-31T15:31:53.481Z</time></trkpt><trkpt lat="45.884525" lon="4.5733483"><ele>318.0</ele><time>2026-03-31T15:31:54.481Z</time></trkpt><trkpt lat="45.8844833" lon="4.5732233"><ele>319.0</ele><time>2026-03-31T15:31:55.481Z</time></trkpt><trkpt lat="45.8844517" lon="4.57309"><ele>320.0</ele><time>2026-03-31T15:31:56.481Z</time></trkpt><trkpt lat="45.8844267" lon="4.572945"><ele>321.4</ele><time>2026-03-31T15:31:57.481Z</time></trkpt><trkpt lat="45.884395" lon="4.572785"><ele>322.8</ele><time>2026-03-31T15:31:58.481Z</time></trkpt><trkpt lat="45.8843683" lon="4.57262"><ele>324.20000000000005</ele><time>2026-03-31T15:31:59.481Z</time></trkpt><trkpt lat="45.8843433" lon="4.5724717"><ele>325.6</ele><time>2026-03-31T15:32:00.481Z</time></trkpt><trkpt lat="45.884315" lon="4.5723367"><ele>327.0</ele><time>2026-03-31T15:32:01.481Z</time></trkpt><trkpt lat="45.8842833" lon="4.5722033"><ele>327.8333333333333</ele><time>2026-03-31T15:32:02.481Z</time></trkpt><trkpt lat="45.884255" lon="4.5720733"><ele>328.6666666666667</ele><time>2026-03-31T15:32:03.481Z</time></trkpt><trkpt lat="45.8842217" lon="4.571945"><ele>329.5</ele><time>2026-03-31T15:32:04.481Z</time></trkpt><trkpt lat="45.8841883" lon="4.57183"><ele>330.33333333333337</ele><time>2026-03-31T15:32:05.481Z</time></trkpt><trkpt lat="45.8841483" lon="4.5717317"><ele>331.1666666666667</ele><time>2026-03-31T15:32:06.48Z</time></trkpt><trkpt lat="45.88411" lon="4.5716517"><ele>332.0</ele><time>2026-03-31T15:32:07.48Z</time></trkpt><trkpt lat="45.884035" lon="4.5715183"><ele>332.0</ele><time>2026-03-31T15:32:09.481Z</time></trkpt><trkpt lat="45.8839617" lon="4.5713733"><ele>332.0</ele><time>2026-03-31T15:32:11.481Z</time></trkpt><trkpt lat="45.8838867" lon="4.5712333"><ele>332.0</ele><time>2026-03-31T15:32:13.481Z</time></trkpt><trkpt lat="45.883845" lon="4.5711533"><ele>332.0</ele><time>2026-03-31T15:32:14.481Z</time></trkpt><trkpt lat="45.883805" lon="4.571075"><ele>332.0</ele><time>2026-03-31T15:32:15.48Z</time></trkpt><trkpt lat="45.8837633" lon="4.5709883"><ele>332.0</ele><time>2026-03-31T15:32:16.48Z</time></trkpt><trkpt lat="45.8837233" lon="4.5709033"><ele>332.0</ele><time>2026-03-31T15:32:17.481Z</time></trkpt><trkpt lat="45.8836867" lon="4.5708283"><ele>332.0</ele><time>2026-03-31T15:32:18.481Z</time></trkpt><trkpt lat="45.8836567" lon="4.5707467"><ele>332.0</ele><time>2026-03-31T15:32:19.481Z</time></trkpt><trkpt lat="45.8836233" lon="4.5706633"><ele>332.0</ele><time>2026-03-31T15:32:20.481Z</time></trkpt><trkpt lat="45.883575" lon="4.57058"><ele>332.0</ele><time>2026-03-31T15:32:21.481Z</time></trkpt><trkpt lat="45.8835133" lon="4.5704917"><ele>332.0</ele><time>2026-03-31T15:32:22.481Z</time></trkpt><trkpt lat="45.8834467" lon="4.5704"><ele>333.0</ele><time>2026-03-31T15:32:23.481Z</time></trkpt><trkpt lat="45.8833733" lon="4.5703"><ele>334.0</ele><time>2026-03-31T15:32:24.481Z</time></trkpt><trkpt lat="45.8833017" lon="4.5702017"><ele>335.0</ele><time>2026-03-31T15:32:25.481Z</time></trkpt><trkpt lat="45.88325" lon="4.5701267"><ele>336.0</ele><time>2026-03-31T15:32:26.481Z</time></trkpt><trkpt lat="45.8832033" lon="4.5700533"><ele>337.0</ele><time>2026-03-31T15:32:28.481Z</time></trkpt><trkpt lat="45.88313" lon="4.5699483"><ele>338.0</ele><time>2026-03-31T15:32:38.481Z</time></trkpt><trkpt lat="45.8830717" lon="4.5698733"><ele>338.0</ele><time>2026-03-31T15:32:39.481Z</time></trkpt><trkpt lat="45.8830167" lon="4.5698"><ele>338.0</ele><time>2026-03-31T15:32:40.481Z</time></trkpt><trkpt lat="45.8829333" lon="4.5696917"><ele>338.0</ele><time>2026-03-31T15:32:42.481Z</time></trkpt><trkpt lat="45.8828617" lon="4.569595"><ele>338.0</ele><time>2026-03-31T15:32:44.481Z</time></trkpt><trkpt lat="45.8828117" lon="4.569525"><ele>338.0</ele><time>2026-03-31T15:32:45.481Z</time></trkpt><trkpt lat="45.8827583" lon="4.5694467"><ele>338.0</ele><time>2026-03-31T15:32:46.48Z</time></trkpt><trkpt lat="45.8827067" lon="4.56937"><ele>338.1666666666667</ele><time>2026-03-31T15:32:47.481Z</time></trkpt><trkpt lat="45.88265" lon="4.569295"><ele>338.33333333333337</ele><time>2026-03-31T15:32:48.481Z</time></trkpt><trkpt lat="45.88259" lon="4.5692183"><ele>338.5</ele><time>2026-03-31T15:32:49.481Z</time></trkpt><trkpt lat="45.88254" lon="4.5691367"><ele>338.6666666666667</ele><time>2026-03-31T15:32:50.481Z</time></trkpt><trkpt lat="45.8824983" lon="4.56906"><ele>338.8333333333333</ele><time>2026-03-31T15:32:51.481Z</time></trkpt><trkpt lat="45.8824317" lon="4.5689217"><ele>339.0</ele><time>2026-03-31T15:32:53.481Z</time></trkpt><trkpt lat="45.882355" lon="4.5687767"><ele>339.0</ele><time>2026-03-31T15:32:55.481Z</time></trkpt><trkpt lat="45.882315" lon="4.5687017"><ele>339.0</ele><time>2026-03-31T15:32:56.481Z</time></trkpt><trkpt lat="45.882275" lon="4.56863"><ele>339.0</ele><time>2026-03-31T15:32:57.481Z</time></trkpt><trkpt lat="45.8822083" lon="4.56849"><ele>339.0</ele><time>2026-03-31T15:32:59.481Z</time></trkpt><trkpt lat="45.8821367" lon="4.5683383"><ele>339.0</ele><time>2026-03-31T15:33:01.481Z</time></trkpt><trkpt lat="45.8820767" lon="4.5681983"><ele>338.3333333333333</ele><time>2026-03-31T15:33:03.481Z</time></trkpt><trkpt lat="45.8820517" lon="4.5681117"><ele>337.6666666666667</ele><time>2026-03-31T15:33:04.48Z</time></trkpt><trkpt lat="45.882035" lon="4.5680233"><ele>337.0</ele><time>2026-03-31T15:33:05.481Z</time></trkpt><trkpt lat="45.8820517" lon="4.5678383"><ele>336.33333333333337</ele><time>2026-03-31T15:33:07.481Z</time></trkpt><trkpt lat="45.8820833" lon="4.5677183"><ele>335.6666666666667</ele><time>2026-03-31T15:33:08.481Z</time></trkpt><trkpt lat="45.8821083" lon="4.5675983"><ele>335.0</ele><time>2026-03-31T15:33:09.481Z</time></trkpt><trkpt lat="45.8821217" lon="4.5674683"><ele>334.6666666666667</ele><time>2026-03-31T15:33:10.481Z</time></trkpt><trkpt lat="45.8821383" lon="4.56734"><ele>334.33333333333337</ele><time>2026-03-31T15:33:11.481Z</time></trkpt><trkpt lat="45.8821467" lon="4.5672083"><ele>334.0</ele><time>2026-03-31T15:33:12.48Z</time></trkpt><trkpt lat="45.88216" lon="4.56708"><ele>333.6666666666667</ele><time>2026-03-31T15:33:13.48Z</time></trkpt><trkpt lat="45.8821783" lon="4.5669633"><ele>333.3333333333333</ele><time>2026-03-31T15:33:14.482Z</time></trkpt><trkpt lat="45.8822033" lon="4.5668583"><ele>333.0</ele><time>2026-03-31T15:33:15.482Z</time></trkpt><trkpt lat="45.8822367" lon="4.566765"><ele>333.5</ele><time>2026-03-31T15:33:16.482Z</time></trkpt><trkpt lat="45.8822833" lon="4.56667"><ele>334.0</ele><time>2026-03-31T15:33:17.481Z</time></trkpt><trkpt lat="45.8823433" lon="4.5665883"><ele>334.5</ele><time>2026-03-31T15:33:18.482Z</time></trkpt><trkpt lat="45.8824183" lon="4.56651"><ele>335.0</ele><time>2026-03-31T15:33:19.481Z</time></trkpt><trkpt lat="45.8824933" lon="4.5664317"><ele>335.5</ele><time>2026-03-31T15:33:20.482Z</time></trkpt><trkpt lat="45.8825583" lon="4.56635"><ele>336.0</ele><time>2026-03-31T15:33:21.481Z</time></trkpt><trkpt lat="45.8826267" lon="4.56625"><ele>337.1666666666667</ele><time>2026-03-31T15:33:22.482Z</time></trkpt><trkpt lat="45.8826867" lon="4.56615"><ele>338.3333333333333</ele><time>2026-03-31T15:33:23.482Z</time></trkpt><trkpt lat="45.8827483" lon="4.5660583"><ele>339.5</ele><time>2026-03-31T15:33:24.482Z</time></trkpt><trkpt lat="45.8828083" lon="4.5659783"><ele>340.66666666666663</ele><time>2026-03-31T15:33:25.482Z</time></trkpt><trkpt lat="45.8828583" lon="4.5658867"><ele>341.8333333333333</ele><time>2026-03-31T15:33:26.482Z</time></trkpt><trkpt lat="45.8828967" lon="4.5657767"><ele>343.0</ele><time>2026-03-31T15:33:27.482Z</time></trkpt><trkpt lat="45.882925" lon="4.565665"><ele>343.0</ele><time>2026-03-31T15:33:28.482Z</time></trkpt><trkpt lat="45.8829533" lon="4.5655617"><ele>343.0</ele><time>2026-03-31T15:33:29.482Z</time></trkpt><trkpt lat="45.8829917" lon="4.5654"><ele>343.0</ele><time>2026-03-31T15:33:31.482Z</time></trkpt><trkpt lat="45.8830733" lon="4.5653117"><ele>343.0</ele><time>2026-03-31T15:33:33.482Z</time></trkpt><trkpt lat="45.8831467" lon="4.565315"><ele>343.0</ele><time>2026-03-31T15:33:34.481Z</time></trkpt><trkpt lat="45.8832467" lon="4.565355"><ele>343.0</ele><time>2026-03-31T15:33:35.482Z</time></trkpt><trkpt lat="45.8833633" lon="4.5653983"><ele>343.0</ele><time>2026-03-31T15:33:36.482Z</time></trkpt><trkpt lat="45.883485" lon="4.56544"><ele>343.0</ele><time>2026-03-31T15:33:37.482Z</time></trkpt><trkpt lat="45.8836017" lon="4.5654783"><ele>343.0</ele><time>2026-03-31T15:33:38.481Z</time></trkpt><trkpt lat="45.88371" lon="4.5655083"><ele>344.16666666666663</ele><time>2026-03-31T15:33:39.481Z</time></trkpt><trkpt lat="45.883805" lon="4.565535"><ele>345.3333333333333</ele><time>2026-03-31T15:33:40.482Z</time></trkpt><trkpt lat="45.88389" lon="4.5655633"><ele>346.5</ele><time>2026-03-31T15:33:41.482Z</time></trkpt><trkpt lat="45.8839617" lon="4.5655867"><ele>347.6666666666667</ele><time>2026-03-31T15:33:42.482Z</time></trkpt><trkpt lat="45.88403" lon="4.5656017"><ele>348.83333333333337</ele><time>2026-03-31T15:33:43.482Z</time></trkpt><trkpt lat="45.8840967" lon="4.5655983"><ele>350.0</ele><time>2026-03-31T15:33:44.482Z</time></trkpt><trkpt lat="45.8842" lon="4.5655067"><ele>350.0</ele><time>2026-03-31T15:33:46.482Z</time></trkpt><trkpt lat="45.8842433" lon="4.5654233"><ele>350.0</ele><time>2026-03-31T15:33:47.482Z</time></trkpt><trkpt lat="45.884295" lon="4.5652783"><ele>350.0</ele><time>2026-03-31T15:33:49.482Z</time></trkpt><trkpt lat="45.8842917" lon="4.5651117"><ele>350.0</ele><time>2026-03-31T15:33:51.482Z</time></trkpt><trkpt lat="45.884275" lon="4.5650233"><ele>350.0</ele><time>2026-03-31T15:33:52.482Z</time></trkpt><trkpt lat="45.8842483" lon="4.564925"><ele>350.0</ele><time>2026-03-31T15:33:53.482Z</time></trkpt><trkpt lat="45.8842183" lon="4.56481"><ele>350.2</ele><time>2026-03-31T15:33:54.482Z</time></trkpt><trkpt lat="45.8841817" lon="4.5646783"><ele>350.4</ele><time>2026-03-31T15:33:55.482Z</time></trkpt><trkpt lat="45.8841433" lon="4.5645367"><ele>350.6</ele><time>2026-03-31T15:33:56.482Z</time></trkpt><trkpt lat="45.8841083" lon="4.5643933"><ele>350.8</ele><time>2026-03-31T15:33:57.482Z</time></trkpt><trkpt lat="45.88408" lon="4.564265"><ele>351.0</ele><time>2026-03-31T15:33:58.482Z</time></trkpt><trkpt lat="45.8840517" lon="4.564155"><ele>351.0</ele><time>2026-03-31T15:33:59.482Z</time></trkpt><trkpt lat="45.8840233" lon="4.5640367"><ele>351.0</ele><time>2026-03-31T15:34:00.482Z</time></trkpt><trkpt lat="45.8839933" lon="4.5638967"><ele>351.0</ele><time>2026-03-31T15:34:01.482Z</time></trkpt><trkpt lat="45.8839717" lon="4.5637483"><ele>351.0</ele><time>2026-03-31T15:34:02.482Z</time></trkpt><trkpt lat="45.8839433" lon="4.5635983"><ele>351.0</ele><time>2026-03-31T15:34:03.482Z</time></trkpt><trkpt lat="45.88392" lon="4.5634483"><ele>352.20000000000005</ele><time>2026-03-31T15:34:04.482Z</time></trkpt><trkpt lat="45.8838933" lon="4.563295"><ele>353.40000000000003</ele><time>2026-03-31T15:34:05.481Z</time></trkpt><trkpt lat="45.8838667" lon="4.5631533"><ele>354.6</ele><time>2026-03-31T15:34:06.482Z</time></trkpt><trkpt lat="45.8838367" lon="4.563025"><ele>355.8</ele><time>2026-03-31T15:34:07.481Z</time></trkpt><trkpt lat="45.8838117" lon="4.5629167"><ele>357.0</ele><time>2026-03-31T15:34:08.482Z</time></trkpt><trkpt lat="45.8837817" lon="4.56282"><ele>357.40000000000003</ele><time>2026-03-31T15:34:09.481Z</time></trkpt><trkpt lat="45.8837083" lon="4.5626767"><ele>357.8</ele><time>2026-03-31T15:34:11.482Z</time></trkpt><trkpt lat="45.8836467" lon="4.5626117"><ele>358.2</ele><time>2026-03-31T15:34:12.481Z</time></trkpt><trkpt lat="45.8835717" lon="4.5625567"><ele>358.6</ele><time>2026-03-31T15:34:13.482Z</time></trkpt><trkpt lat="45.8834867" lon="4.562515"><ele>359.0</ele><time>2026-03-31T15:34:14.482Z</time></trkpt><trkpt lat="45.8833833" lon="4.56247"><ele>359.6666666666667</ele><time>2026-03-31T15:34:15.482Z</time></trkpt><trkpt lat="45.8832917" lon="4.56244"><ele>360.33333333333337</ele><time>2026-03-31T15:34:16.482Z</time></trkpt><trkpt lat="45.8831967" lon="4.56241"><ele>361.0</ele><time>2026-03-31T15:34:17.482Z</time></trkpt><trkpt lat="45.883125" lon="4.562375"><ele>361.6666666666667</ele><time>2026-03-31T15:34:18.482Z</time></trkpt><trkpt lat="45.883065" lon="4.562345"><ele>362.3333333333333</ele><time>2026-03-31T15:34:19.482Z</time></trkpt><trkpt lat="45.882985" lon="4.5623083"><ele>363.0</ele><time>2026-03-31T15:34:20.482Z</time></trkpt><trkpt lat="45.882915" lon="4.56227"><ele>363.0</ele><time>2026-03-31T15:34:21.482Z</time></trkpt><trkpt lat="45.882865" lon="4.5621883"><ele>363.0</ele><time>2026-03-31T15:34:23.482Z</time></trkpt><trkpt lat="45.8828717" lon="4.56209"><ele>363.0</ele><time>2026-03-31T15:35:06.482Z</time></trkpt></trkseg></trk></gpx>